<?xml version="1.0" encoding="UTF-8" standalone="no" ?>
<gpx xmlns="http://www.topografix.com/GPX/1/1" xmlns:xsi="http://www.w3.org/2001/XMLSchema-instance" xsi:schemaLocation="http://www.topografix.com/GPX/1/1 http://www.topografix.com/GPX/1/1/gpx.xsd" version="1.1" creator="VisuGPX - https://www.visugpx.com">
  <metadata>
    <name>Monts et Jardins 2012 - 40km</name>
    <desc><![CDATA[Rando VTT Monts et Jardins 2012, parcours 40km]]></desc>
  </metadata>
  <trk>
    <name><![CDATA[montsjardins2012-40]]></name>
    <trkseg>
      <trkpt lat="48.68786" lon="6.12867">
        <ele>342.847</ele>
        <time>2012-03-25T06:03:16.000Z</time>
      </trkpt>
      <trkpt lat="48.68799" lon="6.12873">
        <ele>342.847</ele>
        <time>2012-03-25T06:03:25.000Z</time>
      </trkpt>
      <trkpt lat="48.68802" lon="6.12894">
        <ele>340.925</ele>
        <time>2012-03-25T06:03:30.000Z</time>
      </trkpt>
      <trkpt lat="48.6881" lon="6.12995">
        <ele>337.079</ele>
        <time>2012-03-25T06:03:41.000Z</time>
      </trkpt>
      <trkpt lat="48.68813" lon="6.13055">
        <ele>334.676</ele>
        <time>2012-03-25T06:03:47.000Z</time>
      </trkpt>
      <trkpt lat="48.68818" lon="6.13116">
        <ele>333.234</ele>
        <time>2012-03-25T06:03:53.000Z</time>
      </trkpt>
      <trkpt lat="48.68801" lon="6.13143">
        <ele>332.754</ele>
        <time>2012-03-25T06:03:59.000Z</time>
      </trkpt>
      <trkpt lat="48.68796" lon="6.13141">
        <ele>332.273</ele>
        <time>2012-03-25T06:04:00.000Z</time>
      </trkpt>
      <trkpt lat="48.68776" lon="6.13133">
        <ele>330.831</ele>
        <time>2012-03-25T06:04:03.000Z</time>
      </trkpt>
      <trkpt lat="48.68736" lon="6.13119">
        <ele>327.947</ele>
        <time>2012-03-25T06:04:08.000Z</time>
      </trkpt>
      <trkpt lat="48.68637" lon="6.13091">
        <ele>327.947</ele>
        <time>2012-03-25T06:04:22.000Z</time>
      </trkpt>
      <trkpt lat="48.68563" lon="6.13104">
        <ele>329.389</ele>
        <time>2012-03-25T06:04:36.000Z</time>
      </trkpt>
      <trkpt lat="48.6852" lon="6.1306">
        <ele>330.35</ele>
        <time>2012-03-25T06:04:47.000Z</time>
      </trkpt>
      <trkpt lat="48.68506" lon="6.13019">
        <ele>331.312</ele>
        <time>2012-03-25T06:04:54.000Z</time>
      </trkpt>
      <trkpt lat="48.68497" lon="6.12983">
        <ele>332.754</ele>
        <time>2012-03-25T06:05:00.000Z</time>
      </trkpt>
      <trkpt lat="48.68487" lon="6.12955">
        <ele>334.676</ele>
        <time>2012-03-25T06:05:05.000Z</time>
      </trkpt>
      <trkpt lat="48.6847" lon="6.12902">
        <ele>338.041</ele>
        <time>2012-03-25T06:05:15.000Z</time>
      </trkpt>
      <trkpt lat="48.6844" lon="6.1287">
        <ele>339.483</ele>
        <time>2012-03-25T06:05:24.000Z</time>
      </trkpt>
      <trkpt lat="48.68435" lon="6.12867">
        <ele>339.483</ele>
        <time>2012-03-25T06:05:26.000Z</time>
      </trkpt>
      <trkpt lat="48.68416" lon="6.12873">
        <ele>339.002</ele>
        <time>2012-03-25T06:05:31.000Z</time>
      </trkpt>
      <trkpt lat="48.68369" lon="6.12886">
        <ele>340.444</ele>
        <time>2012-03-25T06:05:42.000Z</time>
      </trkpt>
      <trkpt lat="48.68327" lon="6.12896">
        <ele>340.925</ele>
        <time>2012-03-25T06:05:52.000Z</time>
      </trkpt>
      <trkpt lat="48.68298" lon="6.12902">
        <ele>340.925</ele>
        <time>2012-03-25T06:06:00.000Z</time>
      </trkpt>
      <trkpt lat="48.68274" lon="6.12908">
        <ele>341.405</ele>
        <time>2012-03-25T06:06:05.000Z</time>
      </trkpt>
      <trkpt lat="48.68258" lon="6.12871">
        <ele>343.328</ele>
        <time>2012-03-25T06:06:15.000Z</time>
      </trkpt>
      <trkpt lat="48.68247" lon="6.12849">
        <ele>343.809</ele>
        <time>2012-03-25T06:06:23.000Z</time>
      </trkpt>
      <trkpt lat="48.68232" lon="6.12854">
        <ele>344.289</ele>
        <time>2012-03-25T06:06:31.000Z</time>
      </trkpt>
      <trkpt lat="48.68224" lon="6.12858">
        <ele>343.809</ele>
        <time>2012-03-25T06:06:35.000Z</time>
      </trkpt>
      <trkpt lat="48.6818" lon="6.12868">
        <ele>343.809</ele>
        <time>2012-03-25T06:06:47.000Z</time>
      </trkpt>
      <trkpt lat="48.68145" lon="6.12872">
        <ele>344.77</ele>
        <time>2012-03-25T06:06:58.000Z</time>
      </trkpt>
      <trkpt lat="48.68103" lon="6.12866">
        <ele>344.289</ele>
        <time>2012-03-25T06:07:10.000Z</time>
      </trkpt>
      <trkpt lat="48.681" lon="6.12867">
        <ele>344.289</ele>
        <time>2012-03-25T06:07:11.000Z</time>
      </trkpt>
      <trkpt lat="48.68071" lon="6.12849">
        <ele>345.251</ele>
        <time>2012-03-25T06:07:22.000Z</time>
      </trkpt>
      <trkpt lat="48.68042" lon="6.12829">
        <ele>345.731</ele>
        <time>2012-03-25T06:07:31.000Z</time>
      </trkpt>
      <trkpt lat="48.68018" lon="6.12816">
        <ele>344.77</ele>
        <time>2012-03-25T06:07:39.000Z</time>
      </trkpt>
      <trkpt lat="48.67981" lon="6.1282">
        <ele>344.289</ele>
        <time>2012-03-25T06:07:47.000Z</time>
      </trkpt>
      <trkpt lat="48.6793" lon="6.12828">
        <ele>343.809</ele>
        <time>2012-03-25T06:07:58.000Z</time>
      </trkpt>
      <trkpt lat="48.67919" lon="6.12831">
        <ele>344.289</ele>
        <time>2012-03-25T06:08:01.000Z</time>
      </trkpt>
      <trkpt lat="48.67909" lon="6.1283">
        <ele>344.289</ele>
        <time>2012-03-25T06:08:05.000Z</time>
      </trkpt>
      <trkpt lat="48.67868" lon="6.12834">
        <ele>343.328</ele>
        <time>2012-03-25T06:08:15.000Z</time>
      </trkpt>
      <trkpt lat="48.67839" lon="6.12841">
        <ele>342.367</ele>
        <time>2012-03-25T06:08:21.000Z</time>
      </trkpt>
      <trkpt lat="48.67815" lon="6.1285">
        <ele>341.886</ele>
        <time>2012-03-25T06:08:27.000Z</time>
      </trkpt>
      <trkpt lat="48.67809" lon="6.12852">
        <ele>341.886</ele>
        <time>2012-03-25T06:08:29.000Z</time>
      </trkpt>
      <trkpt lat="48.67797" lon="6.12889">
        <ele>340.444</ele>
        <time>2012-03-25T06:08:37.000Z</time>
      </trkpt>
      <trkpt lat="48.67799" lon="6.12945">
        <ele>338.041</ele>
        <time>2012-03-25T06:08:46.000Z</time>
      </trkpt>
      <trkpt lat="48.67803" lon="6.12975">
        <ele>337.56</ele>
        <time>2012-03-25T06:08:56.000Z</time>
      </trkpt>
      <trkpt lat="48.67803" lon="6.12977">
        <ele>337.56</ele>
        <time>2012-03-25T06:09:20.000Z</time>
      </trkpt>
      <trkpt lat="48.67798" lon="6.1299">
        <ele>336.118</ele>
        <time>2012-03-25T06:09:24.000Z</time>
      </trkpt>
      <trkpt lat="48.67793" lon="6.12998">
        <ele>335.157</ele>
        <time>2012-03-25T06:09:26.000Z</time>
      </trkpt>
      <trkpt lat="48.67783" lon="6.13023">
        <ele>335.157</ele>
        <time>2012-03-25T06:09:34.000Z</time>
      </trkpt>
      <trkpt lat="48.67783" lon="6.13026">
        <ele>335.157</ele>
        <time>2012-03-25T06:10:34.000Z</time>
      </trkpt>
      <trkpt lat="48.6777" lon="6.1304">
        <ele>334.195</ele>
        <time>2012-03-25T06:10:41.000Z</time>
      </trkpt>
      <trkpt lat="48.67763" lon="6.13052">
        <ele>332.754</ele>
        <time>2012-03-25T06:10:45.000Z</time>
      </trkpt>
      <trkpt lat="48.67759" lon="6.13062">
        <ele>331.312</ele>
        <time>2012-03-25T06:10:47.000Z</time>
      </trkpt>
      <trkpt lat="48.67749" lon="6.1308">
        <ele>330.35</ele>
        <time>2012-03-25T06:10:52.000Z</time>
      </trkpt>
      <trkpt lat="48.67726" lon="6.13119">
        <ele>328.428</ele>
        <time>2012-03-25T06:11:01.000Z</time>
      </trkpt>
      <trkpt lat="48.67704" lon="6.13151">
        <ele>326.024</ele>
        <time>2012-03-25T06:11:12.000Z</time>
      </trkpt>
      <trkpt lat="48.67685" lon="6.1318">
        <ele>324.102</ele>
        <time>2012-03-25T06:11:22.000Z</time>
      </trkpt>
      <trkpt lat="48.67677" lon="6.13197">
        <ele>322.179</ele>
        <time>2012-03-25T06:11:27.000Z</time>
      </trkpt>
      <trkpt lat="48.67647" lon="6.13214">
        <ele>322.66</ele>
        <time>2012-03-25T06:11:37.000Z</time>
      </trkpt>
      <trkpt lat="48.67626" lon="6.13225">
        <ele>323.14</ele>
        <time>2012-03-25T06:11:46.000Z</time>
      </trkpt>
      <trkpt lat="48.6762" lon="6.13228">
        <ele>324.102</ele>
        <time>2012-03-25T06:11:48.000Z</time>
      </trkpt>
      <trkpt lat="48.67609" lon="6.13244">
        <ele>324.102</ele>
        <time>2012-03-25T06:11:55.000Z</time>
      </trkpt>
      <trkpt lat="48.67584" lon="6.13282">
        <ele>324.582</ele>
        <time>2012-03-25T06:12:07.000Z</time>
      </trkpt>
      <trkpt lat="48.67563" lon="6.13322">
        <ele>324.582</ele>
        <time>2012-03-25T06:12:17.000Z</time>
      </trkpt>
      <trkpt lat="48.67552" lon="6.13351">
        <ele>324.102</ele>
        <time>2012-03-25T06:12:26.000Z</time>
      </trkpt>
      <trkpt lat="48.67533" lon="6.13392">
        <ele>321.698</ele>
        <time>2012-03-25T06:12:40.000Z</time>
      </trkpt>
      <trkpt lat="48.67523" lon="6.13434">
        <ele>318.334</ele>
        <time>2012-03-25T06:12:47.000Z</time>
      </trkpt>
      <trkpt lat="48.67519" lon="6.13442">
        <ele>319.295</ele>
        <time>2012-03-25T06:12:49.000Z</time>
      </trkpt>
      <trkpt lat="48.67504" lon="6.13486">
        <ele>321.218</ele>
        <time>2012-03-25T06:12:58.000Z</time>
      </trkpt>
      <trkpt lat="48.67489" lon="6.13499">
        <ele>323.14</ele>
        <time>2012-03-25T06:13:05.000Z</time>
      </trkpt>
      <trkpt lat="48.67462" lon="6.13499">
        <ele>324.102</ele>
        <time>2012-03-25T06:13:17.000Z</time>
      </trkpt>
      <trkpt lat="48.67433" lon="6.13494">
        <ele>324.582</ele>
        <time>2012-03-25T06:13:28.000Z</time>
      </trkpt>
      <trkpt lat="48.67411" lon="6.13509">
        <ele>322.179</ele>
        <time>2012-03-25T06:13:36.000Z</time>
      </trkpt>
      <trkpt lat="48.67379" lon="6.13511">
        <ele>320.256</ele>
        <time>2012-03-25T06:13:48.000Z</time>
      </trkpt>
      <trkpt lat="48.67348" lon="6.13513">
        <ele>320.256</ele>
        <time>2012-03-25T06:14:00.000Z</time>
      </trkpt>
      <trkpt lat="48.67347" lon="6.13509">
        <ele>321.218</ele>
        <time>2012-03-25T06:14:14.000Z</time>
      </trkpt>
      <trkpt lat="48.67349" lon="6.13489">
        <ele>322.66</ele>
        <time>2012-03-25T06:14:23.000Z</time>
      </trkpt>
      <trkpt lat="48.67348" lon="6.13475">
        <ele>325.063</ele>
        <time>2012-03-25T06:14:28.000Z</time>
      </trkpt>
      <trkpt lat="48.67349" lon="6.13468">
        <ele>326.024</ele>
        <time>2012-03-25T06:14:31.000Z</time>
      </trkpt>
      <trkpt lat="48.67349" lon="6.13423">
        <ele>327.947</ele>
        <time>2012-03-25T06:14:45.000Z</time>
      </trkpt>
      <trkpt lat="48.67349" lon="6.13362">
        <ele>330.831</ele>
        <time>2012-03-25T06:15:01.000Z</time>
      </trkpt>
      <trkpt lat="48.6735" lon="6.13303">
        <ele>332.754</ele>
        <time>2012-03-25T06:15:16.000Z</time>
      </trkpt>
      <trkpt lat="48.67353" lon="6.1325">
        <ele>333.715</ele>
        <time>2012-03-25T06:15:29.000Z</time>
      </trkpt>
      <trkpt lat="48.67353" lon="6.13197">
        <ele>335.157</ele>
        <time>2012-03-25T06:15:43.000Z</time>
      </trkpt>
      <trkpt lat="48.67355" lon="6.13162">
        <ele>336.118</ele>
        <time>2012-03-25T06:15:52.000Z</time>
      </trkpt>
      <trkpt lat="48.67353" lon="6.1311">
        <ele>337.56</ele>
        <time>2012-03-25T06:16:04.000Z</time>
      </trkpt>
      <trkpt lat="48.67357" lon="6.13057">
        <ele>339.483</ele>
        <time>2012-03-25T06:16:16.000Z</time>
      </trkpt>
      <trkpt lat="48.67358" lon="6.13002">
        <ele>341.886</ele>
        <time>2012-03-25T06:16:28.000Z</time>
      </trkpt>
      <trkpt lat="48.67358" lon="6.12948">
        <ele>343.328</ele>
        <time>2012-03-25T06:16:40.000Z</time>
      </trkpt>
      <trkpt lat="48.67356" lon="6.12898">
        <ele>344.289</ele>
        <time>2012-03-25T06:16:51.000Z</time>
      </trkpt>
      <trkpt lat="48.67359" lon="6.12861">
        <ele>345.251</ele>
        <time>2012-03-25T06:17:00.000Z</time>
      </trkpt>
      <trkpt lat="48.67361" lon="6.1284">
        <ele>345.251</ele>
        <time>2012-03-25T06:17:06.000Z</time>
      </trkpt>
      <trkpt lat="48.67337" lon="6.12822">
        <ele>346.693</ele>
        <time>2012-03-25T06:17:18.000Z</time>
      </trkpt>
      <trkpt lat="48.67332" lon="6.12815">
        <ele>347.173</ele>
        <time>2012-03-25T06:17:21.000Z</time>
      </trkpt>
      <trkpt lat="48.67319" lon="6.12812">
        <ele>347.173</ele>
        <time>2012-03-25T06:17:25.000Z</time>
      </trkpt>
      <trkpt lat="48.67297" lon="6.12801">
        <ele>348.135</ele>
        <time>2012-03-25T06:17:34.000Z</time>
      </trkpt>
      <trkpt lat="48.67273" lon="6.12774">
        <ele>349.096</ele>
        <time>2012-03-25T06:17:43.000Z</time>
      </trkpt>
      <trkpt lat="48.67264" lon="6.12771">
        <ele>349.577</ele>
        <time>2012-03-25T06:17:46.000Z</time>
      </trkpt>
      <trkpt lat="48.67244" lon="6.12776">
        <ele>350.057</ele>
        <time>2012-03-25T06:17:55.000Z</time>
      </trkpt>
      <trkpt lat="48.67227" lon="6.12776">
        <ele>350.057</ele>
        <time>2012-03-25T06:18:01.000Z</time>
      </trkpt>
      <trkpt lat="48.672" lon="6.1278">
        <ele>350.538</ele>
        <time>2012-03-25T06:18:09.000Z</time>
      </trkpt>
      <trkpt lat="48.67197" lon="6.1273">
        <ele>351.499</ele>
        <time>2012-03-25T06:18:20.000Z</time>
      </trkpt>
      <trkpt lat="48.67196" lon="6.12682">
        <ele>351.018</ele>
        <time>2012-03-25T06:18:28.000Z</time>
      </trkpt>
      <trkpt lat="48.67196" lon="6.12674">
        <ele>350.538</ele>
        <time>2012-03-25T06:18:29.000Z</time>
      </trkpt>
      <trkpt lat="48.67201" lon="6.12632">
        <ele>351.018</ele>
        <time>2012-03-25T06:18:35.000Z</time>
      </trkpt>
      <trkpt lat="48.67203" lon="6.12605">
        <ele>350.538</ele>
        <time>2012-03-25T06:18:39.000Z</time>
      </trkpt>
      <trkpt lat="48.67207" lon="6.12569">
        <ele>350.057</ele>
        <time>2012-03-25T06:18:44.000Z</time>
      </trkpt>
      <trkpt lat="48.67207" lon="6.12487">
        <ele>350.057</ele>
        <time>2012-03-25T06:18:54.000Z</time>
      </trkpt>
      <trkpt lat="48.67208" lon="6.12468">
        <ele>350.057</ele>
        <time>2012-03-25T06:18:57.000Z</time>
      </trkpt>
      <trkpt lat="48.67215" lon="6.12423">
        <ele>350.057</ele>
        <time>2012-03-25T06:19:04.000Z</time>
      </trkpt>
      <trkpt lat="48.67216" lon="6.12409">
        <ele>350.057</ele>
        <time>2012-03-25T06:19:06.000Z</time>
      </trkpt>
      <trkpt lat="48.67219" lon="6.12375">
        <ele>349.577</ele>
        <time>2012-03-25T06:19:11.000Z</time>
      </trkpt>
      <trkpt lat="48.67223" lon="6.12354">
        <ele>349.577</ele>
        <time>2012-03-25T06:19:14.000Z</time>
      </trkpt>
      <trkpt lat="48.67228" lon="6.12302">
        <ele>348.615</ele>
        <time>2012-03-25T06:19:24.000Z</time>
      </trkpt>
      <trkpt lat="48.67229" lon="6.12242">
        <ele>348.135</ele>
        <time>2012-03-25T06:19:32.000Z</time>
      </trkpt>
      <trkpt lat="48.67241" lon="6.12228">
        <ele>348.135</ele>
        <time>2012-03-25T06:19:37.000Z</time>
      </trkpt>
      <trkpt lat="48.6731" lon="6.12205">
        <ele>347.654</ele>
        <time>2012-03-25T06:19:53.000Z</time>
      </trkpt>
      <trkpt lat="48.67344" lon="6.12192">
        <ele>348.135</ele>
        <time>2012-03-25T06:20:02.000Z</time>
      </trkpt>
      <trkpt lat="48.67385" lon="6.1218">
        <ele>347.173</ele>
        <time>2012-03-25T06:20:13.000Z</time>
      </trkpt>
      <trkpt lat="48.67398" lon="6.12172">
        <ele>346.693</ele>
        <time>2012-03-25T06:20:17.000Z</time>
      </trkpt>
      <trkpt lat="48.67397" lon="6.12155">
        <ele>347.654</ele>
        <time>2012-03-25T06:20:21.000Z</time>
      </trkpt>
      <trkpt lat="48.6739" lon="6.12082">
        <ele>347.173</ele>
        <time>2012-03-25T06:20:37.000Z</time>
      </trkpt>
      <trkpt lat="48.67391" lon="6.12076">
        <ele>346.212</ele>
        <time>2012-03-25T06:20:39.000Z</time>
      </trkpt>
      <trkpt lat="48.67389" lon="6.12069">
        <ele>346.212</ele>
        <time>2012-03-25T06:20:51.000Z</time>
      </trkpt>
      <trkpt lat="48.67372" lon="6.12047">
        <ele>344.77</ele>
        <time>2012-03-25T06:21:16.000Z</time>
      </trkpt>
      <trkpt lat="48.67346" lon="6.12016">
        <ele>344.77</ele>
        <time>2012-03-25T06:21:24.000Z</time>
      </trkpt>
      <trkpt lat="48.67326" lon="6.1201">
        <ele>345.251</ele>
        <time>2012-03-25T06:21:29.000Z</time>
      </trkpt>
      <trkpt lat="48.67298" lon="6.11999">
        <ele>345.731</ele>
        <time>2012-03-25T06:21:38.000Z</time>
      </trkpt>
      <trkpt lat="48.67279" lon="6.11995">
        <ele>345.731</ele>
        <time>2012-03-25T06:21:41.000Z</time>
      </trkpt>
      <trkpt lat="48.67274" lon="6.11987">
        <ele>345.251</ele>
        <time>2012-03-25T06:21:43.000Z</time>
      </trkpt>
      <trkpt lat="48.67236" lon="6.1198">
        <ele>345.251</ele>
        <time>2012-03-25T06:21:51.000Z</time>
      </trkpt>
      <trkpt lat="48.67228" lon="6.11975">
        <ele>345.251</ele>
        <time>2012-03-25T06:21:53.000Z</time>
      </trkpt>
      <trkpt lat="48.67189" lon="6.11986">
        <ele>343.809</ele>
        <time>2012-03-25T06:22:02.000Z</time>
      </trkpt>
      <trkpt lat="48.67154" lon="6.12003">
        <ele>343.328</ele>
        <time>2012-03-25T06:22:10.000Z</time>
      </trkpt>
      <trkpt lat="48.6713" lon="6.12019">
        <ele>343.328</ele>
        <time>2012-03-25T06:22:16.000Z</time>
      </trkpt>
      <trkpt lat="48.67126" lon="6.12034">
        <ele>343.328</ele>
        <time>2012-03-25T06:22:19.000Z</time>
      </trkpt>
      <trkpt lat="48.67123" lon="6.12044">
        <ele>344.289</ele>
        <time>2012-03-25T06:22:21.000Z</time>
      </trkpt>
      <trkpt lat="48.67111" lon="6.12087">
        <ele>345.251</ele>
        <time>2012-03-25T06:22:31.000Z</time>
      </trkpt>
      <trkpt lat="48.6711" lon="6.1209">
        <ele>345.731</ele>
        <time>2012-03-25T06:22:32.000Z</time>
      </trkpt>
      <trkpt lat="48.67103" lon="6.121">
        <ele>345.731</ele>
        <time>2012-03-25T06:22:35.000Z</time>
      </trkpt>
      <trkpt lat="48.67099" lon="6.12105">
        <ele>346.212</ele>
        <time>2012-03-25T06:22:37.000Z</time>
      </trkpt>
      <trkpt lat="48.67075" lon="6.1211">
        <ele>346.212</ele>
        <time>2012-03-25T06:22:46.000Z</time>
      </trkpt>
      <trkpt lat="48.67068" lon="6.12114">
        <ele>346.212</ele>
        <time>2012-03-25T06:22:48.000Z</time>
      </trkpt>
      <trkpt lat="48.67034" lon="6.12122">
        <ele>346.212</ele>
        <time>2012-03-25T06:22:58.000Z</time>
      </trkpt>
      <trkpt lat="48.67027" lon="6.12127">
        <ele>346.693</ele>
        <time>2012-03-25T06:23:01.000Z</time>
      </trkpt>
      <trkpt lat="48.6702" lon="6.12125">
        <ele>346.212</ele>
        <time>2012-03-25T06:23:12.000Z</time>
      </trkpt>
      <trkpt lat="48.67014" lon="6.12116">
        <ele>346.212</ele>
        <time>2012-03-25T06:23:21.000Z</time>
      </trkpt>
      <trkpt lat="48.67008" lon="6.12112">
        <ele>345.731</ele>
        <time>2012-03-25T06:23:25.000Z</time>
      </trkpt>
      <trkpt lat="48.67006" lon="6.12113">
        <ele>345.731</ele>
        <time>2012-03-25T06:23:27.000Z</time>
      </trkpt>
      <trkpt lat="48.66998" lon="6.12099">
        <ele>345.251</ele>
        <time>2012-03-25T06:23:32.000Z</time>
      </trkpt>
      <trkpt lat="48.66986" lon="6.121">
        <ele>344.289</ele>
        <time>2012-03-25T06:23:37.000Z</time>
      </trkpt>
      <trkpt lat="48.66961" lon="6.12108">
        <ele>343.809</ele>
        <time>2012-03-25T06:23:45.000Z</time>
      </trkpt>
      <trkpt lat="48.66943" lon="6.12128">
        <ele>345.251</ele>
        <time>2012-03-25T06:23:52.000Z</time>
      </trkpt>
      <trkpt lat="48.66911" lon="6.12133">
        <ele>346.212</ele>
        <time>2012-03-25T06:24:03.000Z</time>
      </trkpt>
      <trkpt lat="48.66887" lon="6.12144">
        <ele>347.173</ele>
        <time>2012-03-25T06:24:10.000Z</time>
      </trkpt>
      <trkpt lat="48.66878" lon="6.12144">
        <ele>347.654</ele>
        <time>2012-03-25T06:24:13.000Z</time>
      </trkpt>
      <trkpt lat="48.66863" lon="6.1218">
        <ele>348.615</ele>
        <time>2012-03-25T06:24:22.000Z</time>
      </trkpt>
      <trkpt lat="48.66851" lon="6.12209">
        <ele>349.577</ele>
        <time>2012-03-25T06:24:31.000Z</time>
      </trkpt>
      <trkpt lat="48.66849" lon="6.12219">
        <ele>350.538</ele>
        <time>2012-03-25T06:24:34.000Z</time>
      </trkpt>
      <trkpt lat="48.66838" lon="6.12222">
        <ele>351.018</ele>
        <time>2012-03-25T06:24:40.000Z</time>
      </trkpt>
      <trkpt lat="48.6681" lon="6.1223">
        <ele>351.98</ele>
        <time>2012-03-25T06:24:52.000Z</time>
      </trkpt>
      <trkpt lat="48.66792" lon="6.12241">
        <ele>353.422</ele>
        <time>2012-03-25T06:25:03.000Z</time>
      </trkpt>
      <trkpt lat="48.66786" lon="6.12243">
        <ele>352.941</ele>
        <time>2012-03-25T06:25:11.000Z</time>
      </trkpt>
      <trkpt lat="48.66797" lon="6.12209">
        <ele>351.499</ele>
        <time>2012-03-25T06:25:19.000Z</time>
      </trkpt>
      <trkpt lat="48.66787" lon="6.1218">
        <ele>350.538</ele>
        <time>2012-03-25T06:25:29.000Z</time>
      </trkpt>
      <trkpt lat="48.6678" lon="6.12171">
        <ele>350.538</ele>
        <time>2012-03-25T06:25:32.000Z</time>
      </trkpt>
      <trkpt lat="48.66772" lon="6.12147">
        <ele>350.057</ele>
        <time>2012-03-25T06:25:36.000Z</time>
      </trkpt>
      <trkpt lat="48.66757" lon="6.12149">
        <ele>350.538</ele>
        <time>2012-03-25T06:25:43.000Z</time>
      </trkpt>
      <trkpt lat="48.66755" lon="6.1213">
        <ele>349.577</ele>
        <time>2012-03-25T06:25:48.000Z</time>
      </trkpt>
      <trkpt lat="48.66756" lon="6.12066">
        <ele>347.654</ele>
        <time>2012-03-25T06:25:57.000Z</time>
      </trkpt>
      <trkpt lat="48.66758" lon="6.12023">
        <ele>346.212</ele>
        <time>2012-03-25T06:26:02.000Z</time>
      </trkpt>
      <trkpt lat="48.66756" lon="6.11997">
        <ele>346.212</ele>
        <time>2012-03-25T06:26:05.000Z</time>
      </trkpt>
      <trkpt lat="48.66749" lon="6.1198">
        <ele>346.693</ele>
        <time>2012-03-25T06:26:09.000Z</time>
      </trkpt>
      <trkpt lat="48.66744" lon="6.11979">
        <ele>346.693</ele>
        <time>2012-03-25T06:26:11.000Z</time>
      </trkpt>
      <trkpt lat="48.66721" lon="6.11992">
        <ele>346.693</ele>
        <time>2012-03-25T06:26:19.000Z</time>
      </trkpt>
      <trkpt lat="48.6671" lon="6.11999">
        <ele>346.693</ele>
        <time>2012-03-25T06:26:26.000Z</time>
      </trkpt>
      <trkpt lat="48.66698" lon="6.12011">
        <ele>346.212</ele>
        <time>2012-03-25T06:26:32.000Z</time>
      </trkpt>
      <trkpt lat="48.66695" lon="6.12015">
        <ele>346.693</ele>
        <time>2012-03-25T06:26:33.000Z</time>
      </trkpt>
      <trkpt lat="48.66678" lon="6.12031">
        <ele>348.135</ele>
        <time>2012-03-25T06:26:40.000Z</time>
      </trkpt>
      <trkpt lat="48.6667" lon="6.12032">
        <ele>349.096</ele>
        <time>2012-03-25T06:26:43.000Z</time>
      </trkpt>
      <trkpt lat="48.6665" lon="6.12039">
        <ele>349.096</ele>
        <time>2012-03-25T06:26:51.000Z</time>
      </trkpt>
      <trkpt lat="48.66624" lon="6.12036">
        <ele>350.057</ele>
        <time>2012-03-25T06:26:59.000Z</time>
      </trkpt>
      <trkpt lat="48.6662" lon="6.12036">
        <ele>350.538</ele>
        <time>2012-03-25T06:27:01.000Z</time>
      </trkpt>
      <trkpt lat="48.66608" lon="6.12037">
        <ele>351.018</ele>
        <time>2012-03-25T06:27:05.000Z</time>
      </trkpt>
      <trkpt lat="48.66582" lon="6.12012">
        <ele>351.018</ele>
        <time>2012-03-25T06:27:14.000Z</time>
      </trkpt>
      <trkpt lat="48.66565" lon="6.12005">
        <ele>350.538</ele>
        <time>2012-03-25T06:27:19.000Z</time>
      </trkpt>
      <trkpt lat="48.66558" lon="6.12003">
        <ele>351.018</ele>
        <time>2012-03-25T06:27:21.000Z</time>
      </trkpt>
      <trkpt lat="48.66547" lon="6.11997">
        <ele>351.499</ele>
        <time>2012-03-25T06:27:25.000Z</time>
      </trkpt>
      <trkpt lat="48.66507" lon="6.11987">
        <ele>352.461</ele>
        <time>2012-03-25T06:27:36.000Z</time>
      </trkpt>
      <trkpt lat="48.66505" lon="6.11984">
        <ele>352.461</ele>
        <time>2012-03-25T06:27:37.000Z</time>
      </trkpt>
      <trkpt lat="48.66503" lon="6.11979">
        <ele>351.98</ele>
        <time>2012-03-25T06:27:39.000Z</time>
      </trkpt>
      <trkpt lat="48.66502" lon="6.11931">
        <ele>351.499</ele>
        <time>2012-03-25T06:27:48.000Z</time>
      </trkpt>
      <trkpt lat="48.6652" lon="6.11919">
        <ele>350.057</ele>
        <time>2012-03-25T06:27:55.000Z</time>
      </trkpt>
      <trkpt lat="48.6658" lon="6.11911">
        <ele>347.173</ele>
        <time>2012-03-25T06:28:06.000Z</time>
      </trkpt>
      <trkpt lat="48.66589" lon="6.11908">
        <ele>348.135</ele>
        <time>2012-03-25T06:28:09.000Z</time>
      </trkpt>
      <trkpt lat="48.66602" lon="6.11891">
        <ele>348.615</ele>
        <time>2012-03-25T06:28:18.000Z</time>
      </trkpt>
      <trkpt lat="48.66606" lon="6.11884">
        <ele>348.615</ele>
        <time>2012-03-25T06:28:20.000Z</time>
      </trkpt>
      <trkpt lat="48.66603" lon="6.11873">
        <ele>349.096</ele>
        <time>2012-03-25T06:28:24.000Z</time>
      </trkpt>
      <trkpt lat="48.66601" lon="6.11867">
        <ele>349.096</ele>
        <time>2012-03-25T06:28:28.000Z</time>
      </trkpt>
      <trkpt lat="48.66605" lon="6.11843">
        <ele>348.615</ele>
        <time>2012-03-25T06:28:41.000Z</time>
      </trkpt>
      <trkpt lat="48.66605" lon="6.11842">
        <ele>349.096</ele>
        <time>2012-03-25T06:28:57.000Z</time>
      </trkpt>
      <trkpt lat="48.66596" lon="6.11824">
        <ele>349.096</ele>
        <time>2012-03-25T06:29:06.000Z</time>
      </trkpt>
      <trkpt lat="48.66586" lon="6.11828">
        <ele>349.577</ele>
        <time>2012-03-25T06:29:20.000Z</time>
      </trkpt>
      <trkpt lat="48.66584" lon="6.11825">
        <ele>349.096</ele>
        <time>2012-03-25T06:29:21.000Z</time>
      </trkpt>
      <trkpt lat="48.66575" lon="6.11822">
        <ele>346.212</ele>
        <time>2012-03-25T06:29:25.000Z</time>
      </trkpt>
      <trkpt lat="48.66566" lon="6.11819">
        <ele>345.251</ele>
        <time>2012-03-25T06:29:27.000Z</time>
      </trkpt>
      <trkpt lat="48.66558" lon="6.11802">
        <ele>345.731</ele>
        <time>2012-03-25T06:29:36.000Z</time>
      </trkpt>
      <trkpt lat="48.66556" lon="6.11801">
        <ele>345.731</ele>
        <time>2012-03-25T06:29:37.000Z</time>
      </trkpt>
      <trkpt lat="48.66555" lon="6.11769">
        <ele>345.251</ele>
        <time>2012-03-25T06:29:45.000Z</time>
      </trkpt>
      <trkpt lat="48.66562" lon="6.11717">
        <ele>342.367</ele>
        <time>2012-03-25T06:29:54.000Z</time>
      </trkpt>
      <trkpt lat="48.66549" lon="6.11707">
        <ele>343.328</ele>
        <time>2012-03-25T06:30:01.000Z</time>
      </trkpt>
      <trkpt lat="48.66536" lon="6.11715">
        <ele>344.289</ele>
        <time>2012-03-25T06:30:08.000Z</time>
      </trkpt>
      <trkpt lat="48.66525" lon="6.11709">
        <ele>344.77</ele>
        <time>2012-03-25T06:30:13.000Z</time>
      </trkpt>
      <trkpt lat="48.66523" lon="6.11699">
        <ele>344.289</ele>
        <time>2012-03-25T06:30:17.000Z</time>
      </trkpt>
      <trkpt lat="48.66521" lon="6.11683">
        <ele>343.328</ele>
        <time>2012-03-25T06:30:24.000Z</time>
      </trkpt>
      <trkpt lat="48.66526" lon="6.11681">
        <ele>343.328</ele>
        <time>2012-03-25T06:30:31.000Z</time>
      </trkpt>
      <trkpt lat="48.66538" lon="6.11662">
        <ele>340.925</ele>
        <time>2012-03-25T06:30:41.000Z</time>
      </trkpt>
      <trkpt lat="48.66542" lon="6.1164">
        <ele>339.483</ele>
        <time>2012-03-25T06:30:45.000Z</time>
      </trkpt>
      <trkpt lat="48.66542" lon="6.11635">
        <ele>339.002</ele>
        <time>2012-03-25T06:30:46.000Z</time>
      </trkpt>
      <trkpt lat="48.66557" lon="6.11625">
        <ele>337.079</ele>
        <time>2012-03-25T06:30:54.000Z</time>
      </trkpt>
      <trkpt lat="48.66566" lon="6.11623">
        <ele>335.637</ele>
        <time>2012-03-25T06:30:57.000Z</time>
      </trkpt>
      <trkpt lat="48.66578" lon="6.11625">
        <ele>335.157</ele>
        <time>2012-03-25T06:31:02.000Z</time>
      </trkpt>
      <trkpt lat="48.66592" lon="6.11612">
        <ele>330.831</ele>
        <time>2012-03-25T06:31:10.000Z</time>
      </trkpt>
      <trkpt lat="48.66596" lon="6.11603">
        <ele>326.505</ele>
        <time>2012-03-25T06:31:13.000Z</time>
      </trkpt>
      <trkpt lat="48.66601" lon="6.11584">
        <ele>321.698</ele>
        <time>2012-03-25T06:31:16.000Z</time>
      </trkpt>
      <trkpt lat="48.66604" lon="6.1157">
        <ele>318.814</ele>
        <time>2012-03-25T06:31:18.000Z</time>
      </trkpt>
      <trkpt lat="48.66612" lon="6.11546">
        <ele>319.295</ele>
        <time>2012-03-25T06:31:23.000Z</time>
      </trkpt>
      <trkpt lat="48.66614" lon="6.1154">
        <ele>319.295</ele>
        <time>2012-03-25T06:31:25.000Z</time>
      </trkpt>
      <trkpt lat="48.66627" lon="6.11532">
        <ele>318.334</ele>
        <time>2012-03-25T06:31:29.000Z</time>
      </trkpt>
      <trkpt lat="48.66658" lon="6.11532">
        <ele>317.853</ele>
        <time>2012-03-25T06:31:35.000Z</time>
      </trkpt>
      <trkpt lat="48.66705" lon="6.11541">
        <ele>317.853</ele>
        <time>2012-03-25T06:31:46.000Z</time>
      </trkpt>
      <trkpt lat="48.66738" lon="6.11546">
        <ele>317.853</ele>
        <time>2012-03-25T06:31:54.000Z</time>
      </trkpt>
      <trkpt lat="48.66748" lon="6.11549">
        <ele>317.853</ele>
        <time>2012-03-25T06:31:56.000Z</time>
      </trkpt>
      <trkpt lat="48.66775" lon="6.11562">
        <ele>316.411</ele>
        <time>2012-03-25T06:32:02.000Z</time>
      </trkpt>
      <trkpt lat="48.66798" lon="6.11575">
        <ele>315.93</ele>
        <time>2012-03-25T06:32:06.000Z</time>
      </trkpt>
      <trkpt lat="48.66811" lon="6.11582">
        <ele>316.411</ele>
        <time>2012-03-25T06:32:08.000Z</time>
      </trkpt>
      <trkpt lat="48.66835" lon="6.11608">
        <ele>317.372</ele>
        <time>2012-03-25T06:32:15.000Z</time>
      </trkpt>
      <trkpt lat="48.66853" lon="6.1158">
        <ele>317.372</ele>
        <time>2012-03-25T06:32:22.000Z</time>
      </trkpt>
      <trkpt lat="48.66858" lon="6.11567">
        <ele>315.93</ele>
        <time>2012-03-25T06:32:24.000Z</time>
      </trkpt>
      <trkpt lat="48.66866" lon="6.11548">
        <ele>315.93</ele>
        <time>2012-03-25T06:32:27.000Z</time>
      </trkpt>
      <trkpt lat="48.66896" lon="6.11522">
        <ele>317.853</ele>
        <time>2012-03-25T06:32:35.000Z</time>
      </trkpt>
      <trkpt lat="48.66932" lon="6.11497">
        <ele>321.218</ele>
        <time>2012-03-25T06:32:46.000Z</time>
      </trkpt>
      <trkpt lat="48.66953" lon="6.11462">
        <ele>324.582</ele>
        <time>2012-03-25T06:32:55.000Z</time>
      </trkpt>
      <trkpt lat="48.66952" lon="6.11416">
        <ele>327.466</ele>
        <time>2012-03-25T06:33:05.000Z</time>
      </trkpt>
      <trkpt lat="48.66948" lon="6.11372">
        <ele>327.947</ele>
        <time>2012-03-25T06:33:14.000Z</time>
      </trkpt>
      <trkpt lat="48.66951" lon="6.11339">
        <ele>326.986</ele>
        <time>2012-03-25T06:33:20.000Z</time>
      </trkpt>
      <trkpt lat="48.66943" lon="6.11255">
        <ele>326.024</ele>
        <time>2012-03-25T06:33:33.000Z</time>
      </trkpt>
      <trkpt lat="48.66932" lon="6.11203">
        <ele>329.389</ele>
        <time>2012-03-25T06:33:43.000Z</time>
      </trkpt>
      <trkpt lat="48.66926" lon="6.11158">
        <ele>332.273</ele>
        <time>2012-03-25T06:33:54.000Z</time>
      </trkpt>
      <trkpt lat="48.66924" lon="6.11126">
        <ele>333.234</ele>
        <time>2012-03-25T06:34:01.000Z</time>
      </trkpt>
      <trkpt lat="48.6692" lon="6.11106">
        <ele>333.715</ele>
        <time>2012-03-25T06:34:05.000Z</time>
      </trkpt>
      <trkpt lat="48.66929" lon="6.1109">
        <ele>334.676</ele>
        <time>2012-03-25T06:34:10.000Z</time>
      </trkpt>
      <trkpt lat="48.66974" lon="6.11078">
        <ele>335.637</ele>
        <time>2012-03-25T06:34:24.000Z</time>
      </trkpt>
      <trkpt lat="48.67012" lon="6.1107">
        <ele>336.599</ele>
        <time>2012-03-25T06:34:34.000Z</time>
      </trkpt>
      <trkpt lat="48.67047" lon="6.11058">
        <ele>337.56</ele>
        <time>2012-03-25T06:34:44.000Z</time>
      </trkpt>
      <trkpt lat="48.67104" lon="6.11046">
        <ele>338.521</ele>
        <time>2012-03-25T06:34:58.000Z</time>
      </trkpt>
      <trkpt lat="48.67107" lon="6.11044">
        <ele>338.521</ele>
        <time>2012-03-25T06:34:59.000Z</time>
      </trkpt>
      <trkpt lat="48.67112" lon="6.11005">
        <ele>340.444</ele>
        <time>2012-03-25T06:35:10.000Z</time>
      </trkpt>
      <trkpt lat="48.67111" lon="6.10951">
        <ele>342.367</ele>
        <time>2012-03-25T06:35:22.000Z</time>
      </trkpt>
      <trkpt lat="48.67112" lon="6.10898">
        <ele>343.809</ele>
        <time>2012-03-25T06:35:34.000Z</time>
      </trkpt>
      <trkpt lat="48.67108" lon="6.10858">
        <ele>344.77</ele>
        <time>2012-03-25T06:35:43.000Z</time>
      </trkpt>
      <trkpt lat="48.67108" lon="6.10806">
        <ele>346.693</ele>
        <time>2012-03-25T06:35:55.000Z</time>
      </trkpt>
      <trkpt lat="48.67103" lon="6.10752">
        <ele>347.173</ele>
        <time>2012-03-25T06:36:06.000Z</time>
      </trkpt>
      <trkpt lat="48.67096" lon="6.10693">
        <ele>348.135</ele>
        <time>2012-03-25T06:36:17.000Z</time>
      </trkpt>
      <trkpt lat="48.67095" lon="6.10627">
        <ele>349.096</ele>
        <time>2012-03-25T06:36:31.000Z</time>
      </trkpt>
      <trkpt lat="48.67093" lon="6.10607">
        <ele>349.096</ele>
        <time>2012-03-25T06:36:35.000Z</time>
      </trkpt>
      <trkpt lat="48.6711" lon="6.10589">
        <ele>348.615</ele>
        <time>2012-03-25T06:36:42.000Z</time>
      </trkpt>
      <trkpt lat="48.67149" lon="6.10574">
        <ele>347.173</ele>
        <time>2012-03-25T06:36:53.000Z</time>
      </trkpt>
      <trkpt lat="48.67204" lon="6.10563">
        <ele>345.731</ele>
        <time>2012-03-25T06:37:06.000Z</time>
      </trkpt>
      <trkpt lat="48.67247" lon="6.10557">
        <ele>344.289</ele>
        <time>2012-03-25T06:37:16.000Z</time>
      </trkpt>
      <trkpt lat="48.67257" lon="6.10555">
        <ele>343.809</ele>
        <time>2012-03-25T06:37:18.000Z</time>
      </trkpt>
      <trkpt lat="48.67303" lon="6.10545">
        <ele>343.328</ele>
        <time>2012-03-25T06:37:28.000Z</time>
      </trkpt>
      <trkpt lat="48.67312" lon="6.10543">
        <ele>343.328</ele>
        <time>2012-03-25T06:37:30.000Z</time>
      </trkpt>
      <trkpt lat="48.67348" lon="6.10537">
        <ele>342.367</ele>
        <time>2012-03-25T06:37:36.000Z</time>
      </trkpt>
      <trkpt lat="48.67405" lon="6.10525">
        <ele>340.925</ele>
        <time>2012-03-25T06:37:46.000Z</time>
      </trkpt>
      <trkpt lat="48.67442" lon="6.10517">
        <ele>339.002</ele>
        <time>2012-03-25T06:37:52.000Z</time>
      </trkpt>
      <trkpt lat="48.67499" lon="6.10501">
        <ele>337.079</ele>
        <time>2012-03-25T06:38:02.000Z</time>
      </trkpt>
      <trkpt lat="48.67528" lon="6.10494">
        <ele>336.118</ele>
        <time>2012-03-25T06:38:07.000Z</time>
      </trkpt>
      <trkpt lat="48.67545" lon="6.10489">
        <ele>334.676</ele>
        <time>2012-03-25T06:38:10.000Z</time>
      </trkpt>
      <trkpt lat="48.67584" lon="6.10483">
        <ele>333.234</ele>
        <time>2012-03-25T06:38:16.000Z</time>
      </trkpt>
      <trkpt lat="48.67593" lon="6.10479">
        <ele>332.273</ele>
        <time>2012-03-25T06:38:18.000Z</time>
      </trkpt>
      <trkpt lat="48.67636" lon="6.1047">
        <ele>330.35</ele>
        <time>2012-03-25T06:38:25.000Z</time>
      </trkpt>
      <trkpt lat="48.67657" lon="6.10466">
        <ele>329.389</ele>
        <time>2012-03-25T06:38:28.000Z</time>
      </trkpt>
      <trkpt lat="48.67683" lon="6.1046">
        <ele>328.428</ele>
        <time>2012-03-25T06:38:32.000Z</time>
      </trkpt>
      <trkpt lat="48.67709" lon="6.10456">
        <ele>326.986</ele>
        <time>2012-03-25T06:38:36.000Z</time>
      </trkpt>
      <trkpt lat="48.67735" lon="6.10452">
        <ele>326.024</ele>
        <time>2012-03-25T06:38:40.000Z</time>
      </trkpt>
      <trkpt lat="48.67772" lon="6.10444">
        <ele>325.063</ele>
        <time>2012-03-25T06:38:46.000Z</time>
      </trkpt>
      <trkpt lat="48.67776" lon="6.10431">
        <ele>325.063</ele>
        <time>2012-03-25T06:38:50.000Z</time>
      </trkpt>
      <trkpt lat="48.67767" lon="6.10374">
        <ele>323.14</ele>
        <time>2012-03-25T06:39:03.000Z</time>
      </trkpt>
      <trkpt lat="48.67765" lon="6.1037">
        <ele>323.14</ele>
        <time>2012-03-25T06:39:14.000Z</time>
      </trkpt>
      <trkpt lat="48.67763" lon="6.10354">
        <ele>321.698</ele>
        <time>2012-03-25T06:39:25.000Z</time>
      </trkpt>
      <trkpt lat="48.6776" lon="6.10333">
        <ele>320.737</ele>
        <time>2012-03-25T06:39:28.000Z</time>
      </trkpt>
      <trkpt lat="48.67774" lon="6.10322">
        <ele>318.814</ele>
        <time>2012-03-25T06:39:34.000Z</time>
      </trkpt>
      <trkpt lat="48.67783" lon="6.10329">
        <ele>317.853</ele>
        <time>2012-03-25T06:39:36.000Z</time>
      </trkpt>
      <trkpt lat="48.67807" lon="6.10344">
        <ele>316.892</ele>
        <time>2012-03-25T06:39:40.000Z</time>
      </trkpt>
      <trkpt lat="48.67831" lon="6.10359">
        <ele>316.411</ele>
        <time>2012-03-25T06:39:44.000Z</time>
      </trkpt>
      <trkpt lat="48.67846" lon="6.10368">
        <ele>316.411</ele>
        <time>2012-03-25T06:39:47.000Z</time>
      </trkpt>
      <trkpt lat="48.67859" lon="6.10352">
        <ele>318.814</ele>
        <time>2012-03-25T06:39:57.000Z</time>
      </trkpt>
      <trkpt lat="48.67865" lon="6.10334">
        <ele>321.218</ele>
        <time>2012-03-25T06:40:04.000Z</time>
      </trkpt>
      <trkpt lat="48.67872" lon="6.1032">
        <ele>321.698</ele>
        <time>2012-03-25T06:40:10.000Z</time>
      </trkpt>
      <trkpt lat="48.67884" lon="6.10286">
        <ele>321.218</ele>
        <time>2012-03-25T06:40:18.000Z</time>
      </trkpt>
      <trkpt lat="48.67902" lon="6.10236">
        <ele>319.776</ele>
        <time>2012-03-25T06:40:29.000Z</time>
      </trkpt>
      <trkpt lat="48.67919" lon="6.10191">
        <ele>318.814</ele>
        <time>2012-03-25T06:40:38.000Z</time>
      </trkpt>
      <trkpt lat="48.67938" lon="6.10144">
        <ele>321.698</ele>
        <time>2012-03-25T06:40:50.000Z</time>
      </trkpt>
      <trkpt lat="48.67941" lon="6.1014">
        <ele>321.698</ele>
        <time>2012-03-25T06:40:52.000Z</time>
      </trkpt>
      <trkpt lat="48.67945" lon="6.10121">
        <ele>323.14</ele>
        <time>2012-03-25T06:40:59.000Z</time>
      </trkpt>
      <trkpt lat="48.67965" lon="6.10128">
        <ele>323.621</ele>
        <time>2012-03-25T06:41:08.000Z</time>
      </trkpt>
      <trkpt lat="48.67984" lon="6.10141">
        <ele>323.621</ele>
        <time>2012-03-25T06:41:16.000Z</time>
      </trkpt>
      <trkpt lat="48.68007" lon="6.10161">
        <ele>323.621</ele>
        <time>2012-03-25T06:41:24.000Z</time>
      </trkpt>
      <trkpt lat="48.68019" lon="6.10167">
        <ele>323.621</ele>
        <time>2012-03-25T06:41:28.000Z</time>
      </trkpt>
      <trkpt lat="48.68063" lon="6.10205">
        <ele>324.582</ele>
        <time>2012-03-25T06:41:42.000Z</time>
      </trkpt>
      <trkpt lat="48.68104" lon="6.10241">
        <ele>325.544</ele>
        <time>2012-03-25T06:41:55.000Z</time>
      </trkpt>
      <trkpt lat="48.68143" lon="6.10274">
        <ele>326.505</ele>
        <time>2012-03-25T06:42:08.000Z</time>
      </trkpt>
      <trkpt lat="48.68182" lon="6.10306">
        <ele>326.986</ele>
        <time>2012-03-25T06:42:20.000Z</time>
      </trkpt>
      <trkpt lat="48.68227" lon="6.10342">
        <ele>326.986</ele>
        <time>2012-03-25T06:42:33.000Z</time>
      </trkpt>
      <trkpt lat="48.68274" lon="6.1038">
        <ele>326.986</ele>
        <time>2012-03-25T06:42:46.000Z</time>
      </trkpt>
      <trkpt lat="48.68303" lon="6.10407">
        <ele>326.505</ele>
        <time>2012-03-25T06:42:56.000Z</time>
      </trkpt>
      <trkpt lat="48.68336" lon="6.10432">
        <ele>325.063</ele>
        <time>2012-03-25T06:43:05.000Z</time>
      </trkpt>
      <trkpt lat="48.68354" lon="6.10445">
        <ele>325.544</ele>
        <time>2012-03-25T06:43:09.000Z</time>
      </trkpt>
      <trkpt lat="48.68382" lon="6.1047">
        <ele>325.063</ele>
        <time>2012-03-25T06:43:16.000Z</time>
      </trkpt>
      <trkpt lat="48.68404" lon="6.10488">
        <ele>324.582</ele>
        <time>2012-03-25T06:43:22.000Z</time>
      </trkpt>
      <trkpt lat="48.68411" lon="6.10479">
        <ele>325.063</ele>
        <time>2012-03-25T06:43:27.000Z</time>
      </trkpt>
      <trkpt lat="48.68404" lon="6.10426">
        <ele>326.505</ele>
        <time>2012-03-25T06:43:38.000Z</time>
      </trkpt>
      <trkpt lat="48.68394" lon="6.10369">
        <ele>327.466</ele>
        <time>2012-03-25T06:43:50.000Z</time>
      </trkpt>
      <trkpt lat="48.68384" lon="6.10316">
        <ele>328.428</ele>
        <time>2012-03-25T06:44:01.000Z</time>
      </trkpt>
      <trkpt lat="48.68383" lon="6.10308">
        <ele>328.428</ele>
        <time>2012-03-25T06:44:03.000Z</time>
      </trkpt>
      <trkpt lat="48.68365" lon="6.10242">
        <ele>329.87</ele>
        <time>2012-03-25T06:44:15.000Z</time>
      </trkpt>
      <trkpt lat="48.68364" lon="6.10189">
        <ele>329.87</ele>
        <time>2012-03-25T06:44:24.000Z</time>
      </trkpt>
      <trkpt lat="48.68379" lon="6.10139">
        <ele>328.908</ele>
        <time>2012-03-25T06:44:34.000Z</time>
      </trkpt>
      <trkpt lat="48.68405" lon="6.10078">
        <ele>326.986</ele>
        <time>2012-03-25T06:44:44.000Z</time>
      </trkpt>
      <trkpt lat="48.6841" lon="6.1006">
        <ele>326.986</ele>
        <time>2012-03-25T06:44:46.000Z</time>
      </trkpt>
      <trkpt lat="48.68418" lon="6.10037">
        <ele>326.024</ele>
        <time>2012-03-25T06:44:49.000Z</time>
      </trkpt>
      <trkpt lat="48.68429" lon="6.09996">
        <ele>327.466</ele>
        <time>2012-03-25T06:44:55.000Z</time>
      </trkpt>
      <trkpt lat="48.68456" lon="6.09939">
        <ele>329.87</ele>
        <time>2012-03-25T06:45:06.000Z</time>
      </trkpt>
      <trkpt lat="48.68472" lon="6.09903">
        <ele>331.312</ele>
        <time>2012-03-25T06:45:14.000Z</time>
      </trkpt>
      <trkpt lat="48.68485" lon="6.09858">
        <ele>332.754</ele>
        <time>2012-03-25T06:45:23.000Z</time>
      </trkpt>
      <trkpt lat="48.68505" lon="6.09808">
        <ele>333.234</ele>
        <time>2012-03-25T06:45:34.000Z</time>
      </trkpt>
      <trkpt lat="48.68524" lon="6.09766">
        <ele>333.715</ele>
        <time>2012-03-25T06:45:44.000Z</time>
      </trkpt>
      <trkpt lat="48.68539" lon="6.09717">
        <ele>334.676</ele>
        <time>2012-03-25T06:45:54.000Z</time>
      </trkpt>
      <trkpt lat="48.68538" lon="6.09699">
        <ele>334.676</ele>
        <time>2012-03-25T06:45:58.000Z</time>
      </trkpt>
      <trkpt lat="48.68539" lon="6.09666">
        <ele>334.676</ele>
        <time>2012-03-25T06:46:04.000Z</time>
      </trkpt>
      <trkpt lat="48.68533" lon="6.09601">
        <ele>333.715</ele>
        <time>2012-03-25T06:46:15.000Z</time>
      </trkpt>
      <trkpt lat="48.6853" lon="6.09572">
        <ele>333.234</ele>
        <time>2012-03-25T06:46:19.000Z</time>
      </trkpt>
      <trkpt lat="48.68533" lon="6.09525">
        <ele>332.273</ele>
        <time>2012-03-25T06:46:27.000Z</time>
      </trkpt>
      <trkpt lat="48.68546" lon="6.09467">
        <ele>331.312</ele>
        <time>2012-03-25T06:46:36.000Z</time>
      </trkpt>
      <trkpt lat="48.68547" lon="6.09453">
        <ele>330.831</ele>
        <time>2012-03-25T06:46:38.000Z</time>
      </trkpt>
      <trkpt lat="48.6855" lon="6.09426">
        <ele>330.35</ele>
        <time>2012-03-25T06:46:42.000Z</time>
      </trkpt>
      <trkpt lat="48.68577" lon="6.09364">
        <ele>327.466</ele>
        <time>2012-03-25T06:46:52.000Z</time>
      </trkpt>
      <trkpt lat="48.68587" lon="6.09344">
        <ele>326.505</ele>
        <time>2012-03-25T06:46:55.000Z</time>
      </trkpt>
      <trkpt lat="48.68607" lon="6.09297">
        <ele>324.582</ele>
        <time>2012-03-25T06:47:02.000Z</time>
      </trkpt>
      <trkpt lat="48.68613" lon="6.09285">
        <ele>324.102</ele>
        <time>2012-03-25T06:47:04.000Z</time>
      </trkpt>
      <trkpt lat="48.68613" lon="6.0923">
        <ele>321.698</ele>
        <time>2012-03-25T06:47:09.000Z</time>
      </trkpt>
      <trkpt lat="48.68607" lon="6.09215">
        <ele>320.737</ele>
        <time>2012-03-25T06:47:11.000Z</time>
      </trkpt>
      <trkpt lat="48.68607" lon="6.09185">
        <ele>320.256</ele>
        <time>2012-03-25T06:47:15.000Z</time>
      </trkpt>
      <trkpt lat="48.68607" lon="6.09171">
        <ele>320.256</ele>
        <time>2012-03-25T06:47:17.000Z</time>
      </trkpt>
      <trkpt lat="48.68614" lon="6.09157">
        <ele>318.814</ele>
        <time>2012-03-25T06:47:21.000Z</time>
      </trkpt>
      <trkpt lat="48.6863" lon="6.09154">
        <ele>320.256</ele>
        <time>2012-03-25T06:47:25.000Z</time>
      </trkpt>
      <trkpt lat="48.68658" lon="6.09142">
        <ele>320.737</ele>
        <time>2012-03-25T06:47:32.000Z</time>
      </trkpt>
      <trkpt lat="48.68672" lon="6.09139">
        <ele>320.737</ele>
        <time>2012-03-25T06:47:35.000Z</time>
      </trkpt>
      <trkpt lat="48.68691" lon="6.09134">
        <ele>319.295</ele>
        <time>2012-03-25T06:47:39.000Z</time>
      </trkpt>
      <trkpt lat="48.6873" lon="6.0913">
        <ele>317.853</ele>
        <time>2012-03-25T06:47:47.000Z</time>
      </trkpt>
      <trkpt lat="48.68777" lon="6.0912">
        <ele>319.776</ele>
        <time>2012-03-25T06:47:57.000Z</time>
      </trkpt>
      <trkpt lat="48.68801" lon="6.09115">
        <ele>319.776</ele>
        <time>2012-03-25T06:48:02.000Z</time>
      </trkpt>
      <trkpt lat="48.68853" lon="6.09105">
        <ele>318.814</ele>
        <time>2012-03-25T06:48:12.000Z</time>
      </trkpt>
      <trkpt lat="48.6891" lon="6.09091">
        <ele>316.411</ele>
        <time>2012-03-25T06:48:23.000Z</time>
      </trkpt>
      <trkpt lat="48.6892" lon="6.09063">
        <ele>315.45</ele>
        <time>2012-03-25T06:48:29.000Z</time>
      </trkpt>
      <trkpt lat="48.6891" lon="6.0897">
        <ele>314.008</ele>
        <time>2012-03-25T06:48:41.000Z</time>
      </trkpt>
      <trkpt lat="48.68903" lon="6.08888">
        <ele>313.527</ele>
        <time>2012-03-25T06:48:53.000Z</time>
      </trkpt>
      <trkpt lat="48.68897" lon="6.08855">
        <ele>313.047</ele>
        <time>2012-03-25T06:48:58.000Z</time>
      </trkpt>
      <trkpt lat="48.68895" lon="6.08821">
        <ele>313.047</ele>
        <time>2012-03-25T06:49:03.000Z</time>
      </trkpt>
      <trkpt lat="48.6889" lon="6.08747">
        <ele>312.085</ele>
        <time>2012-03-25T06:49:14.000Z</time>
      </trkpt>
      <trkpt lat="48.68888" lon="6.08742">
        <ele>312.085</ele>
        <time>2012-03-25T06:49:15.000Z</time>
      </trkpt>
      <trkpt lat="48.68884" lon="6.08706">
        <ele>311.604</ele>
        <time>2012-03-25T06:49:20.000Z</time>
      </trkpt>
      <trkpt lat="48.68876" lon="6.08626">
        <ele>310.643</ele>
        <time>2012-03-25T06:49:31.000Z</time>
      </trkpt>
      <trkpt lat="48.68867" lon="6.0854">
        <ele>309.201</ele>
        <time>2012-03-25T06:49:43.000Z</time>
      </trkpt>
      <trkpt lat="48.68864" lon="6.08498">
        <ele>308.24</ele>
        <time>2012-03-25T06:49:53.000Z</time>
      </trkpt>
      <trkpt lat="48.68859" lon="6.08459">
        <ele>304.875</ele>
        <time>2012-03-25T06:50:03.000Z</time>
      </trkpt>
      <trkpt lat="48.68855" lon="6.08439">
        <ele>302.472</ele>
        <time>2012-03-25T06:50:12.000Z</time>
      </trkpt>
      <trkpt lat="48.68856" lon="6.0842">
        <ele>298.627</ele>
        <time>2012-03-25T06:50:20.000Z</time>
      </trkpt>
      <trkpt lat="48.68855" lon="6.08407">
        <ele>295.262</ele>
        <time>2012-03-25T06:50:25.000Z</time>
      </trkpt>
      <trkpt lat="48.68853" lon="6.08399">
        <ele>292.859</ele>
        <time>2012-03-25T06:50:28.000Z</time>
      </trkpt>
      <trkpt lat="48.68851" lon="6.08383">
        <ele>289.494</ele>
        <time>2012-03-25T06:50:33.000Z</time>
      </trkpt>
      <trkpt lat="48.68849" lon="6.0837">
        <ele>285.649</ele>
        <time>2012-03-25T06:50:37.000Z</time>
      </trkpt>
      <trkpt lat="48.68848" lon="6.08354">
        <ele>282.284</ele>
        <time>2012-03-25T06:50:44.000Z</time>
      </trkpt>
      <trkpt lat="48.68847" lon="6.08339">
        <ele>278.439</ele>
        <time>2012-03-25T06:50:50.000Z</time>
      </trkpt>
      <trkpt lat="48.68847" lon="6.08327">
        <ele>275.555</ele>
        <time>2012-03-25T06:50:53.000Z</time>
      </trkpt>
      <trkpt lat="48.68848" lon="6.08308">
        <ele>270.748</ele>
        <time>2012-03-25T06:50:58.000Z</time>
      </trkpt>
      <trkpt lat="48.68851" lon="6.08307">
        <ele>270.748</ele>
        <time>2012-03-25T06:50:59.000Z</time>
      </trkpt>
      <trkpt lat="48.68854" lon="6.08304">
        <ele>270.748</ele>
        <time>2012-03-25T06:51:21.000Z</time>
      </trkpt>
      <trkpt lat="48.68874" lon="6.08296">
        <ele>269.787</ele>
        <time>2012-03-25T06:51:57.000Z</time>
      </trkpt>
      <trkpt lat="48.68879" lon="6.08293">
        <ele>269.787</ele>
        <time>2012-03-25T06:51:58.000Z</time>
      </trkpt>
      <trkpt lat="48.68896" lon="6.08284">
        <ele>269.787</ele>
        <time>2012-03-25T06:52:02.000Z</time>
      </trkpt>
      <trkpt lat="48.68919" lon="6.08277">
        <ele>269.307</ele>
        <time>2012-03-25T06:52:07.000Z</time>
      </trkpt>
      <trkpt lat="48.68929" lon="6.08276">
        <ele>268.826</ele>
        <time>2012-03-25T06:52:09.000Z</time>
      </trkpt>
      <trkpt lat="48.68945" lon="6.08275">
        <ele>268.826</ele>
        <time>2012-03-25T06:52:12.000Z</time>
      </trkpt>
      <trkpt lat="48.68982" lon="6.08287">
        <ele>268.345</ele>
        <time>2012-03-25T06:52:20.000Z</time>
      </trkpt>
      <trkpt lat="48.69005" lon="6.083">
        <ele>267.865</ele>
        <time>2012-03-25T06:52:25.000Z</time>
      </trkpt>
      <trkpt lat="48.69021" lon="6.08308">
        <ele>267.865</ele>
        <time>2012-03-25T06:52:28.000Z</time>
      </trkpt>
      <trkpt lat="48.69041" lon="6.08325">
        <ele>266.903</ele>
        <time>2012-03-25T06:52:33.000Z</time>
      </trkpt>
      <trkpt lat="48.69061" lon="6.08351">
        <ele>266.422</ele>
        <time>2012-03-25T06:52:38.000Z</time>
      </trkpt>
      <trkpt lat="48.69086" lon="6.08375">
        <ele>266.903</ele>
        <time>2012-03-25T06:52:44.000Z</time>
      </trkpt>
      <trkpt lat="48.69105" lon="6.08375">
        <ele>267.865</ele>
        <time>2012-03-25T06:52:49.000Z</time>
      </trkpt>
      <trkpt lat="48.69103" lon="6.0835">
        <ele>268.345</ele>
        <time>2012-03-25T06:52:56.000Z</time>
      </trkpt>
      <trkpt lat="48.69092" lon="6.08306">
        <ele>268.826</ele>
        <time>2012-03-25T06:53:08.000Z</time>
      </trkpt>
      <trkpt lat="48.69073" lon="6.08273">
        <ele>269.307</ele>
        <time>2012-03-25T06:53:18.000Z</time>
      </trkpt>
      <trkpt lat="48.69062" lon="6.08237">
        <ele>270.268</ele>
        <time>2012-03-25T06:53:28.000Z</time>
      </trkpt>
      <trkpt lat="48.69053" lon="6.08214">
        <ele>271.229</ele>
        <time>2012-03-25T06:53:36.000Z</time>
      </trkpt>
      <trkpt lat="48.69044" lon="6.0818">
        <ele>272.19</ele>
        <time>2012-03-25T06:53:47.000Z</time>
      </trkpt>
      <trkpt lat="48.69034" lon="6.08147">
        <ele>273.152</ele>
        <time>2012-03-25T06:53:57.000Z</time>
      </trkpt>
      <trkpt lat="48.69017" lon="6.08108">
        <ele>274.113</ele>
        <time>2012-03-25T06:54:09.000Z</time>
      </trkpt>
      <trkpt lat="48.69012" lon="6.08099">
        <ele>274.113</ele>
        <time>2012-03-25T06:54:12.000Z</time>
      </trkpt>
      <trkpt lat="48.69006" lon="6.08083">
        <ele>274.594</ele>
        <time>2012-03-25T06:54:17.000Z</time>
      </trkpt>
      <trkpt lat="48.68997" lon="6.08071">
        <ele>275.074</ele>
        <time>2012-03-25T06:54:22.000Z</time>
      </trkpt>
      <trkpt lat="48.68986" lon="6.08057">
        <ele>275.074</ele>
        <time>2012-03-25T06:54:27.000Z</time>
      </trkpt>
      <trkpt lat="48.68978" lon="6.0805">
        <ele>275.555</ele>
        <time>2012-03-25T06:54:31.000Z</time>
      </trkpt>
      <trkpt lat="48.68967" lon="6.08037">
        <ele>276.036</ele>
        <time>2012-03-25T06:54:37.000Z</time>
      </trkpt>
      <trkpt lat="48.6894" lon="6.08004">
        <ele>277.478</ele>
        <time>2012-03-25T06:54:49.000Z</time>
      </trkpt>
      <trkpt lat="48.68938" lon="6.08001">
        <ele>277.478</ele>
        <time>2012-03-25T06:54:50.000Z</time>
      </trkpt>
      <trkpt lat="48.68931" lon="6.07981">
        <ele>278.439</ele>
        <time>2012-03-25T06:54:56.000Z</time>
      </trkpt>
      <trkpt lat="48.68928" lon="6.07932">
        <ele>280.362</ele>
        <time>2012-03-25T06:55:10.000Z</time>
      </trkpt>
      <trkpt lat="48.68925" lon="6.07891">
        <ele>282.284</ele>
        <time>2012-03-25T06:55:22.000Z</time>
      </trkpt>
      <trkpt lat="48.68931" lon="6.07844">
        <ele>284.207</ele>
        <time>2012-03-25T06:55:34.000Z</time>
      </trkpt>
      <trkpt lat="48.68943" lon="6.07807">
        <ele>286.13</ele>
        <time>2012-03-25T06:55:44.000Z</time>
      </trkpt>
      <trkpt lat="48.68958" lon="6.0777">
        <ele>289.014</ele>
        <time>2012-03-25T06:55:55.000Z</time>
      </trkpt>
      <trkpt lat="48.68973" lon="6.07748">
        <ele>290.936</ele>
        <time>2012-03-25T06:56:06.000Z</time>
      </trkpt>
      <trkpt lat="48.68978" lon="6.07739">
        <ele>290.936</ele>
        <time>2012-03-25T06:56:10.000Z</time>
      </trkpt>
      <trkpt lat="48.68985" lon="6.07727">
        <ele>291.417</ele>
        <time>2012-03-25T06:56:16.000Z</time>
      </trkpt>
      <trkpt lat="48.68988" lon="6.07723">
        <ele>291.897</ele>
        <time>2012-03-25T06:56:19.000Z</time>
      </trkpt>
      <trkpt lat="48.69" lon="6.07704">
        <ele>293.82</ele>
        <time>2012-03-25T06:56:31.000Z</time>
      </trkpt>
      <trkpt lat="48.69009" lon="6.07691">
        <ele>294.781</ele>
        <time>2012-03-25T06:56:36.000Z</time>
      </trkpt>
      <trkpt lat="48.69021" lon="6.07675">
        <ele>295.743</ele>
        <time>2012-03-25T06:56:43.000Z</time>
      </trkpt>
      <trkpt lat="48.69028" lon="6.0766">
        <ele>297.185</ele>
        <time>2012-03-25T06:56:51.000Z</time>
      </trkpt>
      <trkpt lat="48.69031" lon="6.07642">
        <ele>298.627</ele>
        <time>2012-03-25T06:57:00.000Z</time>
      </trkpt>
      <trkpt lat="48.69034" lon="6.07625">
        <ele>299.588</ele>
        <time>2012-03-25T06:57:06.000Z</time>
      </trkpt>
      <trkpt lat="48.69042" lon="6.07601">
        <ele>301.03</ele>
        <time>2012-03-25T06:57:13.000Z</time>
      </trkpt>
      <trkpt lat="48.69059" lon="6.0756">
        <ele>302.472</ele>
        <time>2012-03-25T06:57:25.000Z</time>
      </trkpt>
      <trkpt lat="48.69074" lon="6.07526">
        <ele>304.875</ele>
        <time>2012-03-25T06:57:36.000Z</time>
      </trkpt>
      <trkpt lat="48.69083" lon="6.07502">
        <ele>306.798</ele>
        <time>2012-03-25T06:57:45.000Z</time>
      </trkpt>
      <trkpt lat="48.69085" lon="6.07491">
        <ele>307.759</ele>
        <time>2012-03-25T06:57:49.000Z</time>
      </trkpt>
      <trkpt lat="48.69099" lon="6.07447">
        <ele>311.124</ele>
        <time>2012-03-25T06:58:03.000Z</time>
      </trkpt>
      <trkpt lat="48.69113" lon="6.0743">
        <ele>313.047</ele>
        <time>2012-03-25T06:58:12.000Z</time>
      </trkpt>
      <trkpt lat="48.69117" lon="6.07414">
        <ele>314.488</ele>
        <time>2012-03-25T06:58:21.000Z</time>
      </trkpt>
      <trkpt lat="48.69139" lon="6.07408">
        <ele>314.969</ele>
        <time>2012-03-25T06:58:33.000Z</time>
      </trkpt>
      <trkpt lat="48.69166" lon="6.07401">
        <ele>316.892</ele>
        <time>2012-03-25T06:58:46.000Z</time>
      </trkpt>
      <trkpt lat="48.69198" lon="6.07396">
        <ele>318.334</ele>
        <time>2012-03-25T06:59:00.000Z</time>
      </trkpt>
      <trkpt lat="48.69214" lon="6.07392">
        <ele>319.295</ele>
        <time>2012-03-25T06:59:10.000Z</time>
      </trkpt>
      <trkpt lat="48.69217" lon="6.07392">
        <ele>319.776</ele>
        <time>2012-03-25T06:59:13.000Z</time>
      </trkpt>
      <trkpt lat="48.69219" lon="6.07391">
        <ele>319.776</ele>
        <time>2012-03-25T06:59:15.000Z</time>
      </trkpt>
      <trkpt lat="48.69221" lon="6.07389">
        <ele>320.256</ele>
        <time>2012-03-25T06:59:37.000Z</time>
      </trkpt>
      <trkpt lat="48.69215" lon="6.07389">
        <ele>318.334</ele>
        <time>2012-03-25T07:01:51.000Z</time>
      </trkpt>
      <trkpt lat="48.69213" lon="6.07396">
        <ele>318.814</ele>
        <time>2012-03-25T07:05:03.000Z</time>
      </trkpt>
      <trkpt lat="48.6922" lon="6.07374">
        <ele>320.737</ele>
        <time>2012-03-25T07:06:49.000Z</time>
      </trkpt>
      <trkpt lat="48.69226" lon="6.07336">
        <ele>322.66</ele>
        <time>2012-03-25T07:07:01.000Z</time>
      </trkpt>
      <trkpt lat="48.69238" lon="6.07323">
        <ele>324.582</ele>
        <time>2012-03-25T07:07:11.000Z</time>
      </trkpt>
      <trkpt lat="48.69245" lon="6.07319">
        <ele>325.544</ele>
        <time>2012-03-25T07:07:16.000Z</time>
      </trkpt>
      <trkpt lat="48.69263" lon="6.07289">
        <ele>328.428</ele>
        <time>2012-03-25T07:07:31.000Z</time>
      </trkpt>
      <trkpt lat="48.6926" lon="6.07252">
        <ele>329.87</ele>
        <time>2012-03-25T07:07:41.000Z</time>
      </trkpt>
      <trkpt lat="48.69241" lon="6.07207">
        <ele>331.792</ele>
        <time>2012-03-25T07:07:54.000Z</time>
      </trkpt>
      <trkpt lat="48.69212" lon="6.07156">
        <ele>333.234</ele>
        <time>2012-03-25T07:08:08.000Z</time>
      </trkpt>
      <trkpt lat="48.69228" lon="6.07125">
        <ele>332.754</ele>
        <time>2012-03-25T07:08:18.000Z</time>
      </trkpt>
      <trkpt lat="48.69248" lon="6.07097">
        <ele>333.715</ele>
        <time>2012-03-25T07:08:27.000Z</time>
      </trkpt>
      <trkpt lat="48.69268" lon="6.07086">
        <ele>332.273</ele>
        <time>2012-03-25T07:08:32.000Z</time>
      </trkpt>
      <trkpt lat="48.69279" lon="6.07082">
        <ele>332.273</ele>
        <time>2012-03-25T07:08:34.000Z</time>
      </trkpt>
      <trkpt lat="48.69323" lon="6.07077">
        <ele>331.312</ele>
        <time>2012-03-25T07:08:42.000Z</time>
      </trkpt>
      <trkpt lat="48.69346" lon="6.0709">
        <ele>331.792</ele>
        <time>2012-03-25T07:08:47.000Z</time>
      </trkpt>
      <trkpt lat="48.69361" lon="6.07103">
        <ele>331.312</ele>
        <time>2012-03-25T07:08:50.000Z</time>
      </trkpt>
      <trkpt lat="48.69385" lon="6.0718">
        <ele>329.389</ele>
        <time>2012-03-25T07:09:00.000Z</time>
      </trkpt>
      <trkpt lat="48.69381" lon="6.07208">
        <ele>328.428</ele>
        <time>2012-03-25T07:09:03.000Z</time>
      </trkpt>
      <trkpt lat="48.69359" lon="6.07285">
        <ele>326.024</ele>
        <time>2012-03-25T07:09:12.000Z</time>
      </trkpt>
      <trkpt lat="48.69357" lon="6.0731">
        <ele>325.544</ele>
        <time>2012-03-25T07:09:15.000Z</time>
      </trkpt>
      <trkpt lat="48.69355" lon="6.07327">
        <ele>326.024</ele>
        <time>2012-03-25T07:09:17.000Z</time>
      </trkpt>
      <trkpt lat="48.69368" lon="6.07358">
        <ele>325.544</ele>
        <time>2012-03-25T07:09:23.000Z</time>
      </trkpt>
      <trkpt lat="48.6943" lon="6.07342">
        <ele>326.024</ele>
        <time>2012-03-25T07:09:36.000Z</time>
      </trkpt>
      <trkpt lat="48.69524" lon="6.0732">
        <ele>322.66</ele>
        <time>2012-03-25T07:09:52.000Z</time>
      </trkpt>
      <trkpt lat="48.69533" lon="6.07319">
        <ele>322.66</ele>
        <time>2012-03-25T07:09:54.000Z</time>
      </trkpt>
      <trkpt lat="48.69538" lon="6.07337">
        <ele>322.66</ele>
        <time>2012-03-25T07:09:59.000Z</time>
      </trkpt>
      <trkpt lat="48.69536" lon="6.07357">
        <ele>322.179</ele>
        <time>2012-03-25T07:10:02.000Z</time>
      </trkpt>
      <trkpt lat="48.69535" lon="6.07377">
        <ele>321.698</ele>
        <time>2012-03-25T07:10:05.000Z</time>
      </trkpt>
      <trkpt lat="48.69534" lon="6.07395">
        <ele>321.698</ele>
        <time>2012-03-25T07:10:08.000Z</time>
      </trkpt>
      <trkpt lat="48.69536" lon="6.07427">
        <ele>321.218</ele>
        <time>2012-03-25T07:10:12.000Z</time>
      </trkpt>
      <trkpt lat="48.69536" lon="6.07457">
        <ele>319.776</ele>
        <time>2012-03-25T07:10:16.000Z</time>
      </trkpt>
      <trkpt lat="48.69558" lon="6.07501">
        <ele>317.853</ele>
        <time>2012-03-25T07:10:22.000Z</time>
      </trkpt>
      <trkpt lat="48.6959" lon="6.07522">
        <ele>314.969</ele>
        <time>2012-03-25T07:10:27.000Z</time>
      </trkpt>
      <trkpt lat="48.69625" lon="6.0755">
        <ele>311.604</ele>
        <time>2012-03-25T07:10:32.000Z</time>
      </trkpt>
      <trkpt lat="48.69656" lon="6.07573">
        <ele>308.72</ele>
        <time>2012-03-25T07:10:36.000Z</time>
      </trkpt>
      <trkpt lat="48.69695" lon="6.07603">
        <ele>304.875</ele>
        <time>2012-03-25T07:10:41.000Z</time>
      </trkpt>
      <trkpt lat="48.69764" lon="6.07648">
        <ele>304.395</ele>
        <time>2012-03-25T07:10:49.000Z</time>
      </trkpt>
      <trkpt lat="48.6977" lon="6.07648">
        <ele>304.395</ele>
        <time>2012-03-25T07:10:50.000Z</time>
      </trkpt>
      <trkpt lat="48.69789" lon="6.0766">
        <ele>306.317</ele>
        <time>2012-03-25T07:10:53.000Z</time>
      </trkpt>
      <trkpt lat="48.6985" lon="6.07696">
        <ele>309.201</ele>
        <time>2012-03-25T07:11:03.000Z</time>
      </trkpt>
      <trkpt lat="48.69894" lon="6.07728">
        <ele>311.604</ele>
        <time>2012-03-25T07:11:13.000Z</time>
      </trkpt>
      <trkpt lat="48.69914" lon="6.07737">
        <ele>310.643</ele>
        <time>2012-03-25T07:11:17.000Z</time>
      </trkpt>
      <trkpt lat="48.69935" lon="6.07748">
        <ele>311.124</ele>
        <time>2012-03-25T07:11:21.000Z</time>
      </trkpt>
      <trkpt lat="48.69956" lon="6.07763">
        <ele>310.643</ele>
        <time>2012-03-25T07:11:25.000Z</time>
      </trkpt>
      <trkpt lat="48.69986" lon="6.07789">
        <ele>311.604</ele>
        <time>2012-03-25T07:11:31.000Z</time>
      </trkpt>
      <trkpt lat="48.70004" lon="6.07802">
        <ele>311.604</ele>
        <time>2012-03-25T07:11:35.000Z</time>
      </trkpt>
      <trkpt lat="48.70073" lon="6.07845">
        <ele>312.085</ele>
        <time>2012-03-25T07:11:49.000Z</time>
      </trkpt>
      <trkpt lat="48.70078" lon="6.07848">
        <ele>312.566</ele>
        <time>2012-03-25T07:11:50.000Z</time>
      </trkpt>
      <trkpt lat="48.70102" lon="6.0786">
        <ele>312.085</ele>
        <time>2012-03-25T07:11:55.000Z</time>
      </trkpt>
      <trkpt lat="48.70158" lon="6.07897">
        <ele>311.604</ele>
        <time>2012-03-25T07:12:06.000Z</time>
      </trkpt>
      <trkpt lat="48.70179" lon="6.07912">
        <ele>310.643</ele>
        <time>2012-03-25T07:12:10.000Z</time>
      </trkpt>
      <trkpt lat="48.70204" lon="6.07931">
        <ele>311.124</ele>
        <time>2012-03-25T07:12:15.000Z</time>
      </trkpt>
      <trkpt lat="48.70232" lon="6.07948">
        <ele>310.162</ele>
        <time>2012-03-25T07:12:21.000Z</time>
      </trkpt>
      <trkpt lat="48.70271" lon="6.07968">
        <ele>310.643</ele>
        <time>2012-03-25T07:12:29.000Z</time>
      </trkpt>
      <trkpt lat="48.70291" lon="6.07984">
        <ele>311.604</ele>
        <time>2012-03-25T07:12:33.000Z</time>
      </trkpt>
      <trkpt lat="48.70298" lon="6.07988">
        <ele>312.085</ele>
        <time>2012-03-25T07:12:35.000Z</time>
      </trkpt>
      <trkpt lat="48.70347" lon="6.08022">
        <ele>314.008</ele>
        <time>2012-03-25T07:12:46.000Z</time>
      </trkpt>
      <trkpt lat="48.70382" lon="6.08044">
        <ele>314.969</ele>
        <time>2012-03-25T07:12:55.000Z</time>
      </trkpt>
      <trkpt lat="48.70391" lon="6.08051">
        <ele>314.969</ele>
        <time>2012-03-25T07:12:58.000Z</time>
      </trkpt>
      <trkpt lat="48.70424" lon="6.08065">
        <ele>316.411</ele>
        <time>2012-03-25T07:13:06.000Z</time>
      </trkpt>
      <trkpt lat="48.70454" lon="6.0808">
        <ele>316.892</ele>
        <time>2012-03-25T07:13:13.000Z</time>
      </trkpt>
      <trkpt lat="48.70485" lon="6.081">
        <ele>316.892</ele>
        <time>2012-03-25T07:13:20.000Z</time>
      </trkpt>
      <trkpt lat="48.70519" lon="6.08135">
        <ele>317.853</ele>
        <time>2012-03-25T07:13:29.000Z</time>
      </trkpt>
      <trkpt lat="48.7055" lon="6.08157">
        <ele>318.814</ele>
        <time>2012-03-25T07:13:37.000Z</time>
      </trkpt>
      <trkpt lat="48.70548" lon="6.08178">
        <ele>319.295</ele>
        <time>2012-03-25T07:13:44.000Z</time>
      </trkpt>
      <trkpt lat="48.70528" lon="6.08248">
        <ele>315.93</ele>
        <time>2012-03-25T07:13:56.000Z</time>
      </trkpt>
      <trkpt lat="48.70523" lon="6.08262">
        <ele>314.969</ele>
        <time>2012-03-25T07:13:58.000Z</time>
      </trkpt>
      <trkpt lat="48.70515" lon="6.08287">
        <ele>314.488</ele>
        <time>2012-03-25T07:14:02.000Z</time>
      </trkpt>
      <trkpt lat="48.70494" lon="6.08345">
        <ele>313.527</ele>
        <time>2012-03-25T07:14:10.000Z</time>
      </trkpt>
      <trkpt lat="48.70462" lon="6.08439">
        <ele>311.604</ele>
        <time>2012-03-25T07:14:23.000Z</time>
      </trkpt>
      <trkpt lat="48.70452" lon="6.08466">
        <ele>311.124</ele>
        <time>2012-03-25T07:14:26.000Z</time>
      </trkpt>
      <trkpt lat="48.7042" lon="6.08558">
        <ele>309.201</ele>
        <time>2012-03-25T07:14:38.000Z</time>
      </trkpt>
      <trkpt lat="48.70387" lon="6.08658">
        <ele>309.201</ele>
        <time>2012-03-25T07:14:53.000Z</time>
      </trkpt>
      <trkpt lat="48.70385" lon="6.08664">
        <ele>309.682</ele>
        <time>2012-03-25T07:14:54.000Z</time>
      </trkpt>
      <trkpt lat="48.70378" lon="6.08689">
        <ele>309.682</ele>
        <time>2012-03-25T07:14:58.000Z</time>
      </trkpt>
      <trkpt lat="48.70366" lon="6.08719">
        <ele>309.682</ele>
        <time>2012-03-25T07:15:03.000Z</time>
      </trkpt>
      <trkpt lat="48.70374" lon="6.08739">
        <ele>310.643</ele>
        <time>2012-03-25T07:15:09.000Z</time>
      </trkpt>
      <trkpt lat="48.7042" lon="6.0877">
        <ele>311.604</ele>
        <time>2012-03-25T07:15:23.000Z</time>
      </trkpt>
      <trkpt lat="48.70462" lon="6.08797">
        <ele>312.566</ele>
        <time>2012-03-25T07:15:35.000Z</time>
      </trkpt>
      <trkpt lat="48.70499" lon="6.08824">
        <ele>313.527</ele>
        <time>2012-03-25T07:15:46.000Z</time>
      </trkpt>
      <trkpt lat="48.70543" lon="6.08853">
        <ele>314.488</ele>
        <time>2012-03-25T07:16:01.000Z</time>
      </trkpt>
      <trkpt lat="48.70594" lon="6.0889">
        <ele>314.488</ele>
        <time>2012-03-25T07:16:17.000Z</time>
      </trkpt>
      <trkpt lat="48.70633" lon="6.0892">
        <ele>315.93</ele>
        <time>2012-03-25T07:16:31.000Z</time>
      </trkpt>
      <trkpt lat="48.70671" lon="6.08946">
        <ele>316.411</ele>
        <time>2012-03-25T07:16:45.000Z</time>
      </trkpt>
      <trkpt lat="48.70701" lon="6.08968">
        <ele>316.892</ele>
        <time>2012-03-25T07:16:58.000Z</time>
      </trkpt>
      <trkpt lat="48.70734" lon="6.0899">
        <ele>317.853</ele>
        <time>2012-03-25T07:17:10.000Z</time>
      </trkpt>
      <trkpt lat="48.70736" lon="6.08991">
        <ele>317.853</ele>
        <time>2012-03-25T07:17:11.000Z</time>
      </trkpt>
      <trkpt lat="48.70748" lon="6.08996">
        <ele>317.853</ele>
        <time>2012-03-25T07:17:15.000Z</time>
      </trkpt>
      <trkpt lat="48.70792" lon="6.09026">
        <ele>318.334</ele>
        <time>2012-03-25T07:17:31.000Z</time>
      </trkpt>
      <trkpt lat="48.70812" lon="6.0904">
        <ele>318.334</ele>
        <time>2012-03-25T07:17:42.000Z</time>
      </trkpt>
      <trkpt lat="48.70847" lon="6.09071">
        <ele>317.853</ele>
        <time>2012-03-25T07:17:52.000Z</time>
      </trkpt>
      <trkpt lat="48.70884" lon="6.091">
        <ele>318.334</ele>
        <time>2012-03-25T07:18:03.000Z</time>
      </trkpt>
      <trkpt lat="48.70915" lon="6.09126">
        <ele>317.853</ele>
        <time>2012-03-25T07:18:13.000Z</time>
      </trkpt>
      <trkpt lat="48.70951" lon="6.09155">
        <ele>316.892</ele>
        <time>2012-03-25T07:18:24.000Z</time>
      </trkpt>
      <trkpt lat="48.70979" lon="6.09174">
        <ele>314.969</ele>
        <time>2012-03-25T07:18:31.000Z</time>
      </trkpt>
      <trkpt lat="48.71009" lon="6.092">
        <ele>313.527</ele>
        <time>2012-03-25T07:18:39.000Z</time>
      </trkpt>
      <trkpt lat="48.71058" lon="6.09239">
        <ele>312.566</ele>
        <time>2012-03-25T07:18:53.000Z</time>
      </trkpt>
      <trkpt lat="48.7107" lon="6.09248">
        <ele>313.047</ele>
        <time>2012-03-25T07:18:56.000Z</time>
      </trkpt>
      <trkpt lat="48.71103" lon="6.09277">
        <ele>313.047</ele>
        <time>2012-03-25T07:19:06.000Z</time>
      </trkpt>
      <trkpt lat="48.71111" lon="6.09267">
        <ele>314.008</ele>
        <time>2012-03-25T07:19:11.000Z</time>
      </trkpt>
      <trkpt lat="48.7112" lon="6.09214">
        <ele>315.45</ele>
        <time>2012-03-25T07:19:22.000Z</time>
      </trkpt>
      <trkpt lat="48.71125" lon="6.09175">
        <ele>316.892</ele>
        <time>2012-03-25T07:19:33.000Z</time>
      </trkpt>
      <trkpt lat="48.71125" lon="6.09167">
        <ele>316.892</ele>
        <time>2012-03-25T07:19:35.000Z</time>
      </trkpt>
      <trkpt lat="48.71143" lon="6.09174">
        <ele>316.411</ele>
        <time>2012-03-25T07:19:43.000Z</time>
      </trkpt>
      <trkpt lat="48.7118" lon="6.09202">
        <ele>316.892</ele>
        <time>2012-03-25T07:19:55.000Z</time>
      </trkpt>
      <trkpt lat="48.71215" lon="6.09229">
        <ele>315.93</ele>
        <time>2012-03-25T07:20:04.000Z</time>
      </trkpt>
      <trkpt lat="48.71254" lon="6.09255">
        <ele>314.969</ele>
        <time>2012-03-25T07:20:14.000Z</time>
      </trkpt>
      <trkpt lat="48.71277" lon="6.09275">
        <ele>313.047</ele>
        <time>2012-03-25T07:20:20.000Z</time>
      </trkpt>
      <trkpt lat="48.71314" lon="6.09302">
        <ele>311.604</ele>
        <time>2012-03-25T07:20:28.000Z</time>
      </trkpt>
      <trkpt lat="48.71363" lon="6.09337">
        <ele>308.24</ele>
        <time>2012-03-25T07:20:38.000Z</time>
      </trkpt>
      <trkpt lat="48.71378" lon="6.09346">
        <ele>307.279</ele>
        <time>2012-03-25T07:20:41.000Z</time>
      </trkpt>
      <trkpt lat="48.71429" lon="6.09383">
        <ele>303.914</ele>
        <time>2012-03-25T07:20:50.000Z</time>
      </trkpt>
      <trkpt lat="48.71465" lon="6.09409">
        <ele>300.069</ele>
        <time>2012-03-25T07:20:56.000Z</time>
      </trkpt>
      <trkpt lat="48.71477" lon="6.09419">
        <ele>299.588</ele>
        <time>2012-03-25T07:20:58.000Z</time>
      </trkpt>
      <trkpt lat="48.71513" lon="6.09445">
        <ele>296.704</ele>
        <time>2012-03-25T07:21:04.000Z</time>
      </trkpt>
      <trkpt lat="48.71526" lon="6.09455">
        <ele>295.743</ele>
        <time>2012-03-25T07:21:06.000Z</time>
      </trkpt>
      <trkpt lat="48.71551" lon="6.09474">
        <ele>293.82</ele>
        <time>2012-03-25T07:21:11.000Z</time>
      </trkpt>
      <trkpt lat="48.71582" lon="6.09498">
        <ele>293.82</ele>
        <time>2012-03-25T07:21:22.000Z</time>
      </trkpt>
      <trkpt lat="48.71604" lon="6.09511">
        <ele>294.781</ele>
        <time>2012-03-25T07:21:31.000Z</time>
      </trkpt>
      <trkpt lat="48.71615" lon="6.0952">
        <ele>293.82</ele>
        <time>2012-03-25T07:21:35.000Z</time>
      </trkpt>
      <trkpt lat="48.71623" lon="6.09529">
        <ele>292.378</ele>
        <time>2012-03-25T07:21:38.000Z</time>
      </trkpt>
      <trkpt lat="48.71651" lon="6.09542">
        <ele>290.456</ele>
        <time>2012-03-25T07:21:44.000Z</time>
      </trkpt>
      <trkpt lat="48.71676" lon="6.09562">
        <ele>293.339</ele>
        <time>2012-03-25T07:21:52.000Z</time>
      </trkpt>
      <trkpt lat="48.71693" lon="6.09578">
        <ele>295.262</ele>
        <time>2012-03-25T07:22:00.000Z</time>
      </trkpt>
      <trkpt lat="48.71714" lon="6.09593">
        <ele>298.627</ele>
        <time>2012-03-25T07:22:10.000Z</time>
      </trkpt>
      <trkpt lat="48.71721" lon="6.09597">
        <ele>299.588</ele>
        <time>2012-03-25T07:22:14.000Z</time>
      </trkpt>
      <trkpt lat="48.7173" lon="6.09603">
        <ele>300.069</ele>
        <time>2012-03-25T07:22:19.000Z</time>
      </trkpt>
      <trkpt lat="48.71745" lon="6.09614">
        <ele>301.03</ele>
        <time>2012-03-25T07:22:27.000Z</time>
      </trkpt>
      <trkpt lat="48.7177" lon="6.09636">
        <ele>301.991</ele>
        <time>2012-03-25T07:22:38.000Z</time>
      </trkpt>
      <trkpt lat="48.71777" lon="6.09639">
        <ele>302.472</ele>
        <time>2012-03-25T07:22:41.000Z</time>
      </trkpt>
      <trkpt lat="48.71789" lon="6.09649">
        <ele>302.953</ele>
        <time>2012-03-25T07:22:46.000Z</time>
      </trkpt>
      <trkpt lat="48.71798" lon="6.09657">
        <ele>302.953</ele>
        <time>2012-03-25T07:22:49.000Z</time>
      </trkpt>
      <trkpt lat="48.71833" lon="6.09677">
        <ele>304.395</ele>
        <time>2012-03-25T07:23:01.000Z</time>
      </trkpt>
      <trkpt lat="48.71866" lon="6.09703">
        <ele>305.356</ele>
        <time>2012-03-25T07:23:12.000Z</time>
      </trkpt>
      <trkpt lat="48.71886" lon="6.09722">
        <ele>305.837</ele>
        <time>2012-03-25T07:23:21.000Z</time>
      </trkpt>
      <trkpt lat="48.71902" lon="6.09736">
        <ele>306.317</ele>
        <time>2012-03-25T07:23:27.000Z</time>
      </trkpt>
      <trkpt lat="48.71931" lon="6.0976">
        <ele>306.798</ele>
        <time>2012-03-25T07:23:37.000Z</time>
      </trkpt>
      <trkpt lat="48.71938" lon="6.09764">
        <ele>307.279</ele>
        <time>2012-03-25T07:23:39.000Z</time>
      </trkpt>
      <trkpt lat="48.71972" lon="6.09784">
        <ele>307.759</ele>
        <time>2012-03-25T07:23:49.000Z</time>
      </trkpt>
      <trkpt lat="48.71984" lon="6.09794">
        <ele>308.24</ele>
        <time>2012-03-25T07:23:53.000Z</time>
      </trkpt>
      <trkpt lat="48.72012" lon="6.09816">
        <ele>309.201</ele>
        <time>2012-03-25T07:24:04.000Z</time>
      </trkpt>
      <trkpt lat="48.72032" lon="6.09831">
        <ele>310.162</ele>
        <time>2012-03-25T07:24:11.000Z</time>
      </trkpt>
      <trkpt lat="48.72043" lon="6.09841">
        <ele>310.643</ele>
        <time>2012-03-25T07:24:15.000Z</time>
      </trkpt>
      <trkpt lat="48.72085" lon="6.09872">
        <ele>311.124</ele>
        <time>2012-03-25T07:24:27.000Z</time>
      </trkpt>
      <trkpt lat="48.72124" lon="6.09903">
        <ele>311.604</ele>
        <time>2012-03-25T07:24:38.000Z</time>
      </trkpt>
      <trkpt lat="48.72148" lon="6.09916">
        <ele>312.566</ele>
        <time>2012-03-25T07:24:46.000Z</time>
      </trkpt>
      <trkpt lat="48.72162" lon="6.09929">
        <ele>312.566</ele>
        <time>2012-03-25T07:24:52.000Z</time>
      </trkpt>
      <trkpt lat="48.72192" lon="6.09953">
        <ele>312.566</ele>
        <time>2012-03-25T07:25:02.000Z</time>
      </trkpt>
      <trkpt lat="48.72233" lon="6.0998">
        <ele>313.527</ele>
        <time>2012-03-25T07:25:15.000Z</time>
      </trkpt>
      <trkpt lat="48.72261" lon="6.1">
        <ele>314.488</ele>
        <time>2012-03-25T07:25:25.000Z</time>
      </trkpt>
      <trkpt lat="48.72264" lon="6.10001">
        <ele>314.488</ele>
        <time>2012-03-25T07:25:26.000Z</time>
      </trkpt>
      <trkpt lat="48.72267" lon="6.10022">
        <ele>314.969</ele>
        <time>2012-03-25T07:25:30.000Z</time>
      </trkpt>
      <trkpt lat="48.72256" lon="6.10064">
        <ele>314.969</ele>
        <time>2012-03-25T07:25:39.000Z</time>
      </trkpt>
      <trkpt lat="48.72248" lon="6.10083">
        <ele>314.969</ele>
        <time>2012-03-25T07:25:44.000Z</time>
      </trkpt>
      <trkpt lat="48.72261" lon="6.10106">
        <ele>315.93</ele>
        <time>2012-03-25T07:25:51.000Z</time>
      </trkpt>
      <trkpt lat="48.7228" lon="6.10109">
        <ele>316.411</ele>
        <time>2012-03-25T07:26:02.000Z</time>
      </trkpt>
      <trkpt lat="48.72307" lon="6.10106">
        <ele>315.93</ele>
        <time>2012-03-25T07:26:27.000Z</time>
      </trkpt>
      <trkpt lat="48.72339" lon="6.10101">
        <ele>315.93</ele>
        <time>2012-03-25T07:26:37.000Z</time>
      </trkpt>
      <trkpt lat="48.72397" lon="6.1009">
        <ele>316.411</ele>
        <time>2012-03-25T07:26:51.000Z</time>
      </trkpt>
      <trkpt lat="48.72451" lon="6.10083">
        <ele>315.45</ele>
        <time>2012-03-25T07:27:03.000Z</time>
      </trkpt>
      <trkpt lat="48.72506" lon="6.10073">
        <ele>314.969</ele>
        <time>2012-03-25T07:27:14.000Z</time>
      </trkpt>
      <trkpt lat="48.72511" lon="6.10073">
        <ele>315.45</ele>
        <time>2012-03-25T07:27:15.000Z</time>
      </trkpt>
      <trkpt lat="48.7252" lon="6.10069">
        <ele>315.45</ele>
        <time>2012-03-25T07:27:17.000Z</time>
      </trkpt>
      <trkpt lat="48.72536" lon="6.10058">
        <ele>314.488</ele>
        <time>2012-03-25T07:27:21.000Z</time>
      </trkpt>
      <trkpt lat="48.72562" lon="6.10025">
        <ele>314.488</ele>
        <time>2012-03-25T07:27:28.000Z</time>
      </trkpt>
      <trkpt lat="48.72605" lon="6.09973">
        <ele>314.008</ele>
        <time>2012-03-25T07:27:39.000Z</time>
      </trkpt>
      <trkpt lat="48.72618" lon="6.09955">
        <ele>314.488</ele>
        <time>2012-03-25T07:27:42.000Z</time>
      </trkpt>
      <trkpt lat="48.72626" lon="6.09943">
        <ele>314.969</ele>
        <time>2012-03-25T07:27:44.000Z</time>
      </trkpt>
      <trkpt lat="48.72634" lon="6.09936">
        <ele>314.969</ele>
        <time>2012-03-25T07:27:46.000Z</time>
      </trkpt>
      <trkpt lat="48.72668" lon="6.09891">
        <ele>316.411</ele>
        <time>2012-03-25T07:27:55.000Z</time>
      </trkpt>
      <trkpt lat="48.72675" lon="6.0988">
        <ele>316.411</ele>
        <time>2012-03-25T07:27:57.000Z</time>
      </trkpt>
      <trkpt lat="48.72689" lon="6.09862">
        <ele>316.411</ele>
        <time>2012-03-25T07:28:01.000Z</time>
      </trkpt>
      <trkpt lat="48.72696" lon="6.09852">
        <ele>316.892</ele>
        <time>2012-03-25T07:28:03.000Z</time>
      </trkpt>
      <trkpt lat="48.72743" lon="6.09789">
        <ele>318.814</ele>
        <time>2012-03-25T07:28:17.000Z</time>
      </trkpt>
      <trkpt lat="48.72771" lon="6.09752">
        <ele>320.256</ele>
        <time>2012-03-25T07:28:26.000Z</time>
      </trkpt>
      <trkpt lat="48.72784" lon="6.09739">
        <ele>320.256</ele>
        <time>2012-03-25T07:28:30.000Z</time>
      </trkpt>
      <trkpt lat="48.72831" lon="6.09678">
        <ele>321.698</ele>
        <time>2012-03-25T07:28:45.000Z</time>
      </trkpt>
      <trkpt lat="48.72864" lon="6.09633">
        <ele>322.179</ele>
        <time>2012-03-25T07:28:56.000Z</time>
      </trkpt>
      <trkpt lat="48.72894" lon="6.09592">
        <ele>322.179</ele>
        <time>2012-03-25T07:29:05.000Z</time>
      </trkpt>
      <trkpt lat="48.72934" lon="6.09542">
        <ele>321.698</ele>
        <time>2012-03-25T07:29:16.000Z</time>
      </trkpt>
      <trkpt lat="48.72965" lon="6.09504">
        <ele>323.621</ele>
        <time>2012-03-25T07:29:25.000Z</time>
      </trkpt>
      <trkpt lat="48.72981" lon="6.0948">
        <ele>324.102</ele>
        <time>2012-03-25T07:29:31.000Z</time>
      </trkpt>
      <trkpt lat="48.73012" lon="6.09475">
        <ele>324.582</ele>
        <time>2012-03-25T07:29:40.000Z</time>
      </trkpt>
      <trkpt lat="48.73026" lon="6.09479">
        <ele>325.063</ele>
        <time>2012-03-25T07:29:44.000Z</time>
      </trkpt>
      <trkpt lat="48.73042" lon="6.09483">
        <ele>325.544</ele>
        <time>2012-03-25T07:29:48.000Z</time>
      </trkpt>
      <trkpt lat="48.73079" lon="6.09487">
        <ele>326.024</ele>
        <time>2012-03-25T07:29:58.000Z</time>
      </trkpt>
      <trkpt lat="48.73117" lon="6.09506">
        <ele>326.505</ele>
        <time>2012-03-25T07:30:07.000Z</time>
      </trkpt>
      <trkpt lat="48.73151" lon="6.09526">
        <ele>326.986</ele>
        <time>2012-03-25T07:30:15.000Z</time>
      </trkpt>
      <trkpt lat="48.73159" lon="6.0953">
        <ele>326.505</ele>
        <time>2012-03-25T07:30:17.000Z</time>
      </trkpt>
      <trkpt lat="48.73195" lon="6.09559">
        <ele>327.466</ele>
        <time>2012-03-25T07:30:27.000Z</time>
      </trkpt>
      <trkpt lat="48.73223" lon="6.0958">
        <ele>328.428</ele>
        <time>2012-03-25T07:30:36.000Z</time>
      </trkpt>
      <trkpt lat="48.73227" lon="6.09583">
        <ele>328.428</ele>
        <time>2012-03-25T07:30:37.000Z</time>
      </trkpt>
      <trkpt lat="48.73242" lon="6.09594">
        <ele>328.428</ele>
        <time>2012-03-25T07:30:41.000Z</time>
      </trkpt>
      <trkpt lat="48.73278" lon="6.09615">
        <ele>328.908</ele>
        <time>2012-03-25T07:30:51.000Z</time>
      </trkpt>
      <trkpt lat="48.73326" lon="6.09638">
        <ele>328.908</ele>
        <time>2012-03-25T07:31:02.000Z</time>
      </trkpt>
      <trkpt lat="48.73362" lon="6.09654">
        <ele>329.389</ele>
        <time>2012-03-25T07:31:10.000Z</time>
      </trkpt>
      <trkpt lat="48.73413" lon="6.09681">
        <ele>330.831</ele>
        <time>2012-03-25T07:31:23.000Z</time>
      </trkpt>
      <trkpt lat="48.73446" lon="6.09701">
        <ele>331.792</ele>
        <time>2012-03-25T07:31:32.000Z</time>
      </trkpt>
      <trkpt lat="48.73471" lon="6.09719">
        <ele>333.234</ele>
        <time>2012-03-25T07:31:40.000Z</time>
      </trkpt>
      <trkpt lat="48.73494" lon="6.09732">
        <ele>334.195</ele>
        <time>2012-03-25T07:31:47.000Z</time>
      </trkpt>
      <trkpt lat="48.73508" lon="6.09737">
        <ele>335.157</ele>
        <time>2012-03-25T07:31:51.000Z</time>
      </trkpt>
      <trkpt lat="48.73551" lon="6.0976">
        <ele>337.079</ele>
        <time>2012-03-25T07:32:03.000Z</time>
      </trkpt>
      <trkpt lat="48.73582" lon="6.09783">
        <ele>338.521</ele>
        <time>2012-03-25T07:32:13.000Z</time>
      </trkpt>
      <trkpt lat="48.7362" lon="6.09805">
        <ele>339.002</ele>
        <time>2012-03-25T07:32:24.000Z</time>
      </trkpt>
      <trkpt lat="48.7365" lon="6.09822">
        <ele>339.483</ele>
        <time>2012-03-25T07:32:33.000Z</time>
      </trkpt>
      <trkpt lat="48.7368" lon="6.09841">
        <ele>339.483</ele>
        <time>2012-03-25T07:32:44.000Z</time>
      </trkpt>
      <trkpt lat="48.73693" lon="6.09852">
        <ele>339.963</ele>
        <time>2012-03-25T07:32:48.000Z</time>
      </trkpt>
      <trkpt lat="48.73731" lon="6.09876">
        <ele>339.963</ele>
        <time>2012-03-25T07:33:00.000Z</time>
      </trkpt>
      <trkpt lat="48.73735" lon="6.09879">
        <ele>340.444</ele>
        <time>2012-03-25T07:33:01.000Z</time>
      </trkpt>
      <trkpt lat="48.73775" lon="6.09896">
        <ele>340.925</ele>
        <time>2012-03-25T07:33:13.000Z</time>
      </trkpt>
      <trkpt lat="48.73795" lon="6.0991">
        <ele>340.444</ele>
        <time>2012-03-25T07:33:19.000Z</time>
      </trkpt>
      <trkpt lat="48.73841" lon="6.09937">
        <ele>339.483</ele>
        <time>2012-03-25T07:33:31.000Z</time>
      </trkpt>
      <trkpt lat="48.73868" lon="6.09981">
        <ele>339.963</ele>
        <time>2012-03-25T07:33:41.000Z</time>
      </trkpt>
      <trkpt lat="48.7387" lon="6.09986">
        <ele>339.483</ele>
        <time>2012-03-25T07:33:42.000Z</time>
      </trkpt>
      <trkpt lat="48.7388" lon="6.10042">
        <ele>339.963</ele>
        <time>2012-03-25T07:33:50.000Z</time>
      </trkpt>
      <trkpt lat="48.73892" lon="6.10074">
        <ele>340.925</ele>
        <time>2012-03-25T07:33:55.000Z</time>
      </trkpt>
      <trkpt lat="48.73923" lon="6.10136">
        <ele>341.886</ele>
        <time>2012-03-25T07:34:07.000Z</time>
      </trkpt>
      <trkpt lat="48.73948" lon="6.10192">
        <ele>343.809</ele>
        <time>2012-03-25T07:34:19.000Z</time>
      </trkpt>
      <trkpt lat="48.73957" lon="6.10237">
        <ele>344.77</ele>
        <time>2012-03-25T07:34:28.000Z</time>
      </trkpt>
      <trkpt lat="48.73937" lon="6.10297">
        <ele>345.251</ele>
        <time>2012-03-25T07:34:40.000Z</time>
      </trkpt>
      <trkpt lat="48.73912" lon="6.10363">
        <ele>346.693</ele>
        <time>2012-03-25T07:34:53.000Z</time>
      </trkpt>
      <trkpt lat="48.73891" lon="6.1041">
        <ele>347.654</ele>
        <time>2012-03-25T07:35:03.000Z</time>
      </trkpt>
      <trkpt lat="48.7388" lon="6.10437">
        <ele>347.173</ele>
        <time>2012-03-25T07:35:08.000Z</time>
      </trkpt>
      <trkpt lat="48.73871" lon="6.10453">
        <ele>347.173</ele>
        <time>2012-03-25T07:35:11.000Z</time>
      </trkpt>
      <trkpt lat="48.73861" lon="6.10489">
        <ele>347.173</ele>
        <time>2012-03-25T07:35:18.000Z</time>
      </trkpt>
      <trkpt lat="48.73858" lon="6.10564">
        <ele>345.731</ele>
        <time>2012-03-25T07:35:30.000Z</time>
      </trkpt>
      <trkpt lat="48.73856" lon="6.10623">
        <ele>344.77</ele>
        <time>2012-03-25T07:35:41.000Z</time>
      </trkpt>
      <trkpt lat="48.73872" lon="6.10675">
        <ele>343.328</ele>
        <time>2012-03-25T07:35:50.000Z</time>
      </trkpt>
      <trkpt lat="48.73879" lon="6.10705">
        <ele>343.328</ele>
        <time>2012-03-25T07:35:55.000Z</time>
      </trkpt>
      <trkpt lat="48.73881" lon="6.10742">
        <ele>343.328</ele>
        <time>2012-03-25T07:36:00.000Z</time>
      </trkpt>
      <trkpt lat="48.73881" lon="6.1077">
        <ele>343.328</ele>
        <time>2012-03-25T07:36:04.000Z</time>
      </trkpt>
      <trkpt lat="48.73877" lon="6.10791">
        <ele>343.328</ele>
        <time>2012-03-25T07:36:07.000Z</time>
      </trkpt>
      <trkpt lat="48.73862" lon="6.10889">
        <ele>341.886</ele>
        <time>2012-03-25T07:36:20.000Z</time>
      </trkpt>
      <trkpt lat="48.73858" lon="6.10905">
        <ele>341.886</ele>
        <time>2012-03-25T07:36:22.000Z</time>
      </trkpt>
      <trkpt lat="48.73853" lon="6.10948">
        <ele>341.405</ele>
        <time>2012-03-25T07:36:28.000Z</time>
      </trkpt>
      <trkpt lat="48.73856" lon="6.10972">
        <ele>340.444</ele>
        <time>2012-03-25T07:36:31.000Z</time>
      </trkpt>
      <trkpt lat="48.73865" lon="6.11005">
        <ele>340.925</ele>
        <time>2012-03-25T07:36:35.000Z</time>
      </trkpt>
      <trkpt lat="48.73866" lon="6.11044">
        <ele>340.444</ele>
        <time>2012-03-25T07:36:40.000Z</time>
      </trkpt>
      <trkpt lat="48.73868" lon="6.11099">
        <ele>339.483</ele>
        <time>2012-03-25T07:36:48.000Z</time>
      </trkpt>
      <trkpt lat="48.73871" lon="6.11139">
        <ele>339.963</ele>
        <time>2012-03-25T07:36:53.000Z</time>
      </trkpt>
      <trkpt lat="48.73874" lon="6.11161">
        <ele>339.963</ele>
        <time>2012-03-25T07:36:56.000Z</time>
      </trkpt>
      <trkpt lat="48.73874" lon="6.11182">
        <ele>339.963</ele>
        <time>2012-03-25T07:36:59.000Z</time>
      </trkpt>
      <trkpt lat="48.73881" lon="6.11222">
        <ele>339.963</ele>
        <time>2012-03-25T07:37:05.000Z</time>
      </trkpt>
      <trkpt lat="48.73884" lon="6.11258">
        <ele>339.963</ele>
        <time>2012-03-25T07:37:10.000Z</time>
      </trkpt>
      <trkpt lat="48.73888" lon="6.1128">
        <ele>339.483</ele>
        <time>2012-03-25T07:37:13.000Z</time>
      </trkpt>
      <trkpt lat="48.7389" lon="6.11295">
        <ele>339.483</ele>
        <time>2012-03-25T07:37:15.000Z</time>
      </trkpt>
      <trkpt lat="48.73898" lon="6.11349">
        <ele>339.483</ele>
        <time>2012-03-25T07:37:23.000Z</time>
      </trkpt>
      <trkpt lat="48.73898" lon="6.11384">
        <ele>339.483</ele>
        <time>2012-03-25T07:37:28.000Z</time>
      </trkpt>
      <trkpt lat="48.73906" lon="6.11461">
        <ele>340.444</ele>
        <time>2012-03-25T07:37:40.000Z</time>
      </trkpt>
      <trkpt lat="48.73904" lon="6.11515">
        <ele>342.367</ele>
        <time>2012-03-25T07:37:50.000Z</time>
      </trkpt>
      <trkpt lat="48.73892" lon="6.11567">
        <ele>342.847</ele>
        <time>2012-03-25T07:38:01.000Z</time>
      </trkpt>
      <trkpt lat="48.7388" lon="6.11619">
        <ele>343.328</ele>
        <time>2012-03-25T07:38:12.000Z</time>
      </trkpt>
      <trkpt lat="48.73864" lon="6.11681">
        <ele>343.328</ele>
        <time>2012-03-25T07:38:24.000Z</time>
      </trkpt>
      <trkpt lat="48.73855" lon="6.11714">
        <ele>343.328</ele>
        <time>2012-03-25T07:38:30.000Z</time>
      </trkpt>
      <trkpt lat="48.73853" lon="6.11742">
        <ele>342.367</ele>
        <time>2012-03-25T07:38:37.000Z</time>
      </trkpt>
      <trkpt lat="48.73836" lon="6.11788">
        <ele>342.367</ele>
        <time>2012-03-25T07:38:47.000Z</time>
      </trkpt>
      <trkpt lat="48.73832" lon="6.11791">
        <ele>342.367</ele>
        <time>2012-03-25T07:38:56.000Z</time>
      </trkpt>
      <trkpt lat="48.73833" lon="6.11791">
        <ele>342.367</ele>
        <time>2012-03-25T07:38:58.000Z</time>
      </trkpt>
      <trkpt lat="48.73841" lon="6.1179">
        <ele>342.847</ele>
        <time>2012-03-25T07:39:09.000Z</time>
      </trkpt>
      <trkpt lat="48.73844" lon="6.11787">
        <ele>342.847</ele>
        <time>2012-03-25T07:39:25.000Z</time>
      </trkpt>
      <trkpt lat="48.73844" lon="6.11789">
        <ele>342.847</ele>
        <time>2012-03-25T07:39:54.000Z</time>
      </trkpt>
      <trkpt lat="48.73843" lon="6.11789">
        <ele>342.847</ele>
        <time>2012-03-25T07:39:55.000Z</time>
      </trkpt>
      <trkpt lat="48.73824" lon="6.11794">
        <ele>342.367</ele>
        <time>2012-03-25T07:40:04.000Z</time>
      </trkpt>
      <trkpt lat="48.73784" lon="6.11791">
        <ele>339.963</ele>
        <time>2012-03-25T07:40:17.000Z</time>
      </trkpt>
      <trkpt lat="48.73734" lon="6.11795">
        <ele>337.56</ele>
        <time>2012-03-25T07:40:28.000Z</time>
      </trkpt>
      <trkpt lat="48.73728" lon="6.11795">
        <ele>337.079</ele>
        <time>2012-03-25T07:40:29.000Z</time>
      </trkpt>
      <trkpt lat="48.73672" lon="6.118">
        <ele>335.637</ele>
        <time>2012-03-25T07:40:40.000Z</time>
      </trkpt>
      <trkpt lat="48.73629" lon="6.11803">
        <ele>337.079</ele>
        <time>2012-03-25T07:40:49.000Z</time>
      </trkpt>
      <trkpt lat="48.73601" lon="6.11802">
        <ele>336.599</ele>
        <time>2012-03-25T07:40:55.000Z</time>
      </trkpt>
      <trkpt lat="48.73584" lon="6.11822">
        <ele>337.56</ele>
        <time>2012-03-25T07:41:02.000Z</time>
      </trkpt>
      <trkpt lat="48.73588" lon="6.11886">
        <ele>338.521</ele>
        <time>2012-03-25T07:41:15.000Z</time>
      </trkpt>
      <trkpt lat="48.73587" lon="6.11957">
        <ele>338.041</ele>
        <time>2012-03-25T07:41:29.000Z</time>
      </trkpt>
      <trkpt lat="48.73587" lon="6.11987">
        <ele>338.521</ele>
        <time>2012-03-25T07:41:34.000Z</time>
      </trkpt>
      <trkpt lat="48.73573" lon="6.12005">
        <ele>338.041</ele>
        <time>2012-03-25T07:41:39.000Z</time>
      </trkpt>
      <trkpt lat="48.73538" lon="6.12012">
        <ele>336.599</ele>
        <time>2012-03-25T07:41:46.000Z</time>
      </trkpt>
      <trkpt lat="48.73527" lon="6.12013">
        <ele>336.599</ele>
        <time>2012-03-25T07:41:48.000Z</time>
      </trkpt>
      <trkpt lat="48.73501" lon="6.1202">
        <ele>335.637</ele>
        <time>2012-03-25T07:41:53.000Z</time>
      </trkpt>
      <trkpt lat="48.73481" lon="6.12027">
        <ele>334.676</ele>
        <time>2012-03-25T07:41:57.000Z</time>
      </trkpt>
      <trkpt lat="48.7346" lon="6.12031">
        <ele>333.234</ele>
        <time>2012-03-25T07:42:01.000Z</time>
      </trkpt>
      <trkpt lat="48.73412" lon="6.12041">
        <ele>330.831</ele>
        <time>2012-03-25T07:42:10.000Z</time>
      </trkpt>
      <trkpt lat="48.73394" lon="6.12048">
        <ele>330.35</ele>
        <time>2012-03-25T07:42:13.000Z</time>
      </trkpt>
      <trkpt lat="48.7334" lon="6.12056">
        <ele>327.947</ele>
        <time>2012-03-25T07:42:22.000Z</time>
      </trkpt>
      <trkpt lat="48.73324" lon="6.12063">
        <ele>326.024</ele>
        <time>2012-03-25T07:42:25.000Z</time>
      </trkpt>
      <trkpt lat="48.73318" lon="6.12064">
        <ele>326.024</ele>
        <time>2012-03-25T07:42:26.000Z</time>
      </trkpt>
      <trkpt lat="48.73302" lon="6.12069">
        <ele>325.063</ele>
        <time>2012-03-25T07:42:29.000Z</time>
      </trkpt>
      <trkpt lat="48.73262" lon="6.12078">
        <ele>322.66</ele>
        <time>2012-03-25T07:42:36.000Z</time>
      </trkpt>
      <trkpt lat="48.73249" lon="6.1208">
        <ele>321.698</ele>
        <time>2012-03-25T07:42:38.000Z</time>
      </trkpt>
      <trkpt lat="48.73223" lon="6.1209">
        <ele>316.892</ele>
        <time>2012-03-25T07:42:42.000Z</time>
      </trkpt>
      <trkpt lat="48.73203" lon="6.12095">
        <ele>318.334</ele>
        <time>2012-03-25T07:42:45.000Z</time>
      </trkpt>
      <trkpt lat="48.73183" lon="6.121">
        <ele>318.814</ele>
        <time>2012-03-25T07:42:48.000Z</time>
      </trkpt>
      <trkpt lat="48.73165" lon="6.12104">
        <ele>320.256</ele>
        <time>2012-03-25T07:42:52.000Z</time>
      </trkpt>
      <trkpt lat="48.7316" lon="6.12141">
        <ele>322.179</ele>
        <time>2012-03-25T07:42:59.000Z</time>
      </trkpt>
      <trkpt lat="48.73161" lon="6.12217">
        <ele>323.621</ele>
        <time>2012-03-25T07:43:11.000Z</time>
      </trkpt>
      <trkpt lat="48.73162" lon="6.12261">
        <ele>322.66</ele>
        <time>2012-03-25T07:43:18.000Z</time>
      </trkpt>
      <trkpt lat="48.73163" lon="6.12329">
        <ele>323.14</ele>
        <time>2012-03-25T07:43:28.000Z</time>
      </trkpt>
      <trkpt lat="48.73163" lon="6.12374">
        <ele>323.14</ele>
        <time>2012-03-25T07:43:35.000Z</time>
      </trkpt>
      <trkpt lat="48.73162" lon="6.1241">
        <ele>325.063</ele>
        <time>2012-03-25T07:43:41.000Z</time>
      </trkpt>
      <trkpt lat="48.73165" lon="6.12475">
        <ele>326.986</ele>
        <time>2012-03-25T07:43:54.000Z</time>
      </trkpt>
      <trkpt lat="48.73165" lon="6.12483">
        <ele>327.466</ele>
        <time>2012-03-25T07:43:56.000Z</time>
      </trkpt>
      <trkpt lat="48.73158" lon="6.12501">
        <ele>326.986</ele>
        <time>2012-03-25T07:44:00.000Z</time>
      </trkpt>
      <trkpt lat="48.73138" lon="6.12546">
        <ele>325.544</ele>
        <time>2012-03-25T07:44:08.000Z</time>
      </trkpt>
      <trkpt lat="48.73129" lon="6.1257">
        <ele>323.621</ele>
        <time>2012-03-25T07:44:12.000Z</time>
      </trkpt>
      <trkpt lat="48.7312" lon="6.1259">
        <ele>322.66</ele>
        <time>2012-03-25T07:44:15.000Z</time>
      </trkpt>
      <trkpt lat="48.73112" lon="6.12622">
        <ele>322.179</ele>
        <time>2012-03-25T07:44:19.000Z</time>
      </trkpt>
      <trkpt lat="48.73098" lon="6.12674">
        <ele>320.737</ele>
        <time>2012-03-25T07:44:25.000Z</time>
      </trkpt>
      <trkpt lat="48.73083" lon="6.12702">
        <ele>322.179</ele>
        <time>2012-03-25T07:44:31.000Z</time>
      </trkpt>
      <trkpt lat="48.73048" lon="6.12706">
        <ele>323.14</ele>
        <time>2012-03-25T07:44:39.000Z</time>
      </trkpt>
      <trkpt lat="48.73034" lon="6.12709">
        <ele>322.66</ele>
        <time>2012-03-25T07:44:42.000Z</time>
      </trkpt>
      <trkpt lat="48.73017" lon="6.12712">
        <ele>321.218</ele>
        <time>2012-03-25T07:44:45.000Z</time>
      </trkpt>
      <trkpt lat="48.72978" lon="6.12713">
        <ele>321.218</ele>
        <time>2012-03-25T07:44:53.000Z</time>
      </trkpt>
      <trkpt lat="48.72954" lon="6.12718">
        <ele>320.737</ele>
        <time>2012-03-25T07:44:57.000Z</time>
      </trkpt>
      <trkpt lat="48.72942" lon="6.12719">
        <ele>320.256</ele>
        <time>2012-03-25T07:44:59.000Z</time>
      </trkpt>
      <trkpt lat="48.7293" lon="6.12719">
        <ele>319.776</ele>
        <time>2012-03-25T07:45:01.000Z</time>
      </trkpt>
      <trkpt lat="48.72908" lon="6.1272">
        <ele>319.295</ele>
        <time>2012-03-25T07:45:05.000Z</time>
      </trkpt>
      <trkpt lat="48.72906" lon="6.127">
        <ele>318.814</ele>
        <time>2012-03-25T07:45:09.000Z</time>
      </trkpt>
      <trkpt lat="48.72909" lon="6.12659">
        <ele>317.372</ele>
        <time>2012-03-25T07:45:15.000Z</time>
      </trkpt>
      <trkpt lat="48.72911" lon="6.12623">
        <ele>316.892</ele>
        <time>2012-03-25T07:45:20.000Z</time>
      </trkpt>
      <trkpt lat="48.72912" lon="6.12587">
        <ele>315.93</ele>
        <time>2012-03-25T07:45:26.000Z</time>
      </trkpt>
      <trkpt lat="48.72913" lon="6.12558">
        <ele>314.488</ele>
        <time>2012-03-25T07:45:30.000Z</time>
      </trkpt>
      <trkpt lat="48.72911" lon="6.12515">
        <ele>311.604</ele>
        <time>2012-03-25T07:45:35.000Z</time>
      </trkpt>
      <trkpt lat="48.7291" lon="6.12499">
        <ele>311.124</ele>
        <time>2012-03-25T07:45:37.000Z</time>
      </trkpt>
      <trkpt lat="48.7291" lon="6.12491">
        <ele>310.162</ele>
        <time>2012-03-25T07:45:38.000Z</time>
      </trkpt>
      <trkpt lat="48.72906" lon="6.12451">
        <ele>306.798</ele>
        <time>2012-03-25T07:45:43.000Z</time>
      </trkpt>
      <trkpt lat="48.72905" lon="6.12415">
        <ele>303.433</ele>
        <time>2012-03-25T07:45:47.000Z</time>
      </trkpt>
      <trkpt lat="48.72906" lon="6.12377">
        <ele>301.03</ele>
        <time>2012-03-25T07:45:51.000Z</time>
      </trkpt>
      <trkpt lat="48.72906" lon="6.1236">
        <ele>300.549</ele>
        <time>2012-03-25T07:45:55.000Z</time>
      </trkpt>
      <trkpt lat="48.72891" lon="6.12352">
        <ele>300.069</ele>
        <time>2012-03-25T07:46:02.000Z</time>
      </trkpt>
      <trkpt lat="48.72855" lon="6.12345">
        <ele>300.549</ele>
        <time>2012-03-25T07:46:13.000Z</time>
      </trkpt>
      <trkpt lat="48.72847" lon="6.12335">
        <ele>298.627</ele>
        <time>2012-03-25T07:46:17.000Z</time>
      </trkpt>
      <trkpt lat="48.72846" lon="6.12324">
        <ele>296.704</ele>
        <time>2012-03-25T07:46:21.000Z</time>
      </trkpt>
      <trkpt lat="48.72842" lon="6.12323">
        <ele>295.743</ele>
        <time>2012-03-25T07:46:23.000Z</time>
      </trkpt>
      <trkpt lat="48.72838" lon="6.1232">
        <ele>295.262</ele>
        <time>2012-03-25T07:46:25.000Z</time>
      </trkpt>
      <trkpt lat="48.72835" lon="6.12313">
        <ele>292.859</ele>
        <time>2012-03-25T07:46:31.000Z</time>
      </trkpt>
      <trkpt lat="48.72835" lon="6.12306">
        <ele>290.456</ele>
        <time>2012-03-25T07:46:34.000Z</time>
      </trkpt>
      <trkpt lat="48.7283" lon="6.12285">
        <ele>286.61</ele>
        <time>2012-03-25T07:46:39.000Z</time>
      </trkpt>
      <trkpt lat="48.72825" lon="6.1228">
        <ele>286.13</ele>
        <time>2012-03-25T07:46:40.000Z</time>
      </trkpt>
      <trkpt lat="48.72818" lon="6.12273">
        <ele>286.61</ele>
        <time>2012-03-25T07:46:50.000Z</time>
      </trkpt>
      <trkpt lat="48.72805" lon="6.12267">
        <ele>285.649</ele>
        <time>2012-03-25T07:48:31.000Z</time>
      </trkpt>
      <trkpt lat="48.72782" lon="6.12282">
        <ele>282.284</ele>
        <time>2012-03-25T07:48:35.000Z</time>
      </trkpt>
      <trkpt lat="48.7277" lon="6.12289">
        <ele>281.323</ele>
        <time>2012-03-25T07:48:37.000Z</time>
      </trkpt>
      <trkpt lat="48.72745" lon="6.12306">
        <ele>280.362</ele>
        <time>2012-03-25T07:48:41.000Z</time>
      </trkpt>
      <trkpt lat="48.72706" lon="6.12321">
        <ele>278.439</ele>
        <time>2012-03-25T07:48:47.000Z</time>
      </trkpt>
      <trkpt lat="48.72699" lon="6.12324">
        <ele>278.439</ele>
        <time>2012-03-25T07:48:48.000Z</time>
      </trkpt>
      <trkpt lat="48.72678" lon="6.1234">
        <ele>277.478</ele>
        <time>2012-03-25T07:48:51.000Z</time>
      </trkpt>
      <trkpt lat="48.72639" lon="6.12396">
        <ele>274.113</ele>
        <time>2012-03-25T07:48:59.000Z</time>
      </trkpt>
      <trkpt lat="48.72627" lon="6.12419">
        <ele>272.671</ele>
        <time>2012-03-25T07:49:02.000Z</time>
      </trkpt>
      <trkpt lat="48.72618" lon="6.1244">
        <ele>271.71</ele>
        <time>2012-03-25T07:49:04.000Z</time>
      </trkpt>
      <trkpt lat="48.7261" lon="6.12461">
        <ele>270.748</ele>
        <time>2012-03-25T07:49:06.000Z</time>
      </trkpt>
      <trkpt lat="48.7261" lon="6.12539">
        <ele>269.307</ele>
        <time>2012-03-25T07:49:13.000Z</time>
      </trkpt>
      <trkpt lat="48.72615" lon="6.12549">
        <ele>271.71</ele>
        <time>2012-03-25T07:49:15.000Z</time>
      </trkpt>
      <trkpt lat="48.72636" lon="6.12565">
        <ele>275.555</ele>
        <time>2012-03-25T07:49:22.000Z</time>
      </trkpt>
      <trkpt lat="48.72648" lon="6.1257">
        <ele>277.478</ele>
        <time>2012-03-25T07:49:26.000Z</time>
      </trkpt>
      <trkpt lat="48.72658" lon="6.12581">
        <ele>279.4</ele>
        <time>2012-03-25T07:49:31.000Z</time>
      </trkpt>
      <trkpt lat="48.72664" lon="6.12588">
        <ele>280.842</ele>
        <time>2012-03-25T07:49:34.000Z</time>
      </trkpt>
      <trkpt lat="48.72679" lon="6.12607">
        <ele>284.207</ele>
        <time>2012-03-25T07:49:43.000Z</time>
      </trkpt>
      <trkpt lat="48.7268" lon="6.12608">
        <ele>284.207</ele>
        <time>2012-03-25T07:49:44.000Z</time>
      </trkpt>
      <trkpt lat="48.7269" lon="6.12639">
        <ele>286.61</ele>
        <time>2012-03-25T07:49:55.000Z</time>
      </trkpt>
      <trkpt lat="48.72692" lon="6.1265">
        <ele>288.052</ele>
        <time>2012-03-25T07:50:00.000Z</time>
      </trkpt>
      <trkpt lat="48.72696" lon="6.1266">
        <ele>289.975</ele>
        <time>2012-03-25T07:50:04.000Z</time>
      </trkpt>
      <trkpt lat="48.72698" lon="6.12671">
        <ele>290.936</ele>
        <time>2012-03-25T07:50:08.000Z</time>
      </trkpt>
      <trkpt lat="48.72702" lon="6.12679">
        <ele>291.897</ele>
        <time>2012-03-25T07:50:12.000Z</time>
      </trkpt>
      <trkpt lat="48.72704" lon="6.12714">
        <ele>294.781</ele>
        <time>2012-03-25T07:50:26.000Z</time>
      </trkpt>
      <trkpt lat="48.72704" lon="6.12755">
        <ele>297.185</ele>
        <time>2012-03-25T07:50:40.000Z</time>
      </trkpt>
      <trkpt lat="48.72709" lon="6.128">
        <ele>299.107</ele>
        <time>2012-03-25T07:50:53.000Z</time>
      </trkpt>
      <trkpt lat="48.72711" lon="6.12838">
        <ele>301.991</ele>
        <time>2012-03-25T07:51:06.000Z</time>
      </trkpt>
      <trkpt lat="48.72716" lon="6.12884">
        <ele>304.395</ele>
        <time>2012-03-25T07:51:20.000Z</time>
      </trkpt>
      <trkpt lat="48.72724" lon="6.12928">
        <ele>306.798</ele>
        <time>2012-03-25T07:51:34.000Z</time>
      </trkpt>
      <trkpt lat="48.72729" lon="6.1297">
        <ele>308.72</ele>
        <time>2012-03-25T07:51:48.000Z</time>
      </trkpt>
      <trkpt lat="48.7273" lon="6.12974">
        <ele>309.201</ele>
        <time>2012-03-25T07:51:49.000Z</time>
      </trkpt>
      <trkpt lat="48.72745" lon="6.13025">
        <ele>312.085</ele>
        <time>2012-03-25T07:52:05.000Z</time>
      </trkpt>
      <trkpt lat="48.72749" lon="6.13068">
        <ele>313.527</ele>
        <time>2012-03-25T07:52:18.000Z</time>
      </trkpt>
      <trkpt lat="48.7276" lon="6.13108">
        <ele>314.969</ele>
        <time>2012-03-25T07:52:30.000Z</time>
      </trkpt>
      <trkpt lat="48.72774" lon="6.13138">
        <ele>316.892</ele>
        <time>2012-03-25T07:52:42.000Z</time>
      </trkpt>
      <trkpt lat="48.72781" lon="6.13157">
        <ele>318.334</ele>
        <time>2012-03-25T07:52:50.000Z</time>
      </trkpt>
      <trkpt lat="48.72786" lon="6.13161">
        <ele>318.334</ele>
        <time>2012-03-25T07:52:54.000Z</time>
      </trkpt>
      <trkpt lat="48.72788" lon="6.13164">
        <ele>318.334</ele>
        <time>2012-03-25T07:52:57.000Z</time>
      </trkpt>
      <trkpt lat="48.72782" lon="6.13161">
        <ele>318.814</ele>
        <time>2012-03-25T07:53:06.000Z</time>
      </trkpt>
      <trkpt lat="48.72781" lon="6.13154">
        <ele>318.334</ele>
        <time>2012-03-25T07:53:14.000Z</time>
      </trkpt>
      <trkpt lat="48.72786" lon="6.13159">
        <ele>317.853</ele>
        <time>2012-03-25T07:53:18.000Z</time>
      </trkpt>
      <trkpt lat="48.72792" lon="6.13166">
        <ele>319.295</ele>
        <time>2012-03-25T07:53:27.000Z</time>
      </trkpt>
      <trkpt lat="48.72808" lon="6.13168">
        <ele>318.814</ele>
        <time>2012-03-25T07:53:38.000Z</time>
      </trkpt>
      <trkpt lat="48.72826" lon="6.13167">
        <ele>319.776</ele>
        <time>2012-03-25T07:53:49.000Z</time>
      </trkpt>
      <trkpt lat="48.72856" lon="6.13169">
        <ele>322.179</ele>
        <time>2012-03-25T07:54:02.000Z</time>
      </trkpt>
      <trkpt lat="48.72887" lon="6.13166">
        <ele>325.544</ele>
        <time>2012-03-25T07:54:15.000Z</time>
      </trkpt>
      <trkpt lat="48.72911" lon="6.13167">
        <ele>327.466</ele>
        <time>2012-03-25T07:54:26.000Z</time>
      </trkpt>
      <trkpt lat="48.72918" lon="6.13166">
        <ele>327.947</ele>
        <time>2012-03-25T07:54:29.000Z</time>
      </trkpt>
      <trkpt lat="48.72927" lon="6.13165">
        <ele>328.908</ele>
        <time>2012-03-25T07:54:34.000Z</time>
      </trkpt>
      <trkpt lat="48.72945" lon="6.13161">
        <ele>329.87</ele>
        <time>2012-03-25T07:54:44.000Z</time>
      </trkpt>
      <trkpt lat="48.72976" lon="6.13159">
        <ele>331.312</ele>
        <time>2012-03-25T07:54:57.000Z</time>
      </trkpt>
      <trkpt lat="48.73007" lon="6.1316">
        <ele>333.234</ele>
        <time>2012-03-25T07:55:11.000Z</time>
      </trkpt>
      <trkpt lat="48.73032" lon="6.13155">
        <ele>334.676</ele>
        <time>2012-03-25T07:55:21.000Z</time>
      </trkpt>
      <trkpt lat="48.73056" lon="6.13155">
        <ele>336.118</ele>
        <time>2012-03-25T07:55:31.000Z</time>
      </trkpt>
      <trkpt lat="48.73066" lon="6.13151">
        <ele>337.079</ele>
        <time>2012-03-25T07:55:34.000Z</time>
      </trkpt>
      <trkpt lat="48.73075" lon="6.13173">
        <ele>336.118</ele>
        <time>2012-03-25T07:55:43.000Z</time>
      </trkpt>
      <trkpt lat="48.73075" lon="6.1323">
        <ele>335.637</ele>
        <time>2012-03-25T07:55:54.000Z</time>
      </trkpt>
      <trkpt lat="48.73077" lon="6.13293">
        <ele>335.157</ele>
        <time>2012-03-25T07:56:04.000Z</time>
      </trkpt>
      <trkpt lat="48.73082" lon="6.13353">
        <ele>334.676</ele>
        <time>2012-03-25T07:56:13.000Z</time>
      </trkpt>
      <trkpt lat="48.73089" lon="6.13427">
        <ele>335.157</ele>
        <time>2012-03-25T07:56:23.000Z</time>
      </trkpt>
      <trkpt lat="48.73102" lon="6.13483">
        <ele>336.118</ele>
        <time>2012-03-25T07:56:32.000Z</time>
      </trkpt>
      <trkpt lat="48.73122" lon="6.1353">
        <ele>335.637</ele>
        <time>2012-03-25T07:56:40.000Z</time>
      </trkpt>
      <trkpt lat="48.73139" lon="6.13591">
        <ele>336.599</ele>
        <time>2012-03-25T07:56:50.000Z</time>
      </trkpt>
      <trkpt lat="48.73151" lon="6.13666">
        <ele>337.079</ele>
        <time>2012-03-25T07:57:03.000Z</time>
      </trkpt>
      <trkpt lat="48.73148" lon="6.13718">
        <ele>336.118</ele>
        <time>2012-03-25T07:57:12.000Z</time>
      </trkpt>
      <trkpt lat="48.73141" lon="6.13784">
        <ele>336.118</ele>
        <time>2012-03-25T07:57:23.000Z</time>
      </trkpt>
      <trkpt lat="48.7314" lon="6.1384">
        <ele>335.637</ele>
        <time>2012-03-25T07:57:31.000Z</time>
      </trkpt>
      <trkpt lat="48.73139" lon="6.13848">
        <ele>335.637</ele>
        <time>2012-03-25T07:57:32.000Z</time>
      </trkpt>
      <trkpt lat="48.73137" lon="6.13918">
        <ele>334.195</ele>
        <time>2012-03-25T07:57:41.000Z</time>
      </trkpt>
      <trkpt lat="48.73136" lon="6.13932">
        <ele>333.234</ele>
        <time>2012-03-25T07:57:43.000Z</time>
      </trkpt>
      <trkpt lat="48.73143" lon="6.13988">
        <ele>332.754</ele>
        <time>2012-03-25T07:57:49.000Z</time>
      </trkpt>
      <trkpt lat="48.73146" lon="6.14012">
        <ele>332.754</ele>
        <time>2012-03-25T07:57:52.000Z</time>
      </trkpt>
      <trkpt lat="48.73148" lon="6.14028">
        <ele>332.754</ele>
        <time>2012-03-25T07:57:54.000Z</time>
      </trkpt>
      <trkpt lat="48.73159" lon="6.14078">
        <ele>332.754</ele>
        <time>2012-03-25T07:58:01.000Z</time>
      </trkpt>
      <trkpt lat="48.73186" lon="6.14164">
        <ele>332.273</ele>
        <time>2012-03-25T07:58:13.000Z</time>
      </trkpt>
      <trkpt lat="48.73212" lon="6.14214">
        <ele>332.273</ele>
        <time>2012-03-25T07:58:21.000Z</time>
      </trkpt>
      <trkpt lat="48.73224" lon="6.14249">
        <ele>333.234</ele>
        <time>2012-03-25T07:58:26.000Z</time>
      </trkpt>
      <trkpt lat="48.73236" lon="6.14267">
        <ele>333.234</ele>
        <time>2012-03-25T07:58:30.000Z</time>
      </trkpt>
      <trkpt lat="48.73268" lon="6.14287">
        <ele>335.157</ele>
        <time>2012-03-25T07:58:40.000Z</time>
      </trkpt>
      <trkpt lat="48.733" lon="6.14304">
        <ele>335.637</ele>
        <time>2012-03-25T07:58:49.000Z</time>
      </trkpt>
      <trkpt lat="48.73348" lon="6.14316">
        <ele>335.157</ele>
        <time>2012-03-25T07:59:00.000Z</time>
      </trkpt>
      <trkpt lat="48.73385" lon="6.14327">
        <ele>335.157</ele>
        <time>2012-03-25T07:59:10.000Z</time>
      </trkpt>
      <trkpt lat="48.73426" lon="6.14338">
        <ele>335.157</ele>
        <time>2012-03-25T07:59:20.000Z</time>
      </trkpt>
      <trkpt lat="48.73432" lon="6.14338">
        <ele>335.157</ele>
        <time>2012-03-25T07:59:21.000Z</time>
      </trkpt>
      <trkpt lat="48.73471" lon="6.14349">
        <ele>334.676</ele>
        <time>2012-03-25T07:59:31.000Z</time>
      </trkpt>
      <trkpt lat="48.73475" lon="6.14349">
        <ele>334.676</ele>
        <time>2012-03-25T07:59:32.000Z</time>
      </trkpt>
      <trkpt lat="48.7351" lon="6.1436">
        <ele>333.234</ele>
        <time>2012-03-25T07:59:39.000Z</time>
      </trkpt>
      <trkpt lat="48.73531" lon="6.14374">
        <ele>332.273</ele>
        <time>2012-03-25T07:59:44.000Z</time>
      </trkpt>
      <trkpt lat="48.7359" lon="6.14385">
        <ele>329.87</ele>
        <time>2012-03-25T07:59:57.000Z</time>
      </trkpt>
      <trkpt lat="48.73606" lon="6.14387">
        <ele>329.389</ele>
        <time>2012-03-25T08:00:00.000Z</time>
      </trkpt>
      <trkpt lat="48.73673" lon="6.14373">
        <ele>325.544</ele>
        <time>2012-03-25T08:00:13.000Z</time>
      </trkpt>
      <trkpt lat="48.73714" lon="6.1436">
        <ele>324.102</ele>
        <time>2012-03-25T08:00:20.000Z</time>
      </trkpt>
      <trkpt lat="48.7376" lon="6.14346">
        <ele>323.621</ele>
        <time>2012-03-25T08:00:33.000Z</time>
      </trkpt>
      <trkpt lat="48.73777" lon="6.14351">
        <ele>323.14</ele>
        <time>2012-03-25T08:00:40.000Z</time>
      </trkpt>
      <trkpt lat="48.73783" lon="6.14339">
        <ele>323.621</ele>
        <time>2012-03-25T08:00:45.000Z</time>
      </trkpt>
      <trkpt lat="48.73787" lon="6.14336">
        <ele>323.621</ele>
        <time>2012-03-25T08:00:48.000Z</time>
      </trkpt>
      <trkpt lat="48.73796" lon="6.14345">
        <ele>323.14</ele>
        <time>2012-03-25T08:00:57.000Z</time>
      </trkpt>
      <trkpt lat="48.73795" lon="6.14346">
        <ele>324.102</ele>
        <time>2012-03-25T08:07:13.000Z</time>
      </trkpt>
      <trkpt lat="48.73795" lon="6.14346">
        <ele>324.102</ele>
        <time>2012-03-25T08:08:36.000Z</time>
      </trkpt>
      <trkpt lat="48.73788" lon="6.14329">
        <ele>324.582</ele>
        <time>2012-03-25T08:08:44.000Z</time>
      </trkpt>
      <trkpt lat="48.7381" lon="6.14294">
        <ele>323.621</ele>
        <time>2012-03-25T08:08:52.000Z</time>
      </trkpt>
      <trkpt lat="48.73846" lon="6.14206">
        <ele>321.698</ele>
        <time>2012-03-25T08:09:03.000Z</time>
      </trkpt>
      <trkpt lat="48.73851" lon="6.14183">
        <ele>322.179</ele>
        <time>2012-03-25T08:09:06.000Z</time>
      </trkpt>
      <trkpt lat="48.73855" lon="6.14168">
        <ele>322.66</ele>
        <time>2012-03-25T08:09:08.000Z</time>
      </trkpt>
      <trkpt lat="48.73839" lon="6.14161">
        <ele>323.621</ele>
        <time>2012-03-25T08:09:17.000Z</time>
      </trkpt>
      <trkpt lat="48.73819" lon="6.14203">
        <ele>323.14</ele>
        <time>2012-03-25T08:09:26.000Z</time>
      </trkpt>
      <trkpt lat="48.73809" lon="6.14247">
        <ele>324.582</ele>
        <time>2012-03-25T08:09:33.000Z</time>
      </trkpt>
      <trkpt lat="48.73798" lon="6.14266">
        <ele>325.063</ele>
        <time>2012-03-25T08:09:37.000Z</time>
      </trkpt>
      <trkpt lat="48.73784" lon="6.14301">
        <ele>325.063</ele>
        <time>2012-03-25T08:09:43.000Z</time>
      </trkpt>
      <trkpt lat="48.73772" lon="6.14322">
        <ele>325.063</ele>
        <time>2012-03-25T08:09:47.000Z</time>
      </trkpt>
      <trkpt lat="48.73761" lon="6.14334">
        <ele>325.063</ele>
        <time>2012-03-25T08:09:50.000Z</time>
      </trkpt>
      <trkpt lat="48.73741" lon="6.14344">
        <ele>325.544</ele>
        <time>2012-03-25T08:09:55.000Z</time>
      </trkpt>
      <trkpt lat="48.73692" lon="6.1437">
        <ele>326.986</ele>
        <time>2012-03-25T08:10:09.000Z</time>
      </trkpt>
      <trkpt lat="48.73689" lon="6.14378">
        <ele>326.986</ele>
        <time>2012-03-25T08:10:13.000Z</time>
      </trkpt>
      <trkpt lat="48.73694" lon="6.14396">
        <ele>325.544</ele>
        <time>2012-03-25T08:10:17.000Z</time>
      </trkpt>
      <trkpt lat="48.737" lon="6.14408">
        <ele>325.063</ele>
        <time>2012-03-25T08:10:19.000Z</time>
      </trkpt>
      <trkpt lat="48.73703" lon="6.14415">
        <ele>324.582</ele>
        <time>2012-03-25T08:10:20.000Z</time>
      </trkpt>
      <trkpt lat="48.73715" lon="6.14429">
        <ele>323.621</ele>
        <time>2012-03-25T08:10:23.000Z</time>
      </trkpt>
      <trkpt lat="48.73722" lon="6.14435">
        <ele>322.66</ele>
        <time>2012-03-25T08:10:25.000Z</time>
      </trkpt>
      <trkpt lat="48.73741" lon="6.14453">
        <ele>322.179</ele>
        <time>2012-03-25T08:10:33.000Z</time>
      </trkpt>
      <trkpt lat="48.73741" lon="6.14462">
        <ele>321.698</ele>
        <time>2012-03-25T08:10:37.000Z</time>
      </trkpt>
      <trkpt lat="48.7371" lon="6.14486">
        <ele>322.66</ele>
        <time>2012-03-25T08:10:49.000Z</time>
      </trkpt>
      <trkpt lat="48.73699" lon="6.1449">
        <ele>323.14</ele>
        <time>2012-03-25T08:10:52.000Z</time>
      </trkpt>
      <trkpt lat="48.73675" lon="6.14517">
        <ele>322.66</ele>
        <time>2012-03-25T08:11:03.000Z</time>
      </trkpt>
      <trkpt lat="48.7366" lon="6.14521">
        <ele>323.14</ele>
        <time>2012-03-25T08:11:08.000Z</time>
      </trkpt>
      <trkpt lat="48.73639" lon="6.1455">
        <ele>322.66</ele>
        <time>2012-03-25T08:11:18.000Z</time>
      </trkpt>
      <trkpt lat="48.7362" lon="6.14577">
        <ele>321.698</ele>
        <time>2012-03-25T08:11:26.000Z</time>
      </trkpt>
      <trkpt lat="48.73608" lon="6.14594">
        <ele>321.218</ele>
        <time>2012-03-25T08:11:31.000Z</time>
      </trkpt>
      <trkpt lat="48.73596" lon="6.14625">
        <ele>319.295</ele>
        <time>2012-03-25T08:11:40.000Z</time>
      </trkpt>
      <trkpt lat="48.73593" lon="6.14637">
        <ele>319.295</ele>
        <time>2012-03-25T08:11:48.000Z</time>
      </trkpt>
      <trkpt lat="48.73586" lon="6.14659">
        <ele>318.334</ele>
        <time>2012-03-25T08:12:28.000Z</time>
      </trkpt>
      <trkpt lat="48.73571" lon="6.14678">
        <ele>317.372</ele>
        <time>2012-03-25T08:12:40.000Z</time>
      </trkpt>
      <trkpt lat="48.73561" lon="6.14695">
        <ele>316.892</ele>
        <time>2012-03-25T08:12:58.000Z</time>
      </trkpt>
      <trkpt lat="48.73552" lon="6.14712">
        <ele>316.411</ele>
        <time>2012-03-25T08:13:11.000Z</time>
      </trkpt>
      <trkpt lat="48.7354" lon="6.14732">
        <ele>316.411</ele>
        <time>2012-03-25T08:13:25.000Z</time>
      </trkpt>
      <trkpt lat="48.73537" lon="6.14736">
        <ele>316.411</ele>
        <time>2012-03-25T08:13:28.000Z</time>
      </trkpt>
      <trkpt lat="48.7352" lon="6.1476">
        <ele>314.969</ele>
        <time>2012-03-25T08:13:40.000Z</time>
      </trkpt>
      <trkpt lat="48.73506" lon="6.14792">
        <ele>314.008</ele>
        <time>2012-03-25T08:13:47.000Z</time>
      </trkpt>
      <trkpt lat="48.7348" lon="6.14836">
        <ele>312.566</ele>
        <time>2012-03-25T08:13:58.000Z</time>
      </trkpt>
      <trkpt lat="48.73455" lon="6.14883">
        <ele>312.085</ele>
        <time>2012-03-25T08:14:06.000Z</time>
      </trkpt>
      <trkpt lat="48.73453" lon="6.14893">
        <ele>312.085</ele>
        <time>2012-03-25T08:14:07.000Z</time>
      </trkpt>
      <trkpt lat="48.73452" lon="6.1492">
        <ele>310.162</ele>
        <time>2012-03-25T08:14:12.000Z</time>
      </trkpt>
      <trkpt lat="48.73434" lon="6.14941">
        <ele>311.124</ele>
        <time>2012-03-25T08:14:19.000Z</time>
      </trkpt>
      <trkpt lat="48.7342" lon="6.14961">
        <ele>311.124</ele>
        <time>2012-03-25T08:14:25.000Z</time>
      </trkpt>
      <trkpt lat="48.73389" lon="6.15015">
        <ele>312.085</ele>
        <time>2012-03-25T08:14:36.000Z</time>
      </trkpt>
      <trkpt lat="48.73363" lon="6.15066">
        <ele>311.124</ele>
        <time>2012-03-25T08:14:46.000Z</time>
      </trkpt>
      <trkpt lat="48.73335" lon="6.1512">
        <ele>310.643</ele>
        <time>2012-03-25T08:14:56.000Z</time>
      </trkpt>
      <trkpt lat="48.7331" lon="6.15153">
        <ele>310.643</ele>
        <time>2012-03-25T08:15:01.000Z</time>
      </trkpt>
      <trkpt lat="48.73274" lon="6.15184">
        <ele>311.124</ele>
        <time>2012-03-25T08:15:11.000Z</time>
      </trkpt>
      <trkpt lat="48.73268" lon="6.15161">
        <ele>311.124</ele>
        <time>2012-03-25T08:15:17.000Z</time>
      </trkpt>
      <trkpt lat="48.73268" lon="6.15145">
        <ele>311.604</ele>
        <time>2012-03-25T08:15:20.000Z</time>
      </trkpt>
      <trkpt lat="48.73266" lon="6.15062">
        <ele>313.527</ele>
        <time>2012-03-25T08:15:35.000Z</time>
      </trkpt>
      <trkpt lat="48.7326" lon="6.15009">
        <ele>315.93</ele>
        <time>2012-03-25T08:15:47.000Z</time>
      </trkpt>
      <trkpt lat="48.73259" lon="6.14952">
        <ele>317.853</ele>
        <time>2012-03-25T08:16:00.000Z</time>
      </trkpt>
      <trkpt lat="48.73258" lon="6.14896">
        <ele>317.853</ele>
        <time>2012-03-25T08:16:12.000Z</time>
      </trkpt>
      <trkpt lat="48.73257" lon="6.14835">
        <ele>319.295</ele>
        <time>2012-03-25T08:16:23.000Z</time>
      </trkpt>
      <trkpt lat="48.73255" lon="6.14768">
        <ele>321.218</ele>
        <time>2012-03-25T08:16:37.000Z</time>
      </trkpt>
      <trkpt lat="48.73251" lon="6.14702">
        <ele>323.14</ele>
        <time>2012-03-25T08:16:50.000Z</time>
      </trkpt>
      <trkpt lat="48.73249" lon="6.14634">
        <ele>325.544</ele>
        <time>2012-03-25T08:17:03.000Z</time>
      </trkpt>
      <trkpt lat="48.73246" lon="6.14569">
        <ele>328.428</ele>
        <time>2012-03-25T08:17:15.000Z</time>
      </trkpt>
      <trkpt lat="48.73244" lon="6.14503">
        <ele>330.35</ele>
        <time>2012-03-25T08:17:28.000Z</time>
      </trkpt>
      <trkpt lat="48.73233" lon="6.14495">
        <ele>330.35</ele>
        <time>2012-03-25T08:17:32.000Z</time>
      </trkpt>
      <trkpt lat="48.7319" lon="6.145">
        <ele>327.947</ele>
        <time>2012-03-25T08:17:45.000Z</time>
      </trkpt>
      <trkpt lat="48.7314" lon="6.14502">
        <ele>326.505</ele>
        <time>2012-03-25T08:17:57.000Z</time>
      </trkpt>
      <trkpt lat="48.73078" lon="6.14506">
        <ele>323.14</ele>
        <time>2012-03-25T08:18:10.000Z</time>
      </trkpt>
      <trkpt lat="48.73018" lon="6.14508">
        <ele>319.776</ele>
        <time>2012-03-25T08:18:20.000Z</time>
      </trkpt>
      <trkpt lat="48.72939" lon="6.14516">
        <ele>316.411</ele>
        <time>2012-03-25T08:18:34.000Z</time>
      </trkpt>
      <trkpt lat="48.72933" lon="6.14516">
        <ele>316.411</ele>
        <time>2012-03-25T08:18:35.000Z</time>
      </trkpt>
      <trkpt lat="48.72914" lon="6.14514">
        <ele>315.93</ele>
        <time>2012-03-25T08:18:39.000Z</time>
      </trkpt>
      <trkpt lat="48.72908" lon="6.14492">
        <ele>316.411</ele>
        <time>2012-03-25T08:18:44.000Z</time>
      </trkpt>
      <trkpt lat="48.72905" lon="6.14393">
        <ele>317.372</ele>
        <time>2012-03-25T08:19:00.000Z</time>
      </trkpt>
      <trkpt lat="48.72903" lon="6.14301">
        <ele>317.853</ele>
        <time>2012-03-25T08:19:15.000Z</time>
      </trkpt>
      <trkpt lat="48.729" lon="6.14224">
        <ele>318.814</ele>
        <time>2012-03-25T08:19:29.000Z</time>
      </trkpt>
      <trkpt lat="48.72898" lon="6.14192">
        <ele>319.776</ele>
        <time>2012-03-25T08:19:36.000Z</time>
      </trkpt>
      <trkpt lat="48.72864" lon="6.14183">
        <ele>317.372</ele>
        <time>2012-03-25T08:19:46.000Z</time>
      </trkpt>
      <trkpt lat="48.72842" lon="6.14183">
        <ele>315.93</ele>
        <time>2012-03-25T08:19:50.000Z</time>
      </trkpt>
      <trkpt lat="48.728" lon="6.14188">
        <ele>313.527</ele>
        <time>2012-03-25T08:19:57.000Z</time>
      </trkpt>
      <trkpt lat="48.72777" lon="6.1419">
        <ele>312.566</ele>
        <time>2012-03-25T08:20:01.000Z</time>
      </trkpt>
      <trkpt lat="48.72764" lon="6.14191">
        <ele>312.566</ele>
        <time>2012-03-25T08:20:03.000Z</time>
      </trkpt>
      <trkpt lat="48.72751" lon="6.14192">
        <ele>312.085</ele>
        <time>2012-03-25T08:20:05.000Z</time>
      </trkpt>
      <trkpt lat="48.72733" lon="6.14194">
        <ele>311.604</ele>
        <time>2012-03-25T08:20:08.000Z</time>
      </trkpt>
      <trkpt lat="48.72721" lon="6.14195">
        <ele>312.085</ele>
        <time>2012-03-25T08:20:10.000Z</time>
      </trkpt>
      <trkpt lat="48.72669" lon="6.14197">
        <ele>308.72</ele>
        <time>2012-03-25T08:20:20.000Z</time>
      </trkpt>
      <trkpt lat="48.72657" lon="6.14196">
        <ele>307.759</ele>
        <time>2012-03-25T08:20:22.000Z</time>
      </trkpt>
      <trkpt lat="48.72638" lon="6.14197">
        <ele>304.875</ele>
        <time>2012-03-25T08:20:25.000Z</time>
      </trkpt>
      <trkpt lat="48.72612" lon="6.142">
        <ele>302.953</ele>
        <time>2012-03-25T08:20:29.000Z</time>
      </trkpt>
      <trkpt lat="48.72607" lon="6.14201">
        <ele>301.991</ele>
        <time>2012-03-25T08:20:30.000Z</time>
      </trkpt>
      <trkpt lat="48.72596" lon="6.14205">
        <ele>301.03</ele>
        <time>2012-03-25T08:20:32.000Z</time>
      </trkpt>
      <trkpt lat="48.72581" lon="6.14198">
        <ele>301.03</ele>
        <time>2012-03-25T08:20:35.000Z</time>
      </trkpt>
      <trkpt lat="48.72553" lon="6.1417">
        <ele>300.549</ele>
        <time>2012-03-25T08:20:41.000Z</time>
      </trkpt>
      <trkpt lat="48.72517" lon="6.14144">
        <ele>299.588</ele>
        <time>2012-03-25T08:20:49.000Z</time>
      </trkpt>
      <trkpt lat="48.72497" lon="6.14122">
        <ele>300.069</ele>
        <time>2012-03-25T08:20:55.000Z</time>
      </trkpt>
      <trkpt lat="48.72482" lon="6.14102">
        <ele>299.107</ele>
        <time>2012-03-25T08:21:00.000Z</time>
      </trkpt>
      <trkpt lat="48.7244" lon="6.14043">
        <ele>298.627</ele>
        <time>2012-03-25T08:21:13.000Z</time>
      </trkpt>
      <trkpt lat="48.72411" lon="6.13966">
        <ele>297.185</ele>
        <time>2012-03-25T08:21:25.000Z</time>
      </trkpt>
      <trkpt lat="48.72406" lon="6.13948">
        <ele>297.185</ele>
        <time>2012-03-25T08:21:28.000Z</time>
      </trkpt>
      <trkpt lat="48.72398" lon="6.13878">
        <ele>298.146</ele>
        <time>2012-03-25T08:21:38.000Z</time>
      </trkpt>
      <trkpt lat="48.72402" lon="6.13848">
        <ele>297.185</ele>
        <time>2012-03-25T08:21:42.000Z</time>
      </trkpt>
      <trkpt lat="48.72385" lon="6.13784">
        <ele>296.704</ele>
        <time>2012-03-25T08:21:51.000Z</time>
      </trkpt>
      <trkpt lat="48.72367" lon="6.13738">
        <ele>295.743</ele>
        <time>2012-03-25T08:21:58.000Z</time>
      </trkpt>
      <trkpt lat="48.72359" lon="6.13693">
        <ele>295.743</ele>
        <time>2012-03-25T08:22:06.000Z</time>
      </trkpt>
      <trkpt lat="48.72346" lon="6.13658">
        <ele>296.224</ele>
        <time>2012-03-25T08:22:11.000Z</time>
      </trkpt>
      <trkpt lat="48.72325" lon="6.13593">
        <ele>293.339</ele>
        <time>2012-03-25T08:22:20.000Z</time>
      </trkpt>
      <trkpt lat="48.72323" lon="6.13574">
        <ele>294.781</ele>
        <time>2012-03-25T08:22:23.000Z</time>
      </trkpt>
      <trkpt lat="48.72309" lon="6.13549">
        <ele>291.417</ele>
        <time>2012-03-25T08:22:30.000Z</time>
      </trkpt>
      <trkpt lat="48.72303" lon="6.13538">
        <ele>289.975</ele>
        <time>2012-03-25T08:22:32.000Z</time>
      </trkpt>
      <trkpt lat="48.72299" lon="6.13528">
        <ele>289.014</ele>
        <time>2012-03-25T08:22:34.000Z</time>
      </trkpt>
      <trkpt lat="48.72286" lon="6.13505">
        <ele>286.13</ele>
        <time>2012-03-25T08:22:39.000Z</time>
      </trkpt>
      <trkpt lat="48.72284" lon="6.13485">
        <ele>284.207</ele>
        <time>2012-03-25T08:22:42.000Z</time>
      </trkpt>
      <trkpt lat="48.72281" lon="6.13461">
        <ele>279.881</ele>
        <time>2012-03-25T08:22:47.000Z</time>
      </trkpt>
      <trkpt lat="48.7228" lon="6.1345">
        <ele>276.516</ele>
        <time>2012-03-25T08:22:50.000Z</time>
      </trkpt>
      <trkpt lat="48.72277" lon="6.13436">
        <ele>273.152</ele>
        <time>2012-03-25T08:22:53.000Z</time>
      </trkpt>
      <trkpt lat="48.72274" lon="6.13413">
        <ele>269.307</ele>
        <time>2012-03-25T08:22:57.000Z</time>
      </trkpt>
      <trkpt lat="48.72273" lon="6.13389">
        <ele>266.422</ele>
        <time>2012-03-25T08:23:01.000Z</time>
      </trkpt>
      <trkpt lat="48.72265" lon="6.1339">
        <ele>264.981</ele>
        <time>2012-03-25T08:23:05.000Z</time>
      </trkpt>
      <trkpt lat="48.72237" lon="6.13445">
        <ele>265.461</ele>
        <time>2012-03-25T08:23:18.000Z</time>
      </trkpt>
      <trkpt lat="48.72228" lon="6.1346">
        <ele>264.981</ele>
        <time>2012-03-25T08:23:21.000Z</time>
      </trkpt>
      <trkpt lat="48.72215" lon="6.13487">
        <ele>263.539</ele>
        <time>2012-03-25T08:23:26.000Z</time>
      </trkpt>
      <trkpt lat="48.72202" lon="6.13514">
        <ele>261.135</ele>
        <time>2012-03-25T08:23:31.000Z</time>
      </trkpt>
      <trkpt lat="48.72195" lon="6.13538">
        <ele>257.29</ele>
        <time>2012-03-25T08:23:35.000Z</time>
      </trkpt>
      <trkpt lat="48.72198" lon="6.13567">
        <ele>255.367</ele>
        <time>2012-03-25T08:23:39.000Z</time>
      </trkpt>
      <trkpt lat="48.72209" lon="6.13617">
        <ele>253.925</ele>
        <time>2012-03-25T08:23:45.000Z</time>
      </trkpt>
      <trkpt lat="48.72228" lon="6.13657">
        <ele>256.329</ele>
        <time>2012-03-25T08:23:53.000Z</time>
      </trkpt>
      <trkpt lat="48.72241" lon="6.13685">
        <ele>259.693</ele>
        <time>2012-03-25T08:24:02.000Z</time>
      </trkpt>
      <trkpt lat="48.72254" lon="6.13727">
        <ele>261.616</ele>
        <time>2012-03-25T08:24:13.000Z</time>
      </trkpt>
      <trkpt lat="48.72276" lon="6.13784">
        <ele>261.616</ele>
        <time>2012-03-25T08:24:25.000Z</time>
      </trkpt>
      <trkpt lat="48.72282" lon="6.13819">
        <ele>259.693</ele>
        <time>2012-03-25T08:24:31.000Z</time>
      </trkpt>
      <trkpt lat="48.72286" lon="6.13846">
        <ele>256.329</ele>
        <time>2012-03-25T08:24:35.000Z</time>
      </trkpt>
      <trkpt lat="48.72287" lon="6.13852">
        <ele>255.367</ele>
        <time>2012-03-25T08:24:36.000Z</time>
      </trkpt>
      <trkpt lat="48.72281" lon="6.13869">
        <ele>252.964</ele>
        <time>2012-03-25T08:24:39.000Z</time>
      </trkpt>
      <trkpt lat="48.72273" lon="6.13884">
        <ele>252.483</ele>
        <time>2012-03-25T08:24:41.000Z</time>
      </trkpt>
      <trkpt lat="48.72258" lon="6.13886">
        <ele>250.561</ele>
        <time>2012-03-25T08:24:45.000Z</time>
      </trkpt>
      <trkpt lat="48.72237" lon="6.13836">
        <ele>248.638</ele>
        <time>2012-03-25T08:24:57.000Z</time>
      </trkpt>
      <trkpt lat="48.72226" lon="6.13792">
        <ele>248.638</ele>
        <time>2012-03-25T08:25:06.000Z</time>
      </trkpt>
      <trkpt lat="48.72201" lon="6.1372">
        <ele>246.235</ele>
        <time>2012-03-25T08:25:18.000Z</time>
      </trkpt>
      <trkpt lat="48.72197" lon="6.13709">
        <ele>245.273</ele>
        <time>2012-03-25T08:25:20.000Z</time>
      </trkpt>
      <trkpt lat="48.72197" lon="6.13705">
        <ele>244.793</ele>
        <time>2012-03-25T08:25:21.000Z</time>
      </trkpt>
      <trkpt lat="48.72188" lon="6.13684">
        <ele>243.832</ele>
        <time>2012-03-25T08:25:23.000Z</time>
      </trkpt>
      <trkpt lat="48.72163" lon="6.13635">
        <ele>242.39</ele>
        <time>2012-03-25T08:25:29.000Z</time>
      </trkpt>
      <trkpt lat="48.72148" lon="6.13619">
        <ele>241.428</ele>
        <time>2012-03-25T08:25:32.000Z</time>
      </trkpt>
      <trkpt lat="48.72134" lon="6.1358">
        <ele>239.025</ele>
        <time>2012-03-25T08:25:38.000Z</time>
      </trkpt>
      <trkpt lat="48.72131" lon="6.13557">
        <ele>237.102</ele>
        <time>2012-03-25T08:25:41.000Z</time>
      </trkpt>
      <trkpt lat="48.72132" lon="6.13532">
        <ele>235.66</ele>
        <time>2012-03-25T08:25:44.000Z</time>
      </trkpt>
      <trkpt lat="48.72126" lon="6.13494">
        <ele>233.257</ele>
        <time>2012-03-25T08:25:48.000Z</time>
      </trkpt>
      <trkpt lat="48.72119" lon="6.13464">
        <ele>234.218</ele>
        <time>2012-03-25T08:25:59.000Z</time>
      </trkpt>
      <trkpt lat="48.72116" lon="6.13457">
        <ele>233.738</ele>
        <time>2012-03-25T08:26:58.000Z</time>
      </trkpt>
      <trkpt lat="48.72117" lon="6.13441">
        <ele>232.776</ele>
        <time>2012-03-25T08:27:02.000Z</time>
      </trkpt>
      <trkpt lat="48.72128" lon="6.13376">
        <ele>228.931</ele>
        <time>2012-03-25T08:27:09.000Z</time>
      </trkpt>
      <trkpt lat="48.7213" lon="6.13365">
        <ele>228.931</ele>
        <time>2012-03-25T08:27:10.000Z</time>
      </trkpt>
      <trkpt lat="48.72107" lon="6.13266">
        <ele>226.047</ele>
        <time>2012-03-25T08:27:18.000Z</time>
      </trkpt>
      <trkpt lat="48.72089" lon="6.13239">
        <ele>227.97</ele>
        <time>2012-03-25T08:27:22.000Z</time>
      </trkpt>
      <trkpt lat="48.72062" lon="6.13193">
        <ele>230.854</ele>
        <time>2012-03-25T08:27:28.000Z</time>
      </trkpt>
      <trkpt lat="48.72027" lon="6.1313">
        <ele>233.257</ele>
        <time>2012-03-25T08:27:37.000Z</time>
      </trkpt>
      <trkpt lat="48.72021" lon="6.13123">
        <ele>233.257</ele>
        <time>2012-03-25T08:27:39.000Z</time>
      </trkpt>
      <trkpt lat="48.72002" lon="6.13088">
        <ele>234.218</ele>
        <time>2012-03-25T08:27:45.000Z</time>
      </trkpt>
      <trkpt lat="48.7197" lon="6.13035">
        <ele>236.141</ele>
        <time>2012-03-25T08:27:57.000Z</time>
      </trkpt>
      <trkpt lat="48.71959" lon="6.13021">
        <ele>235.66</ele>
        <time>2012-03-25T08:28:01.000Z</time>
      </trkpt>
      <trkpt lat="48.71931" lon="6.12973">
        <ele>237.102</ele>
        <time>2012-03-25T08:28:11.000Z</time>
      </trkpt>
      <trkpt lat="48.71908" lon="6.12937">
        <ele>237.583</ele>
        <time>2012-03-25T08:28:19.000Z</time>
      </trkpt>
      <trkpt lat="48.71874" lon="6.12888">
        <ele>238.064</ele>
        <time>2012-03-25T08:28:30.000Z</time>
      </trkpt>
      <trkpt lat="48.71839" lon="6.12835">
        <ele>239.025</ele>
        <time>2012-03-25T08:28:41.000Z</time>
      </trkpt>
      <trkpt lat="48.71803" lon="6.1278">
        <ele>239.986</ele>
        <time>2012-03-25T08:28:52.000Z</time>
      </trkpt>
      <trkpt lat="48.71791" lon="6.1276">
        <ele>240.467</ele>
        <time>2012-03-25T08:28:56.000Z</time>
      </trkpt>
      <trkpt lat="48.71766" lon="6.12708">
        <ele>241.428</ele>
        <time>2012-03-25T08:29:08.000Z</time>
      </trkpt>
      <trkpt lat="48.71735" lon="6.12659">
        <ele>240.467</ele>
        <time>2012-03-25T08:29:20.000Z</time>
      </trkpt>
      <trkpt lat="48.71713" lon="6.12621">
        <ele>240.467</ele>
        <time>2012-03-25T08:29:27.000Z</time>
      </trkpt>
      <trkpt lat="48.71685" lon="6.12584">
        <ele>239.986</ele>
        <time>2012-03-25T08:29:34.000Z</time>
      </trkpt>
      <trkpt lat="48.71677" lon="6.12572">
        <ele>239.505</ele>
        <time>2012-03-25T08:29:36.000Z</time>
      </trkpt>
      <trkpt lat="48.71646" lon="6.12499">
        <ele>240.467</ele>
        <time>2012-03-25T08:29:47.000Z</time>
      </trkpt>
      <trkpt lat="48.71622" lon="6.12428">
        <ele>242.39</ele>
        <time>2012-03-25T08:29:59.000Z</time>
      </trkpt>
      <trkpt lat="48.71603" lon="6.12365">
        <ele>243.351</ele>
        <time>2012-03-25T08:30:09.000Z</time>
      </trkpt>
      <trkpt lat="48.71595" lon="6.12342">
        <ele>243.832</ele>
        <time>2012-03-25T08:30:13.000Z</time>
      </trkpt>
      <trkpt lat="48.71588" lon="6.1232">
        <ele>243.832</ele>
        <time>2012-03-25T08:30:17.000Z</time>
      </trkpt>
      <trkpt lat="48.71561" lon="6.1224">
        <ele>242.87</ele>
        <time>2012-03-25T08:30:30.000Z</time>
      </trkpt>
      <trkpt lat="48.71545" lon="6.12192">
        <ele>240.467</ele>
        <time>2012-03-25T08:30:36.000Z</time>
      </trkpt>
      <trkpt lat="48.71542" lon="6.1217">
        <ele>239.986</ele>
        <time>2012-03-25T08:30:39.000Z</time>
      </trkpt>
      <trkpt lat="48.71533" lon="6.12128">
        <ele>239.986</ele>
        <time>2012-03-25T08:30:44.000Z</time>
      </trkpt>
      <trkpt lat="48.71526" lon="6.12063">
        <ele>239.986</ele>
        <time>2012-03-25T08:30:53.000Z</time>
      </trkpt>
      <trkpt lat="48.71517" lon="6.12051">
        <ele>238.544</ele>
        <time>2012-03-25T08:31:00.000Z</time>
      </trkpt>
      <trkpt lat="48.71513" lon="6.1206">
        <ele>234.699</ele>
        <time>2012-03-25T08:31:04.000Z</time>
      </trkpt>
      <trkpt lat="48.71504" lon="6.12067">
        <ele>233.257</ele>
        <time>2012-03-25T08:31:09.000Z</time>
      </trkpt>
      <trkpt lat="48.71499" lon="6.12054">
        <ele>231.815</ele>
        <time>2012-03-25T08:31:15.000Z</time>
      </trkpt>
      <trkpt lat="48.71486" lon="6.12059">
        <ele>228.45</ele>
        <time>2012-03-25T08:31:18.000Z</time>
      </trkpt>
      <trkpt lat="48.71426" lon="6.12093">
        <ele>228.45</ele>
        <time>2012-03-25T08:31:29.000Z</time>
      </trkpt>
      <trkpt lat="48.71421" lon="6.12083">
        <ele>228.45</ele>
        <time>2012-03-25T08:31:33.000Z</time>
      </trkpt>
      <trkpt lat="48.71417" lon="6.12061">
        <ele>229.412</ele>
        <time>2012-03-25T08:31:39.000Z</time>
      </trkpt>
      <trkpt lat="48.71405" lon="6.12035">
        <ele>228.931</ele>
        <time>2012-03-25T08:31:46.000Z</time>
      </trkpt>
      <trkpt lat="48.71391" lon="6.12035">
        <ele>228.931</ele>
        <time>2012-03-25T08:31:50.000Z</time>
      </trkpt>
      <trkpt lat="48.71386" lon="6.12046">
        <ele>229.412</ele>
        <time>2012-03-25T08:31:54.000Z</time>
      </trkpt>
      <trkpt lat="48.71375" lon="6.12086">
        <ele>231.334</ele>
        <time>2012-03-25T08:32:05.000Z</time>
      </trkpt>
      <trkpt lat="48.71375" lon="6.12089">
        <ele>231.815</ele>
        <time>2012-03-25T08:32:28.000Z</time>
      </trkpt>
      <trkpt lat="48.71375" lon="6.12086">
        <ele>231.334</ele>
        <time>2012-03-25T08:32:38.000Z</time>
      </trkpt>
      <trkpt lat="48.71385" lon="6.12051">
        <ele>230.373</ele>
        <time>2012-03-25T08:32:49.000Z</time>
      </trkpt>
      <trkpt lat="48.71381" lon="6.12044">
        <ele>230.373</ele>
        <time>2012-03-25T08:33:01.000Z</time>
      </trkpt>
      <trkpt lat="48.71383" lon="6.12043">
        <ele>230.373</ele>
        <time>2012-03-25T08:33:05.000Z</time>
      </trkpt>
      <trkpt lat="48.71379" lon="6.12074">
        <ele>230.854</ele>
        <time>2012-03-25T08:33:17.000Z</time>
      </trkpt>
      <trkpt lat="48.71373" lon="6.12091">
        <ele>231.815</ele>
        <time>2012-03-25T08:33:22.000Z</time>
      </trkpt>
      <trkpt lat="48.71374" lon="6.12135">
        <ele>234.218</ele>
        <time>2012-03-25T08:33:36.000Z</time>
      </trkpt>
      <trkpt lat="48.71375" lon="6.12139">
        <ele>234.699</ele>
        <time>2012-03-25T08:33:37.000Z</time>
      </trkpt>
      <trkpt lat="48.71368" lon="6.12197">
        <ele>236.622</ele>
        <time>2012-03-25T08:33:50.000Z</time>
      </trkpt>
      <trkpt lat="48.7137" lon="6.12252">
        <ele>238.064</ele>
        <time>2012-03-25T08:34:02.000Z</time>
      </trkpt>
      <trkpt lat="48.71372" lon="6.12305">
        <ele>239.505</ele>
        <time>2012-03-25T08:34:15.000Z</time>
      </trkpt>
      <trkpt lat="48.71368" lon="6.12342">
        <ele>241.909</ele>
        <time>2012-03-25T08:34:26.000Z</time>
      </trkpt>
      <trkpt lat="48.7136" lon="6.12386">
        <ele>244.793</ele>
        <time>2012-03-25T08:34:41.000Z</time>
      </trkpt>
      <trkpt lat="48.71355" lon="6.12417">
        <ele>246.715</ele>
        <time>2012-03-25T08:34:55.000Z</time>
      </trkpt>
      <trkpt lat="48.71351" lon="6.12434">
        <ele>248.158</ele>
        <time>2012-03-25T08:35:02.000Z</time>
      </trkpt>
      <trkpt lat="48.71348" lon="6.12452">
        <ele>249.119</ele>
        <time>2012-03-25T08:35:10.000Z</time>
      </trkpt>
      <trkpt lat="48.71338" lon="6.12471">
        <ele>252.003</ele>
        <time>2012-03-25T08:35:24.000Z</time>
      </trkpt>
      <trkpt lat="48.7133" lon="6.12482">
        <ele>253.925</ele>
        <time>2012-03-25T08:35:33.000Z</time>
      </trkpt>
      <trkpt lat="48.71318" lon="6.12494">
        <ele>255.367</ele>
        <time>2012-03-25T08:35:41.000Z</time>
      </trkpt>
      <trkpt lat="48.71312" lon="6.12497">
        <ele>256.329</ele>
        <time>2012-03-25T08:35:45.000Z</time>
      </trkpt>
      <trkpt lat="48.713" lon="6.12509">
        <ele>260.174</ele>
        <time>2012-03-25T08:35:57.000Z</time>
      </trkpt>
      <trkpt lat="48.71286" lon="6.12517">
        <ele>263.058</ele>
        <time>2012-03-25T08:36:16.000Z</time>
      </trkpt>
      <trkpt lat="48.7128" lon="6.12525">
        <ele>264.5</ele>
        <time>2012-03-25T08:36:36.000Z</time>
      </trkpt>
      <trkpt lat="48.71267" lon="6.12535">
        <ele>267.865</ele>
        <time>2012-03-25T08:36:47.000Z</time>
      </trkpt>
      <trkpt lat="48.71255" lon="6.12548">
        <ele>271.229</ele>
        <time>2012-03-25T08:37:01.000Z</time>
      </trkpt>
      <trkpt lat="48.71239" lon="6.12554">
        <ele>274.113</ele>
        <time>2012-03-25T08:37:15.000Z</time>
      </trkpt>
      <trkpt lat="48.71222" lon="6.12566">
        <ele>276.516</ele>
        <time>2012-03-25T08:37:27.000Z</time>
      </trkpt>
      <trkpt lat="48.71207" lon="6.1258">
        <ele>278.92</ele>
        <time>2012-03-25T08:37:42.000Z</time>
      </trkpt>
      <trkpt lat="48.71191" lon="6.12588">
        <ele>281.323</ele>
        <time>2012-03-25T08:37:57.000Z</time>
      </trkpt>
      <trkpt lat="48.71175" lon="6.12603">
        <ele>283.726</ele>
        <time>2012-03-25T08:38:10.000Z</time>
      </trkpt>
      <trkpt lat="48.71166" lon="6.12613">
        <ele>285.649</ele>
        <time>2012-03-25T08:38:19.000Z</time>
      </trkpt>
      <trkpt lat="48.71159" lon="6.12616">
        <ele>286.61</ele>
        <time>2012-03-25T08:38:25.000Z</time>
      </trkpt>
      <trkpt lat="48.71148" lon="6.12626">
        <ele>288.052</ele>
        <time>2012-03-25T08:38:35.000Z</time>
      </trkpt>
      <trkpt lat="48.71138" lon="6.12647">
        <ele>290.936</ele>
        <time>2012-03-25T08:38:49.000Z</time>
      </trkpt>
      <trkpt lat="48.71133" lon="6.12658">
        <ele>292.378</ele>
        <time>2012-03-25T08:39:05.000Z</time>
      </trkpt>
      <trkpt lat="48.71121" lon="6.12666">
        <ele>294.301</ele>
        <time>2012-03-25T08:39:21.000Z</time>
      </trkpt>
      <trkpt lat="48.7112" lon="6.12669">
        <ele>294.301</ele>
        <time>2012-03-25T08:39:36.000Z</time>
      </trkpt>
      <trkpt lat="48.71125" lon="6.12682">
        <ele>296.704</ele>
        <time>2012-03-25T08:39:48.000Z</time>
      </trkpt>
      <trkpt lat="48.71131" lon="6.12692">
        <ele>299.588</ele>
        <time>2012-03-25T08:40:01.000Z</time>
      </trkpt>
      <trkpt lat="48.71137" lon="6.12701">
        <ele>302.953</ele>
        <time>2012-03-25T08:40:16.000Z</time>
      </trkpt>
      <trkpt lat="48.71141" lon="6.1271">
        <ele>304.875</ele>
        <time>2012-03-25T08:40:35.000Z</time>
      </trkpt>
      <trkpt lat="48.71145" lon="6.12723">
        <ele>307.759</ele>
        <time>2012-03-25T08:40:53.000Z</time>
      </trkpt>
      <trkpt lat="48.71153" lon="6.12741">
        <ele>310.643</ele>
        <time>2012-03-25T08:41:13.000Z</time>
      </trkpt>
      <trkpt lat="48.71165" lon="6.12759">
        <ele>312.566</ele>
        <time>2012-03-25T08:41:31.000Z</time>
      </trkpt>
      <trkpt lat="48.71166" lon="6.12763">
        <ele>312.566</ele>
        <time>2012-03-25T08:41:55.000Z</time>
      </trkpt>
      <trkpt lat="48.71162" lon="6.12749">
        <ele>311.604</ele>
        <time>2012-03-25T08:45:15.000Z</time>
      </trkpt>
      <trkpt lat="48.71161" lon="6.12746">
        <ele>311.124</ele>
        <time>2012-03-25T08:45:41.000Z</time>
      </trkpt>
      <trkpt lat="48.71166" lon="6.12756">
        <ele>313.047</ele>
        <time>2012-03-25T08:47:36.000Z</time>
      </trkpt>
      <trkpt lat="48.71163" lon="6.12773">
        <ele>314.969</ele>
        <time>2012-03-25T08:47:47.000Z</time>
      </trkpt>
      <trkpt lat="48.71154" lon="6.12776">
        <ele>315.45</ele>
        <time>2012-03-25T08:47:56.000Z</time>
      </trkpt>
      <trkpt lat="48.71151" lon="6.12782">
        <ele>315.93</ele>
        <time>2012-03-25T08:48:09.000Z</time>
      </trkpt>
      <trkpt lat="48.71144" lon="6.12792">
        <ele>317.372</ele>
        <time>2012-03-25T08:48:33.000Z</time>
      </trkpt>
      <trkpt lat="48.71126" lon="6.12816">
        <ele>319.776</ele>
        <time>2012-03-25T08:48:48.000Z</time>
      </trkpt>
      <trkpt lat="48.71107" lon="6.12838">
        <ele>321.698</ele>
        <time>2012-03-25T08:49:02.000Z</time>
      </trkpt>
      <trkpt lat="48.71101" lon="6.12844">
        <ele>322.179</ele>
        <time>2012-03-25T08:49:06.000Z</time>
      </trkpt>
      <trkpt lat="48.71083" lon="6.12868">
        <ele>324.102</ele>
        <time>2012-03-25T08:49:18.000Z</time>
      </trkpt>
      <trkpt lat="48.71067" lon="6.12888">
        <ele>326.986</ele>
        <time>2012-03-25T08:49:31.000Z</time>
      </trkpt>
      <trkpt lat="48.71045" lon="6.12915">
        <ele>329.87</ele>
        <time>2012-03-25T08:49:42.000Z</time>
      </trkpt>
      <trkpt lat="48.71031" lon="6.12932">
        <ele>332.754</ele>
        <time>2012-03-25T08:49:55.000Z</time>
      </trkpt>
      <trkpt lat="48.71021" lon="6.12941">
        <ele>334.676</ele>
        <time>2012-03-25T08:50:04.000Z</time>
      </trkpt>
      <trkpt lat="48.71005" lon="6.12966">
        <ele>337.56</ele>
        <time>2012-03-25T08:50:17.000Z</time>
      </trkpt>
      <trkpt lat="48.70988" lon="6.12985">
        <ele>340.444</ele>
        <time>2012-03-25T08:50:32.000Z</time>
      </trkpt>
      <trkpt lat="48.70972" lon="6.13">
        <ele>343.328</ele>
        <time>2012-03-25T08:50:44.000Z</time>
      </trkpt>
      <trkpt lat="48.70961" lon="6.13017">
        <ele>346.212</ele>
        <time>2012-03-25T08:50:58.000Z</time>
      </trkpt>
      <trkpt lat="48.70956" lon="6.13024">
        <ele>346.693</ele>
        <time>2012-03-25T08:51:02.000Z</time>
      </trkpt>
      <trkpt lat="48.7094" lon="6.13044">
        <ele>349.096</ele>
        <time>2012-03-25T08:51:16.000Z</time>
      </trkpt>
      <trkpt lat="48.70923" lon="6.13065">
        <ele>350.538</ele>
        <time>2012-03-25T08:51:32.000Z</time>
      </trkpt>
      <trkpt lat="48.70905" lon="6.13089">
        <ele>352.461</ele>
        <time>2012-03-25T08:51:45.000Z</time>
      </trkpt>
      <trkpt lat="48.70885" lon="6.13127">
        <ele>354.864</ele>
        <time>2012-03-25T08:51:57.000Z</time>
      </trkpt>
      <trkpt lat="48.70867" lon="6.13114">
        <ele>354.383</ele>
        <time>2012-03-25T08:52:08.000Z</time>
      </trkpt>
      <trkpt lat="48.70862" lon="6.13108">
        <ele>354.864</ele>
        <time>2012-03-25T08:52:10.000Z</time>
      </trkpt>
      <trkpt lat="48.70841" lon="6.13078">
        <ele>354.383</ele>
        <time>2012-03-25T08:52:20.000Z</time>
      </trkpt>
      <trkpt lat="48.70813" lon="6.13036">
        <ele>354.864</ele>
        <time>2012-03-25T08:52:30.000Z</time>
      </trkpt>
      <trkpt lat="48.70803" lon="6.13021">
        <ele>354.864</ele>
        <time>2012-03-25T08:52:33.000Z</time>
      </trkpt>
      <trkpt lat="48.70782" lon="6.12991">
        <ele>354.864</ele>
        <time>2012-03-25T08:52:40.000Z</time>
      </trkpt>
      <trkpt lat="48.70773" lon="6.1298">
        <ele>355.344</ele>
        <time>2012-03-25T08:52:43.000Z</time>
      </trkpt>
      <trkpt lat="48.70718" lon="6.12908">
        <ele>356.306</ele>
        <time>2012-03-25T08:53:00.000Z</time>
      </trkpt>
      <trkpt lat="48.70704" lon="6.12891">
        <ele>357.267</ele>
        <time>2012-03-25T08:53:04.000Z</time>
      </trkpt>
      <trkpt lat="48.70675" lon="6.12848">
        <ele>357.748</ele>
        <time>2012-03-25T08:53:13.000Z</time>
      </trkpt>
      <trkpt lat="48.70667" lon="6.12839">
        <ele>357.748</ele>
        <time>2012-03-25T08:53:15.000Z</time>
      </trkpt>
      <trkpt lat="48.7064" lon="6.128">
        <ele>358.228</ele>
        <time>2012-03-25T08:53:23.000Z</time>
      </trkpt>
      <trkpt lat="48.70631" lon="6.12783">
        <ele>358.228</ele>
        <time>2012-03-25T08:53:26.000Z</time>
      </trkpt>
      <trkpt lat="48.70605" lon="6.12759">
        <ele>358.709</ele>
        <time>2012-03-25T08:53:32.000Z</time>
      </trkpt>
      <trkpt lat="48.70594" lon="6.12745">
        <ele>358.709</ele>
        <time>2012-03-25T08:53:35.000Z</time>
      </trkpt>
      <trkpt lat="48.70548" lon="6.12681">
        <ele>358.709</ele>
        <time>2012-03-25T08:53:47.000Z</time>
      </trkpt>
      <trkpt lat="48.70543" lon="6.12671">
        <ele>358.709</ele>
        <time>2012-03-25T08:53:49.000Z</time>
      </trkpt>
      <trkpt lat="48.70516" lon="6.12626">
        <ele>358.228</ele>
        <time>2012-03-25T08:53:56.000Z</time>
      </trkpt>
      <trkpt lat="48.70493" lon="6.12589">
        <ele>357.748</ele>
        <time>2012-03-25T08:54:02.000Z</time>
      </trkpt>
      <trkpt lat="48.70484" lon="6.12572">
        <ele>357.267</ele>
        <time>2012-03-25T08:54:05.000Z</time>
      </trkpt>
      <trkpt lat="48.70462" lon="6.12539">
        <ele>356.786</ele>
        <time>2012-03-25T08:54:10.000Z</time>
      </trkpt>
      <trkpt lat="48.7042" lon="6.1247">
        <ele>354.864</ele>
        <time>2012-03-25T08:54:20.000Z</time>
      </trkpt>
      <trkpt lat="48.70416" lon="6.12465">
        <ele>354.383</ele>
        <time>2012-03-25T08:54:21.000Z</time>
      </trkpt>
      <trkpt lat="48.70364" lon="6.12386">
        <ele>350.538</ele>
        <time>2012-03-25T08:54:32.000Z</time>
      </trkpt>
      <trkpt lat="48.7036" lon="6.1238">
        <ele>350.538</ele>
        <time>2012-03-25T08:54:33.000Z</time>
      </trkpt>
      <trkpt lat="48.70318" lon="6.12313">
        <ele>347.654</ele>
        <time>2012-03-25T08:54:42.000Z</time>
      </trkpt>
      <trkpt lat="48.70311" lon="6.123">
        <ele>347.173</ele>
        <time>2012-03-25T08:54:44.000Z</time>
      </trkpt>
      <trkpt lat="48.70293" lon="6.12259">
        <ele>346.212</ele>
        <time>2012-03-25T08:54:49.000Z</time>
      </trkpt>
      <trkpt lat="48.70275" lon="6.12221">
        <ele>343.809</ele>
        <time>2012-03-25T08:54:53.000Z</time>
      </trkpt>
      <trkpt lat="48.70268" lon="6.12197">
        <ele>343.809</ele>
        <time>2012-03-25T08:54:55.000Z</time>
      </trkpt>
      <trkpt lat="48.70254" lon="6.1217">
        <ele>343.328</ele>
        <time>2012-03-25T08:54:58.000Z</time>
      </trkpt>
      <trkpt lat="48.70215" lon="6.1207">
        <ele>340.444</ele>
        <time>2012-03-25T08:55:08.000Z</time>
      </trkpt>
      <trkpt lat="48.70209" lon="6.12037">
        <ele>342.367</ele>
        <time>2012-03-25T08:55:12.000Z</time>
      </trkpt>
      <trkpt lat="48.70205" lon="6.12031">
        <ele>342.847</ele>
        <time>2012-03-25T08:55:13.000Z</time>
      </trkpt>
      <trkpt lat="48.70181" lon="6.11995">
        <ele>339.002</ele>
        <time>2012-03-25T08:55:22.000Z</time>
      </trkpt>
      <trkpt lat="48.70166" lon="6.11962">
        <ele>337.079</ele>
        <time>2012-03-25T08:55:27.000Z</time>
      </trkpt>
      <trkpt lat="48.70155" lon="6.11923">
        <ele>334.195</ele>
        <time>2012-03-25T08:55:34.000Z</time>
      </trkpt>
      <trkpt lat="48.70148" lon="6.1191">
        <ele>332.754</ele>
        <time>2012-03-25T08:55:37.000Z</time>
      </trkpt>
      <trkpt lat="48.7014" lon="6.11896">
        <ele>331.792</ele>
        <time>2012-03-25T08:55:39.000Z</time>
      </trkpt>
      <trkpt lat="48.70142" lon="6.11846">
        <ele>328.908</ele>
        <time>2012-03-25T08:55:45.000Z</time>
      </trkpt>
      <trkpt lat="48.70125" lon="6.11797">
        <ele>324.582</ele>
        <time>2012-03-25T08:55:51.000Z</time>
      </trkpt>
      <trkpt lat="48.70115" lon="6.11762">
        <ele>321.218</ele>
        <time>2012-03-25T08:55:55.000Z</time>
      </trkpt>
      <trkpt lat="48.70108" lon="6.11746">
        <ele>320.256</ele>
        <time>2012-03-25T08:55:57.000Z</time>
      </trkpt>
      <trkpt lat="48.7011" lon="6.11722">
        <ele>319.776</ele>
        <time>2012-03-25T08:55:59.000Z</time>
      </trkpt>
      <trkpt lat="48.70103" lon="6.11689">
        <ele>315.93</ele>
        <time>2012-03-25T08:56:03.000Z</time>
      </trkpt>
      <trkpt lat="48.70091" lon="6.1161">
        <ele>313.527</ele>
        <time>2012-03-25T08:56:11.000Z</time>
      </trkpt>
      <trkpt lat="48.70094" lon="6.11555">
        <ele>310.162</ele>
        <time>2012-03-25T08:56:17.000Z</time>
      </trkpt>
      <trkpt lat="48.70108" lon="6.11489">
        <ele>307.279</ele>
        <time>2012-03-25T08:56:23.000Z</time>
      </trkpt>
      <trkpt lat="48.70096" lon="6.11468">
        <ele>305.837</ele>
        <time>2012-03-25T08:56:25.000Z</time>
      </trkpt>
      <trkpt lat="48.70092" lon="6.11436">
        <ele>304.875</ele>
        <time>2012-03-25T08:56:27.000Z</time>
      </trkpt>
      <trkpt lat="48.70088" lon="6.11411">
        <ele>304.395</ele>
        <time>2012-03-25T08:56:29.000Z</time>
      </trkpt>
      <trkpt lat="48.70072" lon="6.11342">
        <ele>300.069</ele>
        <time>2012-03-25T08:56:35.000Z</time>
      </trkpt>
      <trkpt lat="48.70072" lon="6.11323">
        <ele>299.588</ele>
        <time>2012-03-25T08:56:37.000Z</time>
      </trkpt>
      <trkpt lat="48.70071" lon="6.11298">
        <ele>299.107</ele>
        <time>2012-03-25T08:56:40.000Z</time>
      </trkpt>
      <trkpt lat="48.70074" lon="6.11243">
        <ele>297.185</ele>
        <time>2012-03-25T08:56:47.000Z</time>
      </trkpt>
      <trkpt lat="48.70073" lon="6.11237">
        <ele>297.185</ele>
        <time>2012-03-25T08:56:48.000Z</time>
      </trkpt>
      <trkpt lat="48.70065" lon="6.11209">
        <ele>295.262</ele>
        <time>2012-03-25T08:56:53.000Z</time>
      </trkpt>
      <trkpt lat="48.70061" lon="6.1118">
        <ele>293.82</ele>
        <time>2012-03-25T08:56:57.000Z</time>
      </trkpt>
      <trkpt lat="48.70037" lon="6.11113">
        <ele>290.936</ele>
        <time>2012-03-25T08:57:04.000Z</time>
      </trkpt>
      <trkpt lat="48.70025" lon="6.11079">
        <ele>288.533</ele>
        <time>2012-03-25T08:57:08.000Z</time>
      </trkpt>
      <trkpt lat="48.70023" lon="6.11072">
        <ele>288.533</ele>
        <time>2012-03-25T08:57:09.000Z</time>
      </trkpt>
      <trkpt lat="48.7001" lon="6.11047">
        <ele>287.091</ele>
        <time>2012-03-25T08:57:13.000Z</time>
      </trkpt>
      <trkpt lat="48.69981" lon="6.11">
        <ele>283.246</ele>
        <time>2012-03-25T08:57:21.000Z</time>
      </trkpt>
      <trkpt lat="48.69974" lon="6.10993">
        <ele>283.246</ele>
        <time>2012-03-25T08:57:22.000Z</time>
      </trkpt>
      <trkpt lat="48.69958" lon="6.10973">
        <ele>281.323</ele>
        <time>2012-03-25T08:57:26.000Z</time>
      </trkpt>
      <trkpt lat="48.69934" lon="6.1094">
        <ele>279.4</ele>
        <time>2012-03-25T08:57:33.000Z</time>
      </trkpt>
      <trkpt lat="48.69931" lon="6.10919">
        <ele>277.958</ele>
        <time>2012-03-25T08:57:37.000Z</time>
      </trkpt>
      <trkpt lat="48.69929" lon="6.10903">
        <ele>276.516</ele>
        <time>2012-03-25T08:57:39.000Z</time>
      </trkpt>
      <trkpt lat="48.69915" lon="6.10875">
        <ele>274.594</ele>
        <time>2012-03-25T08:57:44.000Z</time>
      </trkpt>
      <trkpt lat="48.69909" lon="6.10847">
        <ele>272.19</ele>
        <time>2012-03-25T08:57:48.000Z</time>
      </trkpt>
      <trkpt lat="48.69896" lon="6.1081">
        <ele>268.345</ele>
        <time>2012-03-25T08:57:53.000Z</time>
      </trkpt>
      <trkpt lat="48.69886" lon="6.10786">
        <ele>265.942</ele>
        <time>2012-03-25T08:57:56.000Z</time>
      </trkpt>
      <trkpt lat="48.69896" lon="6.10735">
        <ele>262.577</ele>
        <time>2012-03-25T08:58:00.000Z</time>
      </trkpt>
      <trkpt lat="48.69886" lon="6.10705">
        <ele>258.732</ele>
        <time>2012-03-25T08:58:04.000Z</time>
      </trkpt>
      <trkpt lat="48.69872" lon="6.10664">
        <ele>257.29</ele>
        <time>2012-03-25T08:58:08.000Z</time>
      </trkpt>
      <trkpt lat="48.69867" lon="6.10646">
        <ele>255.848</ele>
        <time>2012-03-25T08:58:10.000Z</time>
      </trkpt>
      <trkpt lat="48.69854" lon="6.10606">
        <ele>253.445</ele>
        <time>2012-03-25T08:58:13.000Z</time>
      </trkpt>
      <trkpt lat="48.69852" lon="6.10573">
        <ele>253.925</ele>
        <time>2012-03-25T08:58:16.000Z</time>
      </trkpt>
      <trkpt lat="48.69848" lon="6.10526">
        <ele>254.887</ele>
        <time>2012-03-25T08:58:21.000Z</time>
      </trkpt>
      <trkpt lat="48.69852" lon="6.10494">
        <ele>255.367</ele>
        <time>2012-03-25T08:58:27.000Z</time>
      </trkpt>
      <trkpt lat="48.6984" lon="6.10469">
        <ele>255.848</ele>
        <time>2012-03-25T08:58:38.000Z</time>
      </trkpt>
      <trkpt lat="48.6984" lon="6.10463">
        <ele>255.848</ele>
        <time>2012-03-25T09:00:58.000Z</time>
      </trkpt>
      <trkpt lat="48.69838" lon="6.10446">
        <ele>255.848</ele>
        <time>2012-03-25T09:01:10.000Z</time>
      </trkpt>
      <trkpt lat="48.69836" lon="6.10442">
        <ele>256.329</ele>
        <time>2012-03-25T09:01:13.000Z</time>
      </trkpt>
      <trkpt lat="48.69835" lon="6.1044">
        <ele>256.329</ele>
        <time>2012-03-25T09:01:37.000Z</time>
      </trkpt>
      <trkpt lat="48.69831" lon="6.10438">
        <ele>256.329</ele>
        <time>2012-03-25T09:02:49.000Z</time>
      </trkpt>
      <trkpt lat="48.69825" lon="6.10399">
        <ele>256.809</ele>
        <time>2012-03-25T09:03:00.000Z</time>
      </trkpt>
      <trkpt lat="48.69824" lon="6.10383">
        <ele>256.809</ele>
        <time>2012-03-25T09:03:04.000Z</time>
      </trkpt>
      <trkpt lat="48.69804" lon="6.1036">
        <ele>258.251</ele>
        <time>2012-03-25T09:03:15.000Z</time>
      </trkpt>
      <trkpt lat="48.69799" lon="6.10353">
        <ele>258.732</ele>
        <time>2012-03-25T09:03:19.000Z</time>
      </trkpt>
      <trkpt lat="48.6979" lon="6.10333">
        <ele>259.693</ele>
        <time>2012-03-25T09:03:31.000Z</time>
      </trkpt>
      <trkpt lat="48.6978" lon="6.10311">
        <ele>261.135</ele>
        <time>2012-03-25T09:03:41.000Z</time>
      </trkpt>
      <trkpt lat="48.69773" lon="6.10303">
        <ele>261.616</ele>
        <time>2012-03-25T09:03:45.000Z</time>
      </trkpt>
      <trkpt lat="48.69765" lon="6.1028">
        <ele>263.058</ele>
        <time>2012-03-25T09:03:55.000Z</time>
      </trkpt>
      <trkpt lat="48.69751" lon="6.10257">
        <ele>264.5</ele>
        <time>2012-03-25T09:04:05.000Z</time>
      </trkpt>
      <trkpt lat="48.69738" lon="6.10217">
        <ele>266.422</ele>
        <time>2012-03-25T09:04:20.000Z</time>
      </trkpt>
      <trkpt lat="48.69723" lon="6.10181">
        <ele>268.826</ele>
        <time>2012-03-25T09:04:34.000Z</time>
      </trkpt>
      <trkpt lat="48.69712" lon="6.10145">
        <ele>270.268</ele>
        <time>2012-03-25T09:04:47.000Z</time>
      </trkpt>
      <trkpt lat="48.69707" lon="6.10102">
        <ele>272.19</ele>
        <time>2012-03-25T09:05:01.000Z</time>
      </trkpt>
      <trkpt lat="48.69701" lon="6.10059">
        <ele>274.113</ele>
        <time>2012-03-25T09:05:15.000Z</time>
      </trkpt>
      <trkpt lat="48.69699" lon="6.1002">
        <ele>276.516</ele>
        <time>2012-03-25T09:05:28.000Z</time>
      </trkpt>
      <trkpt lat="48.69697" lon="6.09997">
        <ele>277.478</ele>
        <time>2012-03-25T09:05:35.000Z</time>
      </trkpt>
      <trkpt lat="48.69691" lon="6.09948">
        <ele>280.362</ele>
        <time>2012-03-25T09:05:49.000Z</time>
      </trkpt>
      <trkpt lat="48.69691" lon="6.09944">
        <ele>280.362</ele>
        <time>2012-03-25T09:05:50.000Z</time>
      </trkpt>
      <trkpt lat="48.6968" lon="6.09893">
        <ele>281.804</ele>
        <time>2012-03-25T09:06:05.000Z</time>
      </trkpt>
      <trkpt lat="48.69666" lon="6.09845">
        <ele>283.246</ele>
        <time>2012-03-25T09:06:19.000Z</time>
      </trkpt>
      <trkpt lat="48.69646" lon="6.09838">
        <ele>283.726</ele>
        <time>2012-03-25T09:06:28.000Z</time>
      </trkpt>
      <trkpt lat="48.69638" lon="6.09848">
        <ele>284.688</ele>
        <time>2012-03-25T09:06:32.000Z</time>
      </trkpt>
      <trkpt lat="48.69637" lon="6.09855">
        <ele>284.207</ele>
        <time>2012-03-25T09:06:34.000Z</time>
      </trkpt>
      <trkpt lat="48.69638" lon="6.09875">
        <ele>285.168</ele>
        <time>2012-03-25T09:06:39.000Z</time>
      </trkpt>
      <trkpt lat="48.69638" lon="6.09926">
        <ele>287.091</ele>
        <time>2012-03-25T09:06:52.000Z</time>
      </trkpt>
      <trkpt lat="48.69635" lon="6.09966">
        <ele>289.014</ele>
        <time>2012-03-25T09:07:02.000Z</time>
      </trkpt>
      <trkpt lat="48.6963" lon="6.10019">
        <ele>291.897</ele>
        <time>2012-03-25T09:07:14.000Z</time>
      </trkpt>
      <trkpt lat="48.69627" lon="6.10079">
        <ele>294.781</ele>
        <time>2012-03-25T09:07:28.000Z</time>
      </trkpt>
      <trkpt lat="48.69628" lon="6.10118">
        <ele>296.224</ele>
        <time>2012-03-25T09:07:37.000Z</time>
      </trkpt>
      <trkpt lat="48.69629" lon="6.10164">
        <ele>297.185</ele>
        <time>2012-03-25T09:07:47.000Z</time>
      </trkpt>
      <trkpt lat="48.69629" lon="6.10212">
        <ele>299.588</ele>
        <time>2012-03-25T09:07:57.000Z</time>
      </trkpt>
      <trkpt lat="48.69629" lon="6.10222">
        <ele>300.069</ele>
        <time>2012-03-25T09:07:59.000Z</time>
      </trkpt>
      <trkpt lat="48.69627" lon="6.1025">
        <ele>300.549</ele>
        <time>2012-03-25T09:08:04.000Z</time>
      </trkpt>
      <trkpt lat="48.69623" lon="6.10308">
        <ele>301.991</ele>
        <time>2012-03-25T09:08:15.000Z</time>
      </trkpt>
      <trkpt lat="48.69603" lon="6.10362">
        <ele>304.395</ele>
        <time>2012-03-25T09:08:28.000Z</time>
      </trkpt>
      <trkpt lat="48.69574" lon="6.10397">
        <ele>306.798</ele>
        <time>2012-03-25T09:08:41.000Z</time>
      </trkpt>
      <trkpt lat="48.69543" lon="6.10407">
        <ele>308.72</ele>
        <time>2012-03-25T09:08:53.000Z</time>
      </trkpt>
      <trkpt lat="48.69541" lon="6.10405">
        <ele>309.201</ele>
        <time>2012-03-25T09:08:54.000Z</time>
      </trkpt>
      <trkpt lat="48.69534" lon="6.10391">
        <ele>309.682</ele>
        <time>2012-03-25T09:09:00.000Z</time>
      </trkpt>
      <trkpt lat="48.69529" lon="6.10368">
        <ele>309.682</ele>
        <time>2012-03-25T09:09:06.000Z</time>
      </trkpt>
      <trkpt lat="48.69501" lon="6.10367">
        <ele>309.201</ele>
        <time>2012-03-25T09:09:17.000Z</time>
      </trkpt>
      <trkpt lat="48.69494" lon="6.10388">
        <ele>308.24</ele>
        <time>2012-03-25T09:09:23.000Z</time>
      </trkpt>
      <trkpt lat="48.69481" lon="6.10428">
        <ele>307.759</ele>
        <time>2012-03-25T09:09:32.000Z</time>
      </trkpt>
      <trkpt lat="48.69473" lon="6.10433">
        <ele>307.759</ele>
        <time>2012-03-25T09:09:41.000Z</time>
      </trkpt>
      <trkpt lat="48.69475" lon="6.10432">
        <ele>308.24</ele>
        <time>2012-03-25T09:10:08.000Z</time>
      </trkpt>
      <trkpt lat="48.69479" lon="6.10428">
        <ele>308.24</ele>
        <time>2012-03-25T09:10:25.000Z</time>
      </trkpt>
      <trkpt lat="48.69478" lon="6.10429">
        <ele>307.279</ele>
        <time>2012-03-25T09:11:30.000Z</time>
      </trkpt>
      <trkpt lat="48.69451" lon="6.10429">
        <ele>304.395</ele>
        <time>2012-03-25T09:11:39.000Z</time>
      </trkpt>
      <trkpt lat="48.69425" lon="6.1042">
        <ele>304.875</ele>
        <time>2012-03-25T09:11:44.000Z</time>
      </trkpt>
      <trkpt lat="48.69387" lon="6.10435">
        <ele>308.24</ele>
        <time>2012-03-25T09:11:56.000Z</time>
      </trkpt>
      <trkpt lat="48.69347" lon="6.10435">
        <ele>310.643</ele>
        <time>2012-03-25T09:12:09.000Z</time>
      </trkpt>
      <trkpt lat="48.69321" lon="6.10417">
        <ele>314.008</ele>
        <time>2012-03-25T09:12:21.000Z</time>
      </trkpt>
      <trkpt lat="48.69292" lon="6.1039">
        <ele>315.45</ele>
        <time>2012-03-25T09:12:34.000Z</time>
      </trkpt>
      <trkpt lat="48.69258" lon="6.10361">
        <ele>316.892</ele>
        <time>2012-03-25T09:12:47.000Z</time>
      </trkpt>
      <trkpt lat="48.69223" lon="6.10331">
        <ele>318.334</ele>
        <time>2012-03-25T09:12:59.000Z</time>
      </trkpt>
      <trkpt lat="48.69184" lon="6.10297">
        <ele>319.295</ele>
        <time>2012-03-25T09:13:11.000Z</time>
      </trkpt>
      <trkpt lat="48.69144" lon="6.10261">
        <ele>318.814</ele>
        <time>2012-03-25T09:13:24.000Z</time>
      </trkpt>
      <trkpt lat="48.69095" lon="6.10219">
        <ele>317.372</ele>
        <time>2012-03-25T09:13:36.000Z</time>
      </trkpt>
      <trkpt lat="48.69081" lon="6.10208">
        <ele>317.372</ele>
        <time>2012-03-25T09:13:46.000Z</time>
      </trkpt>
      <trkpt lat="48.69082" lon="6.1021">
        <ele>317.372</ele>
        <time>2012-03-25T09:18:37.000Z</time>
      </trkpt>
      <trkpt lat="48.69076" lon="6.10208">
        <ele>316.411</ele>
        <time>2012-03-25T09:19:26.000Z</time>
      </trkpt>
      <trkpt lat="48.69061" lon="6.10224">
        <ele>319.295</ele>
        <time>2012-03-25T09:19:34.000Z</time>
      </trkpt>
      <trkpt lat="48.69047" lon="6.10257">
        <ele>322.179</ele>
        <time>2012-03-25T09:19:46.000Z</time>
      </trkpt>
      <trkpt lat="48.69044" lon="6.10267">
        <ele>322.66</ele>
        <time>2012-03-25T09:19:49.000Z</time>
      </trkpt>
      <trkpt lat="48.69034" lon="6.10289">
        <ele>323.14</ele>
        <time>2012-03-25T09:19:55.000Z</time>
      </trkpt>
      <trkpt lat="48.69024" lon="6.10307">
        <ele>324.102</ele>
        <time>2012-03-25T09:20:00.000Z</time>
      </trkpt>
      <trkpt lat="48.69012" lon="6.1035">
        <ele>324.582</ele>
        <time>2012-03-25T09:20:11.000Z</time>
      </trkpt>
      <trkpt lat="48.69006" lon="6.10359">
        <ele>325.063</ele>
        <time>2012-03-25T09:20:14.000Z</time>
      </trkpt>
      <trkpt lat="48.68996" lon="6.10362">
        <ele>326.505</ele>
        <time>2012-03-25T09:20:20.000Z</time>
      </trkpt>
      <trkpt lat="48.68989" lon="6.10361">
        <ele>327.466</ele>
        <time>2012-03-25T09:20:25.000Z</time>
      </trkpt>
      <trkpt lat="48.68964" lon="6.10353">
        <ele>329.389</ele>
        <time>2012-03-25T09:20:39.000Z</time>
      </trkpt>
      <trkpt lat="48.68962" lon="6.10354">
        <ele>329.389</ele>
        <time>2012-03-25T09:20:40.000Z</time>
      </trkpt>
      <trkpt lat="48.68947" lon="6.10384">
        <ele>329.87</ele>
        <time>2012-03-25T09:20:52.000Z</time>
      </trkpt>
      <trkpt lat="48.68935" lon="6.10416">
        <ele>329.87</ele>
        <time>2012-03-25T09:21:01.000Z</time>
      </trkpt>
      <trkpt lat="48.68927" lon="6.10427">
        <ele>329.389</ele>
        <time>2012-03-25T09:21:04.000Z</time>
      </trkpt>
      <trkpt lat="48.68916" lon="6.10473">
        <ele>328.908</ele>
        <time>2012-03-25T09:21:15.000Z</time>
      </trkpt>
      <trkpt lat="48.68911" lon="6.10497">
        <ele>327.466</ele>
        <time>2012-03-25T09:21:20.000Z</time>
      </trkpt>
      <trkpt lat="48.68885" lon="6.10554">
        <ele>326.024</ele>
        <time>2012-03-25T09:21:32.000Z</time>
      </trkpt>
      <trkpt lat="48.68872" lon="6.1059">
        <ele>324.102</ele>
        <time>2012-03-25T09:21:39.000Z</time>
      </trkpt>
      <trkpt lat="48.68859" lon="6.10635">
        <ele>321.698</ele>
        <time>2012-03-25T09:21:46.000Z</time>
      </trkpt>
      <trkpt lat="48.68839" lon="6.10644">
        <ele>321.218</ele>
        <time>2012-03-25T09:21:51.000Z</time>
      </trkpt>
      <trkpt lat="48.68807" lon="6.10654">
        <ele>319.295</ele>
        <time>2012-03-25T09:21:58.000Z</time>
      </trkpt>
      <trkpt lat="48.68801" lon="6.10655">
        <ele>318.814</ele>
        <time>2012-03-25T09:21:59.000Z</time>
      </trkpt>
      <trkpt lat="48.68782" lon="6.10662">
        <ele>317.372</ele>
        <time>2012-03-25T09:22:03.000Z</time>
      </trkpt>
      <trkpt lat="48.68753" lon="6.1067">
        <ele>314.008</ele>
        <time>2012-03-25T09:22:10.000Z</time>
      </trkpt>
      <trkpt lat="48.6874" lon="6.10674">
        <ele>311.124</ele>
        <time>2012-03-25T09:22:14.000Z</time>
      </trkpt>
      <trkpt lat="48.68727" lon="6.10676">
        <ele>307.759</ele>
        <time>2012-03-25T09:22:18.000Z</time>
      </trkpt>
      <trkpt lat="48.6872" lon="6.10677">
        <ele>304.395</ele>
        <time>2012-03-25T09:22:21.000Z</time>
      </trkpt>
      <trkpt lat="48.68718" lon="6.10677">
        <ele>303.433</ele>
        <time>2012-03-25T09:22:22.000Z</time>
      </trkpt>
      <trkpt lat="48.68718" lon="6.10697">
        <ele>299.588</ele>
        <time>2012-03-25T09:22:27.000Z</time>
      </trkpt>
      <trkpt lat="48.68732" lon="6.10735">
        <ele>295.743</ele>
        <time>2012-03-25T09:22:32.000Z</time>
      </trkpt>
      <trkpt lat="48.68745" lon="6.10765">
        <ele>292.859</ele>
        <time>2012-03-25T09:22:36.000Z</time>
      </trkpt>
      <trkpt lat="48.68754" lon="6.10786">
        <ele>289.014</ele>
        <time>2012-03-25T09:22:40.000Z</time>
      </trkpt>
      <trkpt lat="48.68756" lon="6.10791">
        <ele>288.533</ele>
        <time>2012-03-25T09:22:41.000Z</time>
      </trkpt>
      <trkpt lat="48.68759" lon="6.10808">
        <ele>287.571</ele>
        <time>2012-03-25T09:22:43.000Z</time>
      </trkpt>
      <trkpt lat="48.68777" lon="6.10831">
        <ele>283.246</ele>
        <time>2012-03-25T09:22:49.000Z</time>
      </trkpt>
      <trkpt lat="48.68784" lon="6.10833">
        <ele>282.284</ele>
        <time>2012-03-25T09:22:50.000Z</time>
      </trkpt>
      <trkpt lat="48.68796" lon="6.10835">
        <ele>280.842</ele>
        <time>2012-03-25T09:22:52.000Z</time>
      </trkpt>
      <trkpt lat="48.68808" lon="6.10846">
        <ele>279.4</ele>
        <time>2012-03-25T09:22:55.000Z</time>
      </trkpt>
      <trkpt lat="48.68805" lon="6.10871">
        <ele>278.92</ele>
        <time>2012-03-25T09:22:59.000Z</time>
      </trkpt>
      <trkpt lat="48.68807" lon="6.10898">
        <ele>278.92</ele>
        <time>2012-03-25T09:23:02.000Z</time>
      </trkpt>
      <trkpt lat="48.68811" lon="6.10936">
        <ele>280.362</ele>
        <time>2012-03-25T09:23:06.000Z</time>
      </trkpt>
      <trkpt lat="48.68821" lon="6.10977">
        <ele>281.323</ele>
        <time>2012-03-25T09:23:11.000Z</time>
      </trkpt>
      <trkpt lat="48.68825" lon="6.11031">
        <ele>281.323</ele>
        <time>2012-03-25T09:23:18.000Z</time>
      </trkpt>
      <trkpt lat="48.68811" lon="6.11083">
        <ele>284.207</ele>
        <time>2012-03-25T09:23:27.000Z</time>
      </trkpt>
      <trkpt lat="48.68795" lon="6.11101">
        <ele>285.168</ele>
        <time>2012-03-25T09:23:33.000Z</time>
      </trkpt>
      <trkpt lat="48.68761" lon="6.11089">
        <ele>285.649</ele>
        <time>2012-03-25T09:23:43.000Z</time>
      </trkpt>
      <trkpt lat="48.68745" lon="6.11086">
        <ele>286.13</ele>
        <time>2012-03-25T09:23:48.000Z</time>
      </trkpt>
      <trkpt lat="48.68718" lon="6.11107">
        <ele>286.13</ele>
        <time>2012-03-25T09:23:56.000Z</time>
      </trkpt>
      <trkpt lat="48.68698" lon="6.11098">
        <ele>287.091</ele>
        <time>2012-03-25T09:24:02.000Z</time>
      </trkpt>
      <trkpt lat="48.68676" lon="6.11067">
        <ele>289.975</ele>
        <time>2012-03-25T09:24:15.000Z</time>
      </trkpt>
      <trkpt lat="48.68659" lon="6.11041">
        <ele>291.417</ele>
        <time>2012-03-25T09:24:27.000Z</time>
      </trkpt>
      <trkpt lat="48.68629" lon="6.11015">
        <ele>293.339</ele>
        <time>2012-03-25T09:24:40.000Z</time>
      </trkpt>
      <trkpt lat="48.68602" lon="6.10993">
        <ele>294.301</ele>
        <time>2012-03-25T09:24:52.000Z</time>
      </trkpt>
      <trkpt lat="48.68571" lon="6.10967">
        <ele>295.743</ele>
        <time>2012-03-25T09:25:05.000Z</time>
      </trkpt>
      <trkpt lat="48.68546" lon="6.10938">
        <ele>297.665</ele>
        <time>2012-03-25T09:25:19.000Z</time>
      </trkpt>
      <trkpt lat="48.68523" lon="6.1091">
        <ele>299.107</ele>
        <time>2012-03-25T09:25:31.000Z</time>
      </trkpt>
      <trkpt lat="48.68496" lon="6.10887">
        <ele>301.03</ele>
        <time>2012-03-25T09:25:43.000Z</time>
      </trkpt>
      <trkpt lat="48.68469" lon="6.10856">
        <ele>303.433</ele>
        <time>2012-03-25T09:25:57.000Z</time>
      </trkpt>
      <trkpt lat="48.68465" lon="6.10852">
        <ele>304.395</ele>
        <time>2012-03-25T09:25:59.000Z</time>
      </trkpt>
      <trkpt lat="48.68439" lon="6.10835">
        <ele>307.279</ele>
        <time>2012-03-25T09:26:11.000Z</time>
      </trkpt>
      <trkpt lat="48.68418" lon="6.10814">
        <ele>307.759</ele>
        <time>2012-03-25T09:26:22.000Z</time>
      </trkpt>
      <trkpt lat="48.68403" lon="6.10802">
        <ele>310.162</ele>
        <time>2012-03-25T09:26:34.000Z</time>
      </trkpt>
      <trkpt lat="48.68411" lon="6.10832">
        <ele>313.047</ele>
        <time>2012-03-25T09:26:49.000Z</time>
      </trkpt>
      <trkpt lat="48.68413" lon="6.10834">
        <ele>313.527</ele>
        <time>2012-03-25T09:26:50.000Z</time>
      </trkpt>
      <trkpt lat="48.68422" lon="6.10858">
        <ele>315.93</ele>
        <time>2012-03-25T09:27:02.000Z</time>
      </trkpt>
      <trkpt lat="48.6843" lon="6.1089">
        <ele>317.372</ele>
        <time>2012-03-25T09:27:15.000Z</time>
      </trkpt>
      <trkpt lat="48.68429" lon="6.109">
        <ele>317.853</ele>
        <time>2012-03-25T09:27:19.000Z</time>
      </trkpt>
      <trkpt lat="48.6842" lon="6.10914">
        <ele>315.45</ele>
        <time>2012-03-25T09:27:25.000Z</time>
      </trkpt>
      <trkpt lat="48.6841" lon="6.10917">
        <ele>314.969</ele>
        <time>2012-03-25T09:27:29.000Z</time>
      </trkpt>
      <trkpt lat="48.68405" lon="6.10924">
        <ele>312.085</ele>
        <time>2012-03-25T09:27:36.000Z</time>
      </trkpt>
      <trkpt lat="48.68416" lon="6.10928">
        <ele>309.201</ele>
        <time>2012-03-25T09:27:40.000Z</time>
      </trkpt>
      <trkpt lat="48.68434" lon="6.10936">
        <ele>308.24</ele>
        <time>2012-03-25T09:27:50.000Z</time>
      </trkpt>
      <trkpt lat="48.68446" lon="6.10943">
        <ele>305.837</ele>
        <time>2012-03-25T09:27:58.000Z</time>
      </trkpt>
      <trkpt lat="48.68446" lon="6.10944">
        <ele>305.356</ele>
        <time>2012-03-25T09:28:00.000Z</time>
      </trkpt>
      <trkpt lat="48.6843" lon="6.10943">
        <ele>304.395</ele>
        <time>2012-03-25T09:28:09.000Z</time>
      </trkpt>
      <trkpt lat="48.68425" lon="6.10944">
        <ele>303.914</ele>
        <time>2012-03-25T09:28:11.000Z</time>
      </trkpt>
      <trkpt lat="48.68426" lon="6.10954">
        <ele>301.03</ele>
        <time>2012-03-25T09:28:18.000Z</time>
      </trkpt>
      <trkpt lat="48.68452" lon="6.10964">
        <ele>298.627</ele>
        <time>2012-03-25T09:28:25.000Z</time>
      </trkpt>
      <trkpt lat="48.68446" lon="6.10969">
        <ele>297.185</ele>
        <time>2012-03-25T09:28:30.000Z</time>
      </trkpt>
      <trkpt lat="48.68431" lon="6.10967">
        <ele>295.262</ele>
        <time>2012-03-25T09:28:34.000Z</time>
      </trkpt>
      <trkpt lat="48.68412" lon="6.10977">
        <ele>292.378</ele>
        <time>2012-03-25T09:28:40.000Z</time>
      </trkpt>
      <trkpt lat="48.68409" lon="6.10979">
        <ele>291.417</ele>
        <time>2012-03-25T09:28:41.000Z</time>
      </trkpt>
      <trkpt lat="48.68404" lon="6.11009">
        <ele>290.936</ele>
        <time>2012-03-25T09:28:46.000Z</time>
      </trkpt>
      <trkpt lat="48.68399" lon="6.11021">
        <ele>291.417</ele>
        <time>2012-03-25T09:28:50.000Z</time>
      </trkpt>
      <trkpt lat="48.68377" lon="6.11029">
        <ele>291.417</ele>
        <time>2012-03-25T09:28:58.000Z</time>
      </trkpt>
      <trkpt lat="48.68354" lon="6.1105">
        <ele>292.378</ele>
        <time>2012-03-25T09:29:07.000Z</time>
      </trkpt>
      <trkpt lat="48.68337" lon="6.11072">
        <ele>293.339</ele>
        <time>2012-03-25T09:29:12.000Z</time>
      </trkpt>
      <trkpt lat="48.68316" lon="6.11136">
        <ele>293.82</ele>
        <time>2012-03-25T09:29:19.000Z</time>
      </trkpt>
      <trkpt lat="48.68315" lon="6.11187">
        <ele>294.301</ele>
        <time>2012-03-25T09:29:27.000Z</time>
      </trkpt>
      <trkpt lat="48.68304" lon="6.11282">
        <ele>296.224</ele>
        <time>2012-03-25T09:29:41.000Z</time>
      </trkpt>
      <trkpt lat="48.68293" lon="6.1134">
        <ele>297.665</ele>
        <time>2012-03-25T09:29:52.000Z</time>
      </trkpt>
      <trkpt lat="48.68283" lon="6.11352">
        <ele>298.146</ele>
        <time>2012-03-25T09:29:56.000Z</time>
      </trkpt>
      <trkpt lat="48.68269" lon="6.11354">
        <ele>298.627</ele>
        <time>2012-03-25T09:30:01.000Z</time>
      </trkpt>
      <trkpt lat="48.68233" lon="6.11355">
        <ele>300.549</ele>
        <time>2012-03-25T09:30:14.000Z</time>
      </trkpt>
      <trkpt lat="48.68203" lon="6.11356">
        <ele>302.472</ele>
        <time>2012-03-25T09:30:25.000Z</time>
      </trkpt>
      <trkpt lat="48.68172" lon="6.11358">
        <ele>303.433</ele>
        <time>2012-03-25T09:30:34.000Z</time>
      </trkpt>
      <trkpt lat="48.68126" lon="6.11354">
        <ele>303.433</ele>
        <time>2012-03-25T09:30:47.000Z</time>
      </trkpt>
      <trkpt lat="48.68074" lon="6.11352">
        <ele>302.472</ele>
        <time>2012-03-25T09:31:00.000Z</time>
      </trkpt>
      <trkpt lat="48.68068" lon="6.11354">
        <ele>302.472</ele>
        <time>2012-03-25T09:31:02.000Z</time>
      </trkpt>
      <trkpt lat="48.6805" lon="6.1139">
        <ele>302.953</ele>
        <time>2012-03-25T09:31:11.000Z</time>
      </trkpt>
      <trkpt lat="48.68046" lon="6.11402">
        <ele>302.953</ele>
        <time>2012-03-25T09:31:14.000Z</time>
      </trkpt>
      <trkpt lat="48.68037" lon="6.11444">
        <ele>303.914</ele>
        <time>2012-03-25T09:31:21.000Z</time>
      </trkpt>
      <trkpt lat="48.68015" lon="6.11494">
        <ele>304.875</ele>
        <time>2012-03-25T09:31:30.000Z</time>
      </trkpt>
      <trkpt lat="48.68009" lon="6.11503">
        <ele>305.356</ele>
        <time>2012-03-25T09:31:32.000Z</time>
      </trkpt>
      <trkpt lat="48.67995" lon="6.11513">
        <ele>306.317</ele>
        <time>2012-03-25T09:31:36.000Z</time>
      </trkpt>
      <trkpt lat="48.67954" lon="6.11524">
        <ele>307.279</ele>
        <time>2012-03-25T09:31:48.000Z</time>
      </trkpt>
      <trkpt lat="48.67913" lon="6.11517">
        <ele>308.24</ele>
        <time>2012-03-25T09:31:59.000Z</time>
      </trkpt>
      <trkpt lat="48.67875" lon="6.11507">
        <ele>309.201</ele>
        <time>2012-03-25T09:32:09.000Z</time>
      </trkpt>
      <trkpt lat="48.67839" lon="6.11492">
        <ele>309.682</ele>
        <time>2012-03-25T09:32:18.000Z</time>
      </trkpt>
      <trkpt lat="48.67809" lon="6.1147">
        <ele>310.643</ele>
        <time>2012-03-25T09:32:28.000Z</time>
      </trkpt>
      <trkpt lat="48.67772" lon="6.11454">
        <ele>312.085</ele>
        <time>2012-03-25T09:32:39.000Z</time>
      </trkpt>
      <trkpt lat="48.67743" lon="6.1145">
        <ele>314.969</ele>
        <time>2012-03-25T09:32:49.000Z</time>
      </trkpt>
      <trkpt lat="48.67725" lon="6.11458">
        <ele>316.411</ele>
        <time>2012-03-25T09:32:59.000Z</time>
      </trkpt>
      <trkpt lat="48.67721" lon="6.11478">
        <ele>317.372</ele>
        <time>2012-03-25T09:33:07.000Z</time>
      </trkpt>
      <trkpt lat="48.67712" lon="6.11494">
        <ele>318.334</ele>
        <time>2012-03-25T09:33:13.000Z</time>
      </trkpt>
      <trkpt lat="48.67709" lon="6.11509">
        <ele>319.295</ele>
        <time>2012-03-25T09:33:18.000Z</time>
      </trkpt>
      <trkpt lat="48.67706" lon="6.1154">
        <ele>321.698</ele>
        <time>2012-03-25T09:33:30.000Z</time>
      </trkpt>
      <trkpt lat="48.67708" lon="6.11553">
        <ele>322.66</ele>
        <time>2012-03-25T09:33:34.000Z</time>
      </trkpt>
      <trkpt lat="48.67702" lon="6.11586">
        <ele>323.621</ele>
        <time>2012-03-25T09:33:46.000Z</time>
      </trkpt>
      <trkpt lat="48.67702" lon="6.11611">
        <ele>325.544</ele>
        <time>2012-03-25T09:33:55.000Z</time>
      </trkpt>
      <trkpt lat="48.67699" lon="6.11618">
        <ele>326.024</ele>
        <time>2012-03-25T09:33:58.000Z</time>
      </trkpt>
      <trkpt lat="48.67706" lon="6.11632">
        <ele>326.986</ele>
        <time>2012-03-25T09:34:03.000Z</time>
      </trkpt>
      <trkpt lat="48.67705" lon="6.11667">
        <ele>328.428</ele>
        <time>2012-03-25T09:34:16.000Z</time>
      </trkpt>
      <trkpt lat="48.6771" lon="6.11677">
        <ele>328.908</ele>
        <time>2012-03-25T09:34:20.000Z</time>
      </trkpt>
      <trkpt lat="48.67712" lon="6.11692">
        <ele>329.389</ele>
        <time>2012-03-25T09:34:25.000Z</time>
      </trkpt>
      <trkpt lat="48.67713" lon="6.11729">
        <ele>331.312</ele>
        <time>2012-03-25T09:34:38.000Z</time>
      </trkpt>
      <trkpt lat="48.67714" lon="6.11731">
        <ele>331.792</ele>
        <time>2012-03-25T09:34:39.000Z</time>
      </trkpt>
      <trkpt lat="48.67715" lon="6.11741">
        <ele>332.273</ele>
        <time>2012-03-25T09:34:43.000Z</time>
      </trkpt>
      <trkpt lat="48.67715" lon="6.11771">
        <ele>333.715</ele>
        <time>2012-03-25T09:34:53.000Z</time>
      </trkpt>
      <trkpt lat="48.67711" lon="6.11796">
        <ele>335.157</ele>
        <time>2012-03-25T09:35:03.000Z</time>
      </trkpt>
      <trkpt lat="48.6771" lon="6.11838">
        <ele>337.079</ele>
        <time>2012-03-25T09:35:18.000Z</time>
      </trkpt>
      <trkpt lat="48.67709" lon="6.11869">
        <ele>339.002</ele>
        <time>2012-03-25T09:35:30.000Z</time>
      </trkpt>
      <trkpt lat="48.67712" lon="6.11905">
        <ele>340.925</ele>
        <time>2012-03-25T09:35:44.000Z</time>
      </trkpt>
      <trkpt lat="48.67714" lon="6.11933">
        <ele>342.367</ele>
        <time>2012-03-25T09:35:54.000Z</time>
      </trkpt>
      <trkpt lat="48.67713" lon="6.1195">
        <ele>342.847</ele>
        <time>2012-03-25T09:36:01.000Z</time>
      </trkpt>
      <trkpt lat="48.67713" lon="6.11971">
        <ele>344.77</ele>
        <time>2012-03-25T09:36:11.000Z</time>
      </trkpt>
      <trkpt lat="48.67699" lon="6.11964">
        <ele>345.731</ele>
        <time>2012-03-25T09:36:20.000Z</time>
      </trkpt>
      <trkpt lat="48.6768" lon="6.11961">
        <ele>346.212</ele>
        <time>2012-03-25T09:36:27.000Z</time>
      </trkpt>
      <trkpt lat="48.67657" lon="6.11976">
        <ele>347.173</ele>
        <time>2012-03-25T09:36:37.000Z</time>
      </trkpt>
      <trkpt lat="48.6765" lon="6.11981">
        <ele>347.173</ele>
        <time>2012-03-25T09:36:40.000Z</time>
      </trkpt>
      <trkpt lat="48.67626" lon="6.11981">
        <ele>348.135</ele>
        <time>2012-03-25T09:36:51.000Z</time>
      </trkpt>
      <trkpt lat="48.67606" lon="6.11959">
        <ele>347.173</ele>
        <time>2012-03-25T09:37:01.000Z</time>
      </trkpt>
      <trkpt lat="48.67595" lon="6.11937">
        <ele>347.654</ele>
        <time>2012-03-25T09:37:10.000Z</time>
      </trkpt>
      <trkpt lat="48.67593" lon="6.11938">
        <ele>348.135</ele>
        <time>2012-03-25T09:37:11.000Z</time>
      </trkpt>
      <trkpt lat="48.67568" lon="6.11961">
        <ele>348.615</ele>
        <time>2012-03-25T09:37:22.000Z</time>
      </trkpt>
      <trkpt lat="48.67553" lon="6.11928">
        <ele>349.096</ele>
        <time>2012-03-25T09:37:32.000Z</time>
      </trkpt>
      <trkpt lat="48.67552" lon="6.11925">
        <ele>349.096</ele>
        <time>2012-03-25T09:37:33.000Z</time>
      </trkpt>
      <trkpt lat="48.67534" lon="6.11902">
        <ele>349.096</ele>
        <time>2012-03-25T09:37:41.000Z</time>
      </trkpt>
      <trkpt lat="48.67522" lon="6.11871">
        <ele>348.615</ele>
        <time>2012-03-25T09:37:49.000Z</time>
      </trkpt>
      <trkpt lat="48.67504" lon="6.11842">
        <ele>348.615</ele>
        <time>2012-03-25T09:37:58.000Z</time>
      </trkpt>
      <trkpt lat="48.67496" lon="6.11838">
        <ele>349.096</ele>
        <time>2012-03-25T09:38:02.000Z</time>
      </trkpt>
      <trkpt lat="48.67494" lon="6.11841">
        <ele>349.096</ele>
        <time>2012-03-25T09:38:04.000Z</time>
      </trkpt>
      <trkpt lat="48.67462" lon="6.11855">
        <ele>349.577</ele>
        <time>2012-03-25T09:38:14.000Z</time>
      </trkpt>
      <trkpt lat="48.67456" lon="6.11856">
        <ele>349.577</ele>
        <time>2012-03-25T09:38:16.000Z</time>
      </trkpt>
      <trkpt lat="48.67424" lon="6.11874">
        <ele>350.538</ele>
        <time>2012-03-25T09:38:27.000Z</time>
      </trkpt>
      <trkpt lat="48.67406" lon="6.11904">
        <ele>351.499</ele>
        <time>2012-03-25T09:38:36.000Z</time>
      </trkpt>
      <trkpt lat="48.67403" lon="6.11922">
        <ele>351.98</ele>
        <time>2012-03-25T09:38:41.000Z</time>
      </trkpt>
      <trkpt lat="48.67402" lon="6.11943">
        <ele>352.461</ele>
        <time>2012-03-25T09:38:47.000Z</time>
      </trkpt>
      <trkpt lat="48.67397" lon="6.11979">
        <ele>353.903</ele>
        <time>2012-03-25T09:38:57.000Z</time>
      </trkpt>
      <trkpt lat="48.67398" lon="6.11984">
        <ele>354.383</ele>
        <time>2012-03-25T09:38:59.000Z</time>
      </trkpt>
      <trkpt lat="48.67396" lon="6.11993">
        <ele>353.903</ele>
        <time>2012-03-25T09:39:03.000Z</time>
      </trkpt>
      <trkpt lat="48.67392" lon="6.12035">
        <ele>354.864</ele>
        <time>2012-03-25T09:39:14.000Z</time>
      </trkpt>
      <trkpt lat="48.67391" lon="6.12082">
        <ele>355.825</ele>
        <time>2012-03-25T09:39:25.000Z</time>
      </trkpt>
      <trkpt lat="48.6739" lon="6.12085">
        <ele>356.306</ele>
        <time>2012-03-25T09:39:26.000Z</time>
      </trkpt>
      <trkpt lat="48.67395" lon="6.12126">
        <ele>358.228</ele>
        <time>2012-03-25T09:39:39.000Z</time>
      </trkpt>
      <trkpt lat="48.67399" lon="6.12156">
        <ele>357.267</ele>
        <time>2012-03-25T09:39:45.000Z</time>
      </trkpt>
      <trkpt lat="48.67421" lon="6.12179">
        <ele>356.786</ele>
        <time>2012-03-25T09:39:52.000Z</time>
      </trkpt>
      <trkpt lat="48.67471" lon="6.12162">
        <ele>355.344</ele>
        <time>2012-03-25T09:40:03.000Z</time>
      </trkpt>
      <trkpt lat="48.67519" lon="6.12146">
        <ele>354.864</ele>
        <time>2012-03-25T09:40:13.000Z</time>
      </trkpt>
      <trkpt lat="48.6753" lon="6.12152">
        <ele>353.903</ele>
        <time>2012-03-25T09:40:17.000Z</time>
      </trkpt>
      <trkpt lat="48.6753" lon="6.12164">
        <ele>354.383</ele>
        <time>2012-03-25T09:40:20.000Z</time>
      </trkpt>
      <trkpt lat="48.67553" lon="6.12172">
        <ele>353.422</ele>
        <time>2012-03-25T09:40:28.000Z</time>
      </trkpt>
      <trkpt lat="48.67565" lon="6.12161">
        <ele>352.941</ele>
        <time>2012-03-25T09:40:32.000Z</time>
      </trkpt>
      <trkpt lat="48.67573" lon="6.12158">
        <ele>352.461</ele>
        <time>2012-03-25T09:40:35.000Z</time>
      </trkpt>
      <trkpt lat="48.6759" lon="6.12161">
        <ele>352.461</ele>
        <time>2012-03-25T09:40:40.000Z</time>
      </trkpt>
      <trkpt lat="48.67601" lon="6.12155">
        <ele>351.499</ele>
        <time>2012-03-25T09:40:44.000Z</time>
      </trkpt>
      <trkpt lat="48.67619" lon="6.12154">
        <ele>351.98</ele>
        <time>2012-03-25T09:40:50.000Z</time>
      </trkpt>
      <trkpt lat="48.67661" lon="6.12138">
        <ele>350.538</ele>
        <time>2012-03-25T09:41:02.000Z</time>
      </trkpt>
      <trkpt lat="48.67675" lon="6.12141">
        <ele>350.057</ele>
        <time>2012-03-25T09:41:06.000Z</time>
      </trkpt>
      <trkpt lat="48.67687" lon="6.12162">
        <ele>350.057</ele>
        <time>2012-03-25T09:41:12.000Z</time>
      </trkpt>
      <trkpt lat="48.67719" lon="6.12165">
        <ele>349.577</ele>
        <time>2012-03-25T09:41:21.000Z</time>
      </trkpt>
      <trkpt lat="48.67751" lon="6.12168">
        <ele>349.096</ele>
        <time>2012-03-25T09:41:30.000Z</time>
      </trkpt>
      <trkpt lat="48.67779" lon="6.12179">
        <ele>351.018</ele>
        <time>2012-03-25T09:41:40.000Z</time>
      </trkpt>
      <trkpt lat="48.67791" lon="6.12184">
        <ele>351.499</ele>
        <time>2012-03-25T09:41:44.000Z</time>
      </trkpt>
      <trkpt lat="48.6781" lon="6.12175">
        <ele>351.499</ele>
        <time>2012-03-25T09:41:51.000Z</time>
      </trkpt>
      <trkpt lat="48.67847" lon="6.12172">
        <ele>351.499</ele>
        <time>2012-03-25T09:42:03.000Z</time>
      </trkpt>
      <trkpt lat="48.67859" lon="6.12196">
        <ele>351.499</ele>
        <time>2012-03-25T09:42:10.000Z</time>
      </trkpt>
      <trkpt lat="48.67868" lon="6.12242">
        <ele>352.461</ele>
        <time>2012-03-25T09:42:19.000Z</time>
      </trkpt>
      <trkpt lat="48.67877" lon="6.12279">
        <ele>352.941</ele>
        <time>2012-03-25T09:42:25.000Z</time>
      </trkpt>
      <trkpt lat="48.67889" lon="6.12339">
        <ele>353.903</ele>
        <time>2012-03-25T09:42:35.000Z</time>
      </trkpt>
      <trkpt lat="48.67907" lon="6.12384">
        <ele>354.383</ele>
        <time>2012-03-25T09:42:44.000Z</time>
      </trkpt>
      <trkpt lat="48.67945" lon="6.12411">
        <ele>354.864</ele>
        <time>2012-03-25T09:42:54.000Z</time>
      </trkpt>
      <trkpt lat="48.67984" lon="6.12436">
        <ele>354.864</ele>
        <time>2012-03-25T09:43:06.000Z</time>
      </trkpt>
      <trkpt lat="48.68029" lon="6.12451">
        <ele>354.864</ele>
        <time>2012-03-25T09:43:16.000Z</time>
      </trkpt>
      <trkpt lat="48.68065" lon="6.12471">
        <ele>354.864</ele>
        <time>2012-03-25T09:43:25.000Z</time>
      </trkpt>
      <trkpt lat="48.68098" lon="6.12492">
        <ele>354.864</ele>
        <time>2012-03-25T09:43:32.000Z</time>
      </trkpt>
      <trkpt lat="48.68101" lon="6.12495">
        <ele>354.864</ele>
        <time>2012-03-25T09:43:33.000Z</time>
      </trkpt>
      <trkpt lat="48.68124" lon="6.12523">
        <ele>354.864</ele>
        <time>2012-03-25T09:43:40.000Z</time>
      </trkpt>
      <trkpt lat="48.68143" lon="6.12563">
        <ele>354.864</ele>
        <time>2012-03-25T09:43:48.000Z</time>
      </trkpt>
      <trkpt lat="48.68159" lon="6.12577">
        <ele>354.864</ele>
        <time>2012-03-25T09:43:52.000Z</time>
      </trkpt>
      <trkpt lat="48.68195" lon="6.12622">
        <ele>354.864</ele>
        <time>2012-03-25T09:44:04.000Z</time>
      </trkpt>
      <trkpt lat="48.68227" lon="6.12653">
        <ele>355.344</ele>
        <time>2012-03-25T09:44:15.000Z</time>
      </trkpt>
      <trkpt lat="48.68251" lon="6.12682">
        <ele>353.903</ele>
        <time>2012-03-25T09:44:22.000Z</time>
      </trkpt>
      <trkpt lat="48.68267" lon="6.12696">
        <ele>353.422</ele>
        <time>2012-03-25T09:44:26.000Z</time>
      </trkpt>
      <trkpt lat="48.68279" lon="6.12708">
        <ele>353.422</ele>
        <time>2012-03-25T09:44:29.000Z</time>
      </trkpt>
      <trkpt lat="48.68296" lon="6.12722">
        <ele>353.422</ele>
        <time>2012-03-25T09:44:33.000Z</time>
      </trkpt>
      <trkpt lat="48.68304" lon="6.1273">
        <ele>353.422</ele>
        <time>2012-03-25T09:44:35.000Z</time>
      </trkpt>
      <trkpt lat="48.68356" lon="6.12791">
        <ele>351.499</ele>
        <time>2012-03-25T09:44:49.000Z</time>
      </trkpt>
      <trkpt lat="48.6841" lon="6.12845">
        <ele>349.577</ele>
        <time>2012-03-25T09:45:02.000Z</time>
      </trkpt>
      <trkpt lat="48.6845" lon="6.12886">
        <ele>346.693</ele>
        <time>2012-03-25T09:45:12.000Z</time>
      </trkpt>
      <trkpt lat="48.68469" lon="6.12888">
        <ele>346.212</ele>
        <time>2012-03-25T09:45:16.000Z</time>
      </trkpt>
      <trkpt lat="48.68496" lon="6.12864">
        <ele>347.173</ele>
        <time>2012-03-25T09:45:23.000Z</time>
      </trkpt>
      <trkpt lat="48.68541" lon="6.12837">
        <ele>347.654</ele>
        <time>2012-03-25T09:45:34.000Z</time>
      </trkpt>
      <trkpt lat="48.68585" lon="6.12814">
        <ele>348.615</ele>
        <time>2012-03-25T09:45:47.000Z</time>
      </trkpt>
      <trkpt lat="48.68632" lon="6.12799">
        <ele>350.057</ele>
        <time>2012-03-25T09:46:01.000Z</time>
      </trkpt>
      <trkpt lat="48.68683" lon="6.1278">
        <ele>351.018</ele>
        <time>2012-03-25T09:46:16.000Z</time>
      </trkpt>
      <trkpt lat="48.68718" lon="6.12764">
        <ele>352.461</ele>
        <time>2012-03-25T09:46:28.000Z</time>
      </trkpt>
      <trkpt lat="48.6877" lon="6.12737">
        <ele>353.422</ele>
        <time>2012-03-25T09:46:45.000Z</time>
      </trkpt>
      <trkpt lat="48.68793" lon="6.12752">
        <ele>353.903</ele>
        <time>2012-03-25T09:46:55.000Z</time>
      </trkpt>
      <trkpt lat="48.68798" lon="6.1281">
        <ele>352.461</ele>
        <time>2012-03-25T09:47:06.000Z</time>
      </trkpt>
      <trkpt lat="48.68801" lon="6.12858">
        <ele>351.499</ele>
        <time>2012-03-25T09:47:15.000Z</time>
      </trkpt>
      <trkpt lat="48.68779" lon="6.1287">
        <ele>349.577</ele>
        <time>2012-03-25T09:47:26.000Z</time>
      </trkpt>
      <trkpt lat="48.68776" lon="6.12871">
        <ele>349.096</ele>
        <time>2012-03-25T09:47:36.000Z</time>
      </trkpt>
    </trkseg>
  </trk>
</gpx>